<?xml version="1.0" encoding="UTF-8" standalone="no" ?>
<gpx xmlns="http://www.topografix.com/GPX/1/1" xmlns:xsi="http://www.w3.org/2001/XMLSchema-instance" xsi:schemaLocation="http://www.topografix.com/GPX/1/1 http://www.topografix.com/GPX/1/1/gpx.xsd" version="1.1" creator="VisuGPX - https://www.visugpx.com">
  <metadata>
    <name>49 St Crespin</name>
    <desc><![CDATA[Randonnée géocaching "49" du 24 janvier 2018 ]]></desc>
  </metadata>
  <trk>
    <name><![CDATA[Geo-St-Crespin]]></name>
    <trkseg>
      <trkpt lat="47.09727" lon="-1.18643">
        <ele>65.03</ele>
        <time>2019-01-24T08:51:23Z</time>
      </trkpt>
      <trkpt lat="47.09727" lon="-1.18641">
        <ele>65.03</ele>
        <time>2019-01-24T08:51:37Z</time>
      </trkpt>
      <trkpt lat="47.09728" lon="-1.1864">
        <ele>65.03</ele>
        <time>2019-01-24T08:52:12Z</time>
      </trkpt>
      <trkpt lat="47.09728" lon="-1.18642">
        <ele>65.03</ele>
        <time>2019-01-24T08:52:31Z</time>
      </trkpt>
      <trkpt lat="47.0973" lon="-1.18641">
        <ele>65.03</ele>
        <time>2019-01-24T08:52:46Z</time>
      </trkpt>
      <trkpt lat="47.09731" lon="-1.18641">
        <ele>64.55</ele>
        <time>2019-01-24T08:53:05Z</time>
      </trkpt>
      <trkpt lat="47.09732" lon="-1.18639">
        <ele>64.07</ele>
        <time>2019-01-24T08:53:14Z</time>
      </trkpt>
      <trkpt lat="47.09733" lon="-1.18637">
        <ele>63.58</ele>
        <time>2019-01-24T08:53:24Z</time>
      </trkpt>
      <trkpt lat="47.09738" lon="-1.18627">
        <ele>63.58</ele>
        <time>2019-01-24T08:53:36Z</time>
      </trkpt>
      <trkpt lat="47.09742" lon="-1.18634">
        <ele>63.1</ele>
        <time>2019-01-24T08:53:58Z</time>
      </trkpt>
      <trkpt lat="47.09743" lon="-1.18633">
        <ele>63.1</ele>
        <time>2019-01-24T08:54:07Z</time>
      </trkpt>
      <trkpt lat="47.09743" lon="-1.18633">
        <ele>62.62</ele>
        <time>2019-01-24T08:54:16Z</time>
      </trkpt>
      <trkpt lat="47.09726" lon="-1.18634">
        <ele>62.14</ele>
        <time>2019-01-24T08:54:31Z</time>
      </trkpt>
      <trkpt lat="47.09729" lon="-1.18636">
        <ele>62.14</ele>
        <time>2019-01-24T08:54:42Z</time>
      </trkpt>
      <trkpt lat="47.09733" lon="-1.18637">
        <ele>63.58</ele>
        <time>2019-01-24T08:54:54Z</time>
      </trkpt>
      <trkpt lat="47.09738" lon="-1.1864">
        <ele>63.1</ele>
        <time>2019-01-24T08:55:08Z</time>
      </trkpt>
      <trkpt lat="47.09736" lon="-1.1864">
        <ele>63.1</ele>
        <time>2019-01-24T08:55:21Z</time>
      </trkpt>
      <trkpt lat="47.0973" lon="-1.18635">
        <ele>63.1</ele>
        <time>2019-01-24T08:55:36Z</time>
      </trkpt>
      <trkpt lat="47.09731" lon="-1.18631">
        <ele>63.1</ele>
        <time>2019-01-24T08:55:48Z</time>
      </trkpt>
      <trkpt lat="47.09731" lon="-1.18632">
        <ele>63.1</ele>
        <time>2019-01-24T08:56:02Z</time>
      </trkpt>
      <trkpt lat="47.09729" lon="-1.18635">
        <ele>63.1</ele>
        <time>2019-01-24T08:56:19Z</time>
      </trkpt>
      <trkpt lat="47.0973" lon="-1.18635">
        <ele>63.1</ele>
        <time>2019-01-24T08:56:34Z</time>
      </trkpt>
      <trkpt lat="47.09729" lon="-1.18633">
        <ele>63.1</ele>
        <time>2019-01-24T08:56:46Z</time>
      </trkpt>
      <trkpt lat="47.09728" lon="-1.18634">
        <ele>63.1</ele>
        <time>2019-01-24T08:57:00Z</time>
      </trkpt>
      <trkpt lat="47.0973" lon="-1.18633">
        <ele>63.1</ele>
        <time>2019-01-24T08:57:17Z</time>
      </trkpt>
      <trkpt lat="47.09728" lon="-1.18631">
        <ele>63.1</ele>
        <time>2019-01-24T08:57:41Z</time>
      </trkpt>
      <trkpt lat="47.09729" lon="-1.18633">
        <ele>63.1</ele>
        <time>2019-01-24T08:58:02Z</time>
      </trkpt>
      <trkpt lat="47.09731" lon="-1.18635">
        <ele>63.1</ele>
        <time>2019-01-24T08:58:17Z</time>
      </trkpt>
      <trkpt lat="47.0973" lon="-1.18634">
        <ele>63.1</ele>
        <time>2019-01-24T08:58:36Z</time>
      </trkpt>
      <trkpt lat="47.09728" lon="-1.18636">
        <ele>63.1</ele>
        <time>2019-01-24T08:59:05Z</time>
      </trkpt>
      <trkpt lat="47.09728" lon="-1.18635">
        <ele>63.1</ele>
        <time>2019-01-24T08:59:35Z</time>
      </trkpt>
      <trkpt lat="47.09728" lon="-1.18635">
        <ele>63.1</ele>
        <time>2019-01-24T09:00:01Z</time>
      </trkpt>
      <trkpt lat="47.09729" lon="-1.18634">
        <ele>63.1</ele>
        <time>2019-01-24T09:00:30Z</time>
      </trkpt>
      <trkpt lat="47.0973" lon="-1.18634">
        <ele>61.66</ele>
        <time>2019-01-24T09:00:36Z</time>
      </trkpt>
      <trkpt lat="47.0973" lon="-1.18635">
        <ele>61.66</ele>
        <time>2019-01-24T09:00:49Z</time>
      </trkpt>
      <trkpt lat="47.09728" lon="-1.18634">
        <ele>61.66</ele>
        <time>2019-01-24T09:00:54Z</time>
      </trkpt>
      <trkpt lat="47.0973" lon="-1.1864">
        <ele>61.66</ele>
        <time>2019-01-24T09:01:05Z</time>
      </trkpt>
      <trkpt lat="47.09731" lon="-1.1864">
        <ele>61.66</ele>
        <time>2019-01-24T09:01:30Z</time>
      </trkpt>
      <trkpt lat="47.09734" lon="-1.18643">
        <ele>61.66</ele>
        <time>2019-01-24T09:01:44Z</time>
      </trkpt>
      <trkpt lat="47.09726" lon="-1.18648">
        <ele>61.18</ele>
        <time>2019-01-24T09:01:59Z</time>
      </trkpt>
      <trkpt lat="47.09719" lon="-1.18649">
        <ele>60.7</ele>
        <time>2019-01-24T09:02:07Z</time>
      </trkpt>
      <trkpt lat="47.09707" lon="-1.18654">
        <ele>59.26</ele>
        <time>2019-01-24T09:02:22Z</time>
      </trkpt>
      <trkpt lat="47.09701" lon="-1.18656">
        <ele>59.26</ele>
        <time>2019-01-24T09:02:28Z</time>
      </trkpt>
      <trkpt lat="47.09688" lon="-1.18659">
        <ele>56.86</ele>
        <time>2019-01-24T09:02:43Z</time>
      </trkpt>
      <trkpt lat="47.09685" lon="-1.18659">
        <ele>56.86</ele>
        <time>2019-01-24T09:02:45Z</time>
      </trkpt>
      <trkpt lat="47.09675" lon="-1.18659">
        <ele>54.93</ele>
        <time>2019-01-24T09:02:55Z</time>
      </trkpt>
      <trkpt lat="47.09661" lon="-1.1866">
        <ele>52.53</ele>
        <time>2019-01-24T09:03:09Z</time>
      </trkpt>
      <trkpt lat="47.09657" lon="-1.18658">
        <ele>51.57</ele>
        <time>2019-01-24T09:03:13Z</time>
      </trkpt>
      <trkpt lat="47.09641" lon="-1.18657">
        <ele>49.16</ele>
        <time>2019-01-24T09:03:32Z</time>
      </trkpt>
      <trkpt lat="47.09641" lon="-1.18659">
        <ele>49.16</ele>
        <time>2019-01-24T09:03:48Z</time>
      </trkpt>
      <trkpt lat="47.09644" lon="-1.18658">
        <ele>49.16</ele>
        <time>2019-01-24T09:04:02Z</time>
      </trkpt>
      <trkpt lat="47.09643" lon="-1.1866">
        <ele>49.16</ele>
        <time>2019-01-24T09:04:19Z</time>
      </trkpt>
      <trkpt lat="47.0964" lon="-1.1866">
        <ele>49.16</ele>
        <time>2019-01-24T09:04:37Z</time>
      </trkpt>
      <trkpt lat="47.09641" lon="-1.18657">
        <ele>49.16</ele>
        <time>2019-01-24T09:04:49Z</time>
      </trkpt>
      <trkpt lat="47.09636" lon="-1.18657">
        <ele>48.68</ele>
        <time>2019-01-24T09:05:03Z</time>
      </trkpt>
      <trkpt lat="47.09639" lon="-1.18655">
        <ele>47.24</ele>
        <time>2019-01-24T09:05:17Z</time>
      </trkpt>
      <trkpt lat="47.09638" lon="-1.18652">
        <ele>48.68</ele>
        <time>2019-01-24T09:05:45Z</time>
      </trkpt>
      <trkpt lat="47.0964" lon="-1.18658">
        <ele>48.68</ele>
        <time>2019-01-24T09:06:03Z</time>
      </trkpt>
      <trkpt lat="47.09634" lon="-1.18657">
        <ele>48.68</ele>
        <time>2019-01-24T09:06:15Z</time>
      </trkpt>
      <trkpt lat="47.09632" lon="-1.18651">
        <ele>47.72</ele>
        <time>2019-01-24T09:06:25Z</time>
      </trkpt>
      <trkpt lat="47.09626" lon="-1.18628">
        <ele>43.88</ele>
        <time>2019-01-24T09:06:42Z</time>
      </trkpt>
      <trkpt lat="47.09632" lon="-1.18593">
        <ele>40.51</ele>
        <time>2019-01-24T09:07:03Z</time>
      </trkpt>
      <trkpt lat="47.09633" lon="-1.18581">
        <ele>38.11</ele>
        <time>2019-01-24T09:07:17Z</time>
      </trkpt>
      <trkpt lat="47.09632" lon="-1.18565">
        <ele>36.19</ele>
        <time>2019-01-24T09:07:34Z</time>
      </trkpt>
      <trkpt lat="47.09632" lon="-1.18555">
        <ele>36.19</ele>
        <time>2019-01-24T09:07:38Z</time>
      </trkpt>
      <trkpt lat="47.0963" lon="-1.18531">
        <ele>36.19</ele>
        <time>2019-01-24T09:07:52Z</time>
      </trkpt>
      <trkpt lat="47.09629" lon="-1.18516">
        <ele>35.71</ele>
        <time>2019-01-24T09:07:59Z</time>
      </trkpt>
      <trkpt lat="47.09628" lon="-1.18509">
        <ele>35.71</ele>
        <time>2019-01-24T09:08:02Z</time>
      </trkpt>
      <trkpt lat="47.09624" lon="-1.18482">
        <ele>35.71</ele>
        <time>2019-01-24T09:08:18Z</time>
      </trkpt>
      <trkpt lat="47.0962" lon="-1.18462">
        <ele>35.23</ele>
        <time>2019-01-24T09:08:32Z</time>
      </trkpt>
      <trkpt lat="47.09621" lon="-1.1844">
        <ele>35.71</ele>
        <time>2019-01-24T09:08:46Z</time>
      </trkpt>
      <trkpt lat="47.0962" lon="-1.18422">
        <ele>35.23</ele>
        <time>2019-01-24T09:09:01Z</time>
      </trkpt>
      <trkpt lat="47.09615" lon="-1.18413">
        <ele>34.26</ele>
        <time>2019-01-24T09:09:19Z</time>
      </trkpt>
      <trkpt lat="47.09616" lon="-1.18419">
        <ele>34.26</ele>
        <time>2019-01-24T09:09:38Z</time>
      </trkpt>
      <trkpt lat="47.09618" lon="-1.18419">
        <ele>33.78</ele>
        <time>2019-01-24T09:09:53Z</time>
      </trkpt>
      <trkpt lat="47.09612" lon="-1.18416">
        <ele>33.3</ele>
        <time>2019-01-24T09:10:17Z</time>
      </trkpt>
      <trkpt lat="47.09615" lon="-1.18415">
        <ele>33.3</ele>
        <time>2019-01-24T09:10:43Z</time>
      </trkpt>
      <trkpt lat="47.09615" lon="-1.18411">
        <ele>33.3</ele>
        <time>2019-01-24T09:10:57Z</time>
      </trkpt>
      <trkpt lat="47.09615" lon="-1.18415">
        <ele>34.26</ele>
        <time>2019-01-24T09:11:15Z</time>
      </trkpt>
      <trkpt lat="47.09615" lon="-1.1841">
        <ele>32.82</ele>
        <time>2019-01-24T09:11:33Z</time>
      </trkpt>
      <trkpt lat="47.09608" lon="-1.18413">
        <ele>31.38</ele>
        <time>2019-01-24T09:11:47Z</time>
      </trkpt>
      <trkpt lat="47.09613" lon="-1.18408">
        <ele>31.38</ele>
        <time>2019-01-24T09:12:06Z</time>
      </trkpt>
      <trkpt lat="47.09612" lon="-1.18409">
        <ele>31.38</ele>
        <time>2019-01-24T09:12:23Z</time>
      </trkpt>
      <trkpt lat="47.09618" lon="-1.18406">
        <ele>33.78</ele>
        <time>2019-01-24T09:12:38Z</time>
      </trkpt>
      <trkpt lat="47.09621" lon="-1.18406">
        <ele>34.26</ele>
        <time>2019-01-24T09:12:54Z</time>
      </trkpt>
      <trkpt lat="47.09623" lon="-1.18403">
        <ele>33.78</ele>
        <time>2019-01-24T09:13:17Z</time>
      </trkpt>
      <trkpt lat="47.0962" lon="-1.1841">
        <ele>33.78</ele>
        <time>2019-01-24T09:13:53Z</time>
      </trkpt>
      <trkpt lat="47.09619" lon="-1.18412">
        <ele>33.78</ele>
        <time>2019-01-24T09:14:19Z</time>
      </trkpt>
      <trkpt lat="47.09618" lon="-1.18402">
        <ele>33.78</ele>
        <time>2019-01-24T09:14:37Z</time>
      </trkpt>
      <trkpt lat="47.09615" lon="-1.18374">
        <ele>33.78</ele>
        <time>2019-01-24T09:14:54Z</time>
      </trkpt>
      <trkpt lat="47.09609" lon="-1.18345">
        <ele>33.78</ele>
        <time>2019-01-24T09:15:10Z</time>
      </trkpt>
      <trkpt lat="47.09607" lon="-1.18324">
        <ele>33.78</ele>
        <time>2019-01-24T09:15:25Z</time>
      </trkpt>
      <trkpt lat="47.09603" lon="-1.18297">
        <ele>32.82</ele>
        <time>2019-01-24T09:15:41Z</time>
      </trkpt>
      <trkpt lat="47.096" lon="-1.18271">
        <ele>32.34</ele>
        <time>2019-01-24T09:15:54Z</time>
      </trkpt>
      <trkpt lat="47.096" lon="-1.18244">
        <ele>32.82</ele>
        <time>2019-01-24T09:16:08Z</time>
      </trkpt>
      <trkpt lat="47.09601" lon="-1.18241">
        <ele>32.82</ele>
        <time>2019-01-24T09:16:10Z</time>
      </trkpt>
      <trkpt lat="47.09609" lon="-1.18219">
        <ele>32.82</ele>
        <time>2019-01-24T09:16:26Z</time>
      </trkpt>
      <trkpt lat="47.09611" lon="-1.18195">
        <ele>34.26</ele>
        <time>2019-01-24T09:16:39Z</time>
      </trkpt>
      <trkpt lat="47.0961" lon="-1.18182">
        <ele>34.26</ele>
        <time>2019-01-24T09:16:54Z</time>
      </trkpt>
      <trkpt lat="47.09613" lon="-1.18189">
        <ele>34.26</ele>
        <time>2019-01-24T09:17:13Z</time>
      </trkpt>
      <trkpt lat="47.09611" lon="-1.18186">
        <ele>34.74</ele>
        <time>2019-01-24T09:17:48Z</time>
      </trkpt>
      <trkpt lat="47.09611" lon="-1.18163">
        <ele>34.74</ele>
        <time>2019-01-24T09:18:07Z</time>
      </trkpt>
      <trkpt lat="47.09612" lon="-1.18162">
        <ele>34.74</ele>
        <time>2019-01-24T09:18:08Z</time>
      </trkpt>
      <trkpt lat="47.09612" lon="-1.18158">
        <ele>35.23</ele>
        <time>2019-01-24T09:18:10Z</time>
      </trkpt>
      <trkpt lat="47.09615" lon="-1.18145">
        <ele>35.23</ele>
        <time>2019-01-24T09:18:20Z</time>
      </trkpt>
      <trkpt lat="47.09619" lon="-1.18121">
        <ele>35.23</ele>
        <time>2019-01-24T09:18:35Z</time>
      </trkpt>
      <trkpt lat="47.0962" lon="-1.18085">
        <ele>35.71</ele>
        <time>2019-01-24T09:18:51Z</time>
      </trkpt>
      <trkpt lat="47.09621" lon="-1.18063">
        <ele>34.74</ele>
        <time>2019-01-24T09:19:04Z</time>
      </trkpt>
      <trkpt lat="47.09613" lon="-1.18045">
        <ele>33.3</ele>
        <time>2019-01-24T09:19:16Z</time>
      </trkpt>
      <trkpt lat="47.09608" lon="-1.18037">
        <ele>33.3</ele>
        <time>2019-01-24T09:19:21Z</time>
      </trkpt>
      <trkpt lat="47.096" lon="-1.18017">
        <ele>32.82</ele>
        <time>2019-01-24T09:19:34Z</time>
      </trkpt>
      <trkpt lat="47.09594" lon="-1.17988">
        <ele>32.34</ele>
        <time>2019-01-24T09:19:49Z</time>
      </trkpt>
      <trkpt lat="47.09594" lon="-1.17983">
        <ele>31.86</ele>
        <time>2019-01-24T09:19:52Z</time>
      </trkpt>
      <trkpt lat="47.09594" lon="-1.17968">
        <ele>31.38</ele>
        <time>2019-01-24T09:20:06Z</time>
      </trkpt>
      <trkpt lat="47.09596" lon="-1.17966">
        <ele>31.38</ele>
        <time>2019-01-24T09:20:22Z</time>
      </trkpt>
      <trkpt lat="47.09596" lon="-1.17967">
        <ele>31.38</ele>
        <time>2019-01-24T09:20:44Z</time>
      </trkpt>
      <trkpt lat="47.09594" lon="-1.17961">
        <ele>31.38</ele>
        <time>2019-01-24T09:21:01Z</time>
      </trkpt>
      <trkpt lat="47.09596" lon="-1.17961">
        <ele>31.38</ele>
        <time>2019-01-24T09:21:03Z</time>
      </trkpt>
      <trkpt lat="47.09593" lon="-1.17969">
        <ele>31.38</ele>
        <time>2019-01-24T09:21:16Z</time>
      </trkpt>
      <trkpt lat="47.09602" lon="-1.17975">
        <ele>31.38</ele>
        <time>2019-01-24T09:21:32Z</time>
      </trkpt>
      <trkpt lat="47.09599" lon="-1.17982">
        <ele>31.38</ele>
        <time>2019-01-24T09:21:46Z</time>
      </trkpt>
      <trkpt lat="47.09597" lon="-1.17976">
        <ele>31.38</ele>
        <time>2019-01-24T09:22:01Z</time>
      </trkpt>
      <trkpt lat="47.09593" lon="-1.17977">
        <ele>31.38</ele>
        <time>2019-01-24T09:22:14Z</time>
      </trkpt>
      <trkpt lat="47.09592" lon="-1.17977">
        <ele>31.38</ele>
        <time>2019-01-24T09:22:20Z</time>
      </trkpt>
      <trkpt lat="47.09599" lon="-1.17963">
        <ele>30.42</ele>
        <time>2019-01-24T09:22:34Z</time>
      </trkpt>
      <trkpt lat="47.09597" lon="-1.17962">
        <ele>30.42</ele>
        <time>2019-01-24T09:22:49Z</time>
      </trkpt>
      <trkpt lat="47.09595" lon="-1.17968">
        <ele>30.42</ele>
        <time>2019-01-24T09:23:01Z</time>
      </trkpt>
      <trkpt lat="47.09595" lon="-1.17975">
        <ele>30.42</ele>
        <time>2019-01-24T09:23:16Z</time>
      </trkpt>
      <trkpt lat="47.09595" lon="-1.17969">
        <ele>30.42</ele>
        <time>2019-01-24T09:23:33Z</time>
      </trkpt>
      <trkpt lat="47.09596" lon="-1.17964">
        <ele>30.42</ele>
        <time>2019-01-24T09:23:49Z</time>
      </trkpt>
      <trkpt lat="47.09598" lon="-1.17959">
        <ele>30.42</ele>
        <time>2019-01-24T09:24:01Z</time>
      </trkpt>
      <trkpt lat="47.09595" lon="-1.17964">
        <ele>29.94</ele>
        <time>2019-01-24T09:24:16Z</time>
      </trkpt>
      <trkpt lat="47.09599" lon="-1.1797">
        <ele>29.94</ele>
        <time>2019-01-24T09:24:34Z</time>
      </trkpt>
      <trkpt lat="47.09602" lon="-1.17968">
        <ele>29.94</ele>
        <time>2019-01-24T09:25:06Z</time>
      </trkpt>
      <trkpt lat="47.096" lon="-1.17966">
        <ele>29.94</ele>
        <time>2019-01-24T09:25:33Z</time>
      </trkpt>
      <trkpt lat="47.09599" lon="-1.17962">
        <ele>29.94</ele>
        <time>2019-01-24T09:25:53Z</time>
      </trkpt>
      <trkpt lat="47.09592" lon="-1.17947">
        <ele>30.9</ele>
        <time>2019-01-24T09:26:04Z</time>
      </trkpt>
      <trkpt lat="47.09588" lon="-1.17936">
        <ele>31.38</ele>
        <time>2019-01-24T09:26:12Z</time>
      </trkpt>
      <trkpt lat="47.0958" lon="-1.17911">
        <ele>32.34</ele>
        <time>2019-01-24T09:26:28Z</time>
      </trkpt>
      <trkpt lat="47.09575" lon="-1.17892">
        <ele>32.82</ele>
        <time>2019-01-24T09:26:41Z</time>
      </trkpt>
      <trkpt lat="47.09571" lon="-1.17885">
        <ele>33.78</ele>
        <time>2019-01-24T09:26:45Z</time>
      </trkpt>
      <trkpt lat="47.09568" lon="-1.17879">
        <ele>33.78</ele>
        <time>2019-01-24T09:26:48Z</time>
      </trkpt>
      <trkpt lat="47.09562" lon="-1.1786">
        <ele>33.78</ele>
        <time>2019-01-24T09:27:00Z</time>
      </trkpt>
      <trkpt lat="47.09547" lon="-1.1783">
        <ele>30.9</ele>
        <time>2019-01-24T09:27:22Z</time>
      </trkpt>
      <trkpt lat="47.09534" lon="-1.17801">
        <ele>29.94</ele>
        <time>2019-01-24T09:27:41Z</time>
      </trkpt>
      <trkpt lat="47.09524" lon="-1.17785">
        <ele>29.46</ele>
        <time>2019-01-24T09:27:52Z</time>
      </trkpt>
      <trkpt lat="47.09519" lon="-1.17776">
        <ele>29.46</ele>
        <time>2019-01-24T09:28:03Z</time>
      </trkpt>
      <trkpt lat="47.09515" lon="-1.17775">
        <ele>28.98</ele>
        <time>2019-01-24T09:28:16Z</time>
      </trkpt>
      <trkpt lat="47.09514" lon="-1.17774">
        <ele>28.98</ele>
        <time>2019-01-24T09:28:31Z</time>
      </trkpt>
      <trkpt lat="47.09512" lon="-1.17772">
        <ele>29.46</ele>
        <time>2019-01-24T09:28:53Z</time>
      </trkpt>
      <trkpt lat="47.09511" lon="-1.17766">
        <ele>29.46</ele>
        <time>2019-01-24T09:29:28Z</time>
      </trkpt>
      <trkpt lat="47.09511" lon="-1.17769">
        <ele>29.46</ele>
        <time>2019-01-24T09:29:50Z</time>
      </trkpt>
      <trkpt lat="47.09511" lon="-1.17768">
        <ele>29.46</ele>
        <time>2019-01-24T09:30:12Z</time>
      </trkpt>
      <trkpt lat="47.09516" lon="-1.17756">
        <ele>30.9</ele>
        <time>2019-01-24T09:30:25Z</time>
      </trkpt>
      <trkpt lat="47.0952" lon="-1.17756">
        <ele>31.38</ele>
        <time>2019-01-24T09:30:28Z</time>
      </trkpt>
      <trkpt lat="47.09537" lon="-1.17748">
        <ele>33.78</ele>
        <time>2019-01-24T09:30:41Z</time>
      </trkpt>
      <trkpt lat="47.0955" lon="-1.1773">
        <ele>37.15</ele>
        <time>2019-01-24T09:30:59Z</time>
      </trkpt>
      <trkpt lat="47.09547" lon="-1.1771">
        <ele>38.59</ele>
        <time>2019-01-24T09:31:13Z</time>
      </trkpt>
      <trkpt lat="47.0954" lon="-1.17683">
        <ele>39.07</ele>
        <time>2019-01-24T09:31:29Z</time>
      </trkpt>
      <trkpt lat="47.09533" lon="-1.1766">
        <ele>39.07</ele>
        <time>2019-01-24T09:31:47Z</time>
      </trkpt>
      <trkpt lat="47.09528" lon="-1.17631">
        <ele>39.55</ele>
        <time>2019-01-24T09:32:03Z</time>
      </trkpt>
      <trkpt lat="47.09522" lon="-1.17601">
        <ele>40.03</ele>
        <time>2019-01-24T09:32:19Z</time>
      </trkpt>
      <trkpt lat="47.09519" lon="-1.17569">
        <ele>39.55</ele>
        <time>2019-01-24T09:32:36Z</time>
      </trkpt>
      <trkpt lat="47.09522" lon="-1.17555">
        <ele>39.55</ele>
        <time>2019-01-24T09:32:50Z</time>
      </trkpt>
      <trkpt lat="47.09522" lon="-1.17556">
        <ele>38.59</ele>
        <time>2019-01-24T09:33:08Z</time>
      </trkpt>
      <trkpt lat="47.09521" lon="-1.17556">
        <ele>38.59</ele>
        <time>2019-01-24T09:33:21Z</time>
      </trkpt>
      <trkpt lat="47.09521" lon="-1.17555">
        <ele>38.59</ele>
        <time>2019-01-24T09:33:34Z</time>
      </trkpt>
      <trkpt lat="47.09521" lon="-1.17557">
        <ele>38.59</ele>
        <time>2019-01-24T09:33:44Z</time>
      </trkpt>
      <trkpt lat="47.09517" lon="-1.17561">
        <ele>38.11</ele>
        <time>2019-01-24T09:34:00Z</time>
      </trkpt>
      <trkpt lat="47.09521" lon="-1.17553">
        <ele>37.63</ele>
        <time>2019-01-24T09:34:17Z</time>
      </trkpt>
      <trkpt lat="47.09521" lon="-1.17553">
        <ele>37.63</ele>
        <time>2019-01-24T09:34:23Z</time>
      </trkpt>
      <trkpt lat="47.0952" lon="-1.17565">
        <ele>37.63</ele>
        <time>2019-01-24T09:34:36Z</time>
      </trkpt>
      <trkpt lat="47.09522" lon="-1.17566">
        <ele>39.07</ele>
        <time>2019-01-24T09:34:40Z</time>
      </trkpt>
      <trkpt lat="47.09524" lon="-1.17566">
        <ele>40.03</ele>
        <time>2019-01-24T09:34:46Z</time>
      </trkpt>
      <trkpt lat="47.09517" lon="-1.1755">
        <ele>37.15</ele>
        <time>2019-01-24T09:35:02Z</time>
      </trkpt>
      <trkpt lat="47.09519" lon="-1.17551">
        <ele>37.15</ele>
        <time>2019-01-24T09:35:19Z</time>
      </trkpt>
      <trkpt lat="47.09519" lon="-1.17557">
        <ele>38.11</ele>
        <time>2019-01-24T09:35:32Z</time>
      </trkpt>
      <trkpt lat="47.09521" lon="-1.17557">
        <ele>38.11</ele>
        <time>2019-01-24T09:35:45Z</time>
      </trkpt>
      <trkpt lat="47.09523" lon="-1.17554">
        <ele>38.59</ele>
        <time>2019-01-24T09:35:57Z</time>
      </trkpt>
      <trkpt lat="47.09522" lon="-1.1755">
        <ele>38.59</ele>
        <time>2019-01-24T09:36:11Z</time>
      </trkpt>
      <trkpt lat="47.09526" lon="-1.17548">
        <ele>38.59</ele>
        <time>2019-01-24T09:36:27Z</time>
      </trkpt>
      <trkpt lat="47.09526" lon="-1.17549">
        <ele>38.59</ele>
        <time>2019-01-24T09:36:29Z</time>
      </trkpt>
      <trkpt lat="47.09525" lon="-1.17551">
        <ele>38.59</ele>
        <time>2019-01-24T09:36:35Z</time>
      </trkpt>
      <trkpt lat="47.0952" lon="-1.17555">
        <ele>38.59</ele>
        <time>2019-01-24T09:36:49Z</time>
      </trkpt>
      <trkpt lat="47.09521" lon="-1.17552">
        <ele>37.15</ele>
        <time>2019-01-24T09:37:08Z</time>
      </trkpt>
      <trkpt lat="47.09522" lon="-1.17555">
        <ele>37.15</ele>
        <time>2019-01-24T09:37:28Z</time>
      </trkpt>
      <trkpt lat="47.0952" lon="-1.17555">
        <ele>37.15</ele>
        <time>2019-01-24T09:37:41Z</time>
      </trkpt>
      <trkpt lat="47.09521" lon="-1.17557">
        <ele>37.15</ele>
        <time>2019-01-24T09:37:59Z</time>
      </trkpt>
      <trkpt lat="47.09519" lon="-1.17559">
        <ele>37.15</ele>
        <time>2019-01-24T09:38:29Z</time>
      </trkpt>
      <trkpt lat="47.09519" lon="-1.17556">
        <ele>37.15</ele>
        <time>2019-01-24T09:38:46Z</time>
      </trkpt>
      <trkpt lat="47.09523" lon="-1.17558">
        <ele>38.11</ele>
        <time>2019-01-24T09:38:59Z</time>
      </trkpt>
      <trkpt lat="47.09541" lon="-1.17555">
        <ele>40.51</ele>
        <time>2019-01-24T09:39:13Z</time>
      </trkpt>
      <trkpt lat="47.09561" lon="-1.1755">
        <ele>42.92</ele>
        <time>2019-01-24T09:39:30Z</time>
      </trkpt>
      <trkpt lat="47.09582" lon="-1.17541">
        <ele>45.32</ele>
        <time>2019-01-24T09:39:47Z</time>
      </trkpt>
      <trkpt lat="47.09601" lon="-1.1753">
        <ele>46.76</ele>
        <time>2019-01-24T09:40:03Z</time>
      </trkpt>
      <trkpt lat="47.09619" lon="-1.1752">
        <ele>49.16</ele>
        <time>2019-01-24T09:40:19Z</time>
      </trkpt>
      <trkpt lat="47.09635" lon="-1.17516">
        <ele>50.61</ele>
        <time>2019-01-24T09:40:33Z</time>
      </trkpt>
      <trkpt lat="47.09641" lon="-1.17514">
        <ele>51.57</ele>
        <time>2019-01-24T09:40:38Z</time>
      </trkpt>
      <trkpt lat="47.09646" lon="-1.17514">
        <ele>52.53</ele>
        <time>2019-01-24T09:40:43Z</time>
      </trkpt>
      <trkpt lat="47.09664" lon="-1.17513">
        <ele>54.93</ele>
        <time>2019-01-24T09:40:59Z</time>
      </trkpt>
      <trkpt lat="47.09674" lon="-1.17514">
        <ele>56.37</ele>
        <time>2019-01-24T09:41:11Z</time>
      </trkpt>
      <trkpt lat="47.09684" lon="-1.17513">
        <ele>57.82</ele>
        <time>2019-01-24T09:41:24Z</time>
      </trkpt>
      <trkpt lat="47.09685" lon="-1.17512">
        <ele>57.82</ele>
        <time>2019-01-24T09:41:45Z</time>
      </trkpt>
      <trkpt lat="47.09686" lon="-1.17509">
        <ele>57.82</ele>
        <time>2019-01-24T09:42:12Z</time>
      </trkpt>
      <trkpt lat="47.09683" lon="-1.17513">
        <ele>57.82</ele>
        <time>2019-01-24T09:42:31Z</time>
      </trkpt>
      <trkpt lat="47.0971" lon="-1.17502">
        <ele>58.78</ele>
        <time>2019-01-24T09:42:49Z</time>
      </trkpt>
      <trkpt lat="47.09736" lon="-1.17484">
        <ele>58.78</ele>
        <time>2019-01-24T09:43:09Z</time>
      </trkpt>
      <trkpt lat="47.09755" lon="-1.1747">
        <ele>58.78</ele>
        <time>2019-01-24T09:43:24Z</time>
      </trkpt>
      <trkpt lat="47.09774" lon="-1.17456">
        <ele>58.78</ele>
        <time>2019-01-24T09:43:39Z</time>
      </trkpt>
      <trkpt lat="47.09793" lon="-1.17442">
        <ele>58.78</ele>
        <time>2019-01-24T09:43:54Z</time>
      </trkpt>
      <trkpt lat="47.09816" lon="-1.17425">
        <ele>59.74</ele>
        <time>2019-01-24T09:44:13Z</time>
      </trkpt>
      <trkpt lat="47.0982" lon="-1.17421">
        <ele>59.74</ele>
        <time>2019-01-24T09:44:23Z</time>
      </trkpt>
      <trkpt lat="47.09821" lon="-1.17419">
        <ele>60.22</ele>
        <time>2019-01-24T09:44:35Z</time>
      </trkpt>
      <trkpt lat="47.09821" lon="-1.17419">
        <ele>60.22</ele>
        <time>2019-01-24T09:45:02Z</time>
      </trkpt>
      <trkpt lat="47.09823" lon="-1.1742">
        <ele>60.22</ele>
        <time>2019-01-24T09:45:19Z</time>
      </trkpt>
      <trkpt lat="47.09826" lon="-1.17418">
        <ele>60.22</ele>
        <time>2019-01-24T09:45:30Z</time>
      </trkpt>
      <trkpt lat="47.09832" lon="-1.17413">
        <ele>60.22</ele>
        <time>2019-01-24T09:45:35Z</time>
      </trkpt>
      <trkpt lat="47.09851" lon="-1.174">
        <ele>60.7</ele>
        <time>2019-01-24T09:45:50Z</time>
      </trkpt>
      <trkpt lat="47.09868" lon="-1.17388">
        <ele>61.18</ele>
        <time>2019-01-24T09:46:04Z</time>
      </trkpt>
      <trkpt lat="47.09888" lon="-1.17373">
        <ele>61.66</ele>
        <time>2019-01-24T09:46:21Z</time>
      </trkpt>
      <trkpt lat="47.09906" lon="-1.17359">
        <ele>61.66</ele>
        <time>2019-01-24T09:46:35Z</time>
      </trkpt>
      <trkpt lat="47.0993" lon="-1.17339">
        <ele>61.66</ele>
        <time>2019-01-24T09:46:55Z</time>
      </trkpt>
      <trkpt lat="47.09953" lon="-1.17319">
        <ele>61.66</ele>
        <time>2019-01-24T09:47:14Z</time>
      </trkpt>
      <trkpt lat="47.09964" lon="-1.17306">
        <ele>61.66</ele>
        <time>2019-01-24T09:47:31Z</time>
      </trkpt>
      <trkpt lat="47.09964" lon="-1.17305">
        <ele>60.7</ele>
        <time>2019-01-24T09:47:48Z</time>
      </trkpt>
      <trkpt lat="47.0996" lon="-1.17308">
        <ele>60.22</ele>
        <time>2019-01-24T09:48:00Z</time>
      </trkpt>
      <trkpt lat="47.09959" lon="-1.17307">
        <ele>60.22</ele>
        <time>2019-01-24T09:48:34Z</time>
      </trkpt>
      <trkpt lat="47.09959" lon="-1.17308">
        <ele>60.22</ele>
        <time>2019-01-24T09:48:58Z</time>
      </trkpt>
      <trkpt lat="47.09959" lon="-1.17307">
        <ele>60.22</ele>
        <time>2019-01-24T09:49:05Z</time>
      </trkpt>
      <trkpt lat="47.09964" lon="-1.17308">
        <ele>60.22</ele>
        <time>2019-01-24T09:49:09Z</time>
      </trkpt>
      <trkpt lat="47.09985" lon="-1.17295">
        <ele>60.22</ele>
        <time>2019-01-24T09:49:26Z</time>
      </trkpt>
      <trkpt lat="47.10013" lon="-1.17275">
        <ele>61.18</ele>
        <time>2019-01-24T09:49:48Z</time>
      </trkpt>
      <trkpt lat="47.10038" lon="-1.17259">
        <ele>61.66</ele>
        <time>2019-01-24T09:50:06Z</time>
      </trkpt>
      <trkpt lat="47.10057" lon="-1.17247">
        <ele>62.62</ele>
        <time>2019-01-24T09:50:22Z</time>
      </trkpt>
      <trkpt lat="47.10075" lon="-1.17235">
        <ele>64.55</ele>
        <time>2019-01-24T09:50:38Z</time>
      </trkpt>
      <trkpt lat="47.10095" lon="-1.17222">
        <ele>65.99</ele>
        <time>2019-01-24T09:50:55Z</time>
      </trkpt>
      <trkpt lat="47.10116" lon="-1.17206">
        <ele>67.43</ele>
        <time>2019-01-24T09:51:12Z</time>
      </trkpt>
      <trkpt lat="47.10135" lon="-1.17184">
        <ele>67.43</ele>
        <time>2019-01-24T09:51:31Z</time>
      </trkpt>
      <trkpt lat="47.10143" lon="-1.1717">
        <ele>67.43</ele>
        <time>2019-01-24T09:51:46Z</time>
      </trkpt>
      <trkpt lat="47.10148" lon="-1.17168">
        <ele>66.47</ele>
        <time>2019-01-24T09:52:00Z</time>
      </trkpt>
      <trkpt lat="47.10152" lon="-1.17165">
        <ele>66.47</ele>
        <time>2019-01-24T09:52:36Z</time>
      </trkpt>
      <trkpt lat="47.10152" lon="-1.17168">
        <ele>66.47</ele>
        <time>2019-01-24T09:52:51Z</time>
      </trkpt>
      <trkpt lat="47.10159" lon="-1.17165">
        <ele>66.47</ele>
        <time>2019-01-24T09:52:57Z</time>
      </trkpt>
      <trkpt lat="47.10186" lon="-1.17158">
        <ele>66.47</ele>
        <time>2019-01-24T09:53:16Z</time>
      </trkpt>
      <trkpt lat="47.10201" lon="-1.17155">
        <ele>67.91</ele>
        <time>2019-01-24T09:53:26Z</time>
      </trkpt>
      <trkpt lat="47.10224" lon="-1.17137">
        <ele>69.35</ele>
        <time>2019-01-24T09:53:45Z</time>
      </trkpt>
      <trkpt lat="47.1025" lon="-1.17118">
        <ele>71.27</ele>
        <time>2019-01-24T09:54:06Z</time>
      </trkpt>
      <trkpt lat="47.10271" lon="-1.17104">
        <ele>71.76</ele>
        <time>2019-01-24T09:54:22Z</time>
      </trkpt>
      <trkpt lat="47.10292" lon="-1.17087">
        <ele>72.24</ele>
        <time>2019-01-24T09:54:40Z</time>
      </trkpt>
      <trkpt lat="47.10309" lon="-1.17072">
        <ele>72.24</ele>
        <time>2019-01-24T09:54:55Z</time>
      </trkpt>
      <trkpt lat="47.10314" lon="-1.17071">
        <ele>72.72</ele>
        <time>2019-01-24T09:55:07Z</time>
      </trkpt>
      <trkpt lat="47.10315" lon="-1.17069">
        <ele>71.27</ele>
        <time>2019-01-24T09:55:30Z</time>
      </trkpt>
      <trkpt lat="47.10314" lon="-1.17072">
        <ele>71.27</ele>
        <time>2019-01-24T09:56:07Z</time>
      </trkpt>
      <trkpt lat="47.10325" lon="-1.17058">
        <ele>72.24</ele>
        <time>2019-01-24T09:56:23Z</time>
      </trkpt>
      <trkpt lat="47.10333" lon="-1.17053">
        <ele>72.72</ele>
        <time>2019-01-24T09:56:36Z</time>
      </trkpt>
      <trkpt lat="47.10337" lon="-1.1705">
        <ele>72.72</ele>
        <time>2019-01-24T09:56:48Z</time>
      </trkpt>
      <trkpt lat="47.10348" lon="-1.17031">
        <ele>72.72</ele>
        <time>2019-01-24T09:57:03Z</time>
      </trkpt>
      <trkpt lat="47.10359" lon="-1.17002">
        <ele>73.68</ele>
        <time>2019-01-24T09:57:21Z</time>
      </trkpt>
      <trkpt lat="47.10371" lon="-1.16986">
        <ele>74.64</ele>
        <time>2019-01-24T09:57:33Z</time>
      </trkpt>
      <trkpt lat="47.10378" lon="-1.16986">
        <ele>75.12</ele>
        <time>2019-01-24T09:57:47Z</time>
      </trkpt>
      <trkpt lat="47.10392" lon="-1.16982">
        <ele>75.12</ele>
        <time>2019-01-24T09:57:59Z</time>
      </trkpt>
      <trkpt lat="47.104" lon="-1.16981">
        <ele>75.6</ele>
        <time>2019-01-24T09:58:06Z</time>
      </trkpt>
      <trkpt lat="47.1042" lon="-1.16975">
        <ele>75.6</ele>
        <time>2019-01-24T09:58:22Z</time>
      </trkpt>
      <trkpt lat="47.10433" lon="-1.16973">
        <ele>76.08</ele>
        <time>2019-01-24T09:58:32Z</time>
      </trkpt>
      <trkpt lat="47.10453" lon="-1.1698">
        <ele>76.08</ele>
        <time>2019-01-24T09:58:48Z</time>
      </trkpt>
      <trkpt lat="47.10457" lon="-1.16977">
        <ele>76.08</ele>
        <time>2019-01-24T09:58:59Z</time>
      </trkpt>
      <trkpt lat="47.10457" lon="-1.16977">
        <ele>76.08</ele>
        <time>2019-01-24T09:59:11Z</time>
      </trkpt>
      <trkpt lat="47.1046" lon="-1.16985">
        <ele>76.08</ele>
        <time>2019-01-24T09:59:23Z</time>
      </trkpt>
      <trkpt lat="47.10463" lon="-1.1699">
        <ele>76.08</ele>
        <time>2019-01-24T09:59:33Z</time>
      </trkpt>
      <trkpt lat="47.10464" lon="-1.1699">
        <ele>76.08</ele>
        <time>2019-01-24T09:59:45Z</time>
      </trkpt>
      <trkpt lat="47.10464" lon="-1.16989">
        <ele>76.08</ele>
        <time>2019-01-24T09:59:47Z</time>
      </trkpt>
      <trkpt lat="47.10458" lon="-1.16984">
        <ele>76.08</ele>
        <time>2019-01-24T09:59:59Z</time>
      </trkpt>
      <trkpt lat="47.10458" lon="-1.16981">
        <ele>76.08</ele>
        <time>2019-01-24T10:00:12Z</time>
      </trkpt>
      <trkpt lat="47.10457" lon="-1.16979">
        <ele>76.08</ele>
        <time>2019-01-24T10:00:29Z</time>
      </trkpt>
      <trkpt lat="47.10459" lon="-1.16975">
        <ele>76.08</ele>
        <time>2019-01-24T10:00:43Z</time>
      </trkpt>
      <trkpt lat="47.10458" lon="-1.16978">
        <ele>76.08</ele>
        <time>2019-01-24T10:00:59Z</time>
      </trkpt>
      <trkpt lat="47.10455" lon="-1.16982">
        <ele>76.08</ele>
        <time>2019-01-24T10:01:20Z</time>
      </trkpt>
      <trkpt lat="47.10454" lon="-1.16976">
        <ele>76.08</ele>
        <time>2019-01-24T10:01:36Z</time>
      </trkpt>
      <trkpt lat="47.10457" lon="-1.16982">
        <ele>76.08</ele>
        <time>2019-01-24T10:01:55Z</time>
      </trkpt>
      <trkpt lat="47.1046" lon="-1.16992">
        <ele>76.08</ele>
        <time>2019-01-24T10:02:07Z</time>
      </trkpt>
      <trkpt lat="47.10455" lon="-1.16986">
        <ele>76.08</ele>
        <time>2019-01-24T10:02:20Z</time>
      </trkpt>
      <trkpt lat="47.10455" lon="-1.16982">
        <ele>76.08</ele>
        <time>2019-01-24T10:02:35Z</time>
      </trkpt>
      <trkpt lat="47.10454" lon="-1.16977">
        <ele>76.08</ele>
        <time>2019-01-24T10:02:51Z</time>
      </trkpt>
      <trkpt lat="47.10456" lon="-1.16973">
        <ele>76.08</ele>
        <time>2019-01-24T10:03:05Z</time>
      </trkpt>
      <trkpt lat="47.10455" lon="-1.16972">
        <ele>76.08</ele>
        <time>2019-01-24T10:03:24Z</time>
      </trkpt>
      <trkpt lat="47.10454" lon="-1.16971">
        <ele>76.08</ele>
        <time>2019-01-24T10:03:50Z</time>
      </trkpt>
      <trkpt lat="47.10454" lon="-1.16975">
        <ele>76.08</ele>
        <time>2019-01-24T10:04:19Z</time>
      </trkpt>
      <trkpt lat="47.10454" lon="-1.16981">
        <ele>76.56</ele>
        <time>2019-01-24T10:04:23Z</time>
      </trkpt>
      <trkpt lat="47.10466" lon="-1.16998">
        <ele>76.56</ele>
        <time>2019-01-24T10:04:36Z</time>
      </trkpt>
      <trkpt lat="47.10482" lon="-1.17028">
        <ele>77.04</ele>
        <time>2019-01-24T10:04:55Z</time>
      </trkpt>
      <trkpt lat="47.10494" lon="-1.17054">
        <ele>77.52</ele>
        <time>2019-01-24T10:05:11Z</time>
      </trkpt>
      <trkpt lat="47.10506" lon="-1.17083">
        <ele>77.52</ele>
        <time>2019-01-24T10:05:28Z</time>
      </trkpt>
      <trkpt lat="47.10518" lon="-1.1711">
        <ele>78</ele>
        <time>2019-01-24T10:05:44Z</time>
      </trkpt>
      <trkpt lat="47.10535" lon="-1.17132">
        <ele>78.48</ele>
        <time>2019-01-24T10:06:01Z</time>
      </trkpt>
      <trkpt lat="47.10547" lon="-1.17139">
        <ele>78.97</ele>
        <time>2019-01-24T10:06:11Z</time>
      </trkpt>
      <trkpt lat="47.10555" lon="-1.17145">
        <ele>79.45</ele>
        <time>2019-01-24T10:06:27Z</time>
      </trkpt>
      <trkpt lat="47.10554" lon="-1.17143">
        <ele>79.45</ele>
        <time>2019-01-24T10:06:36Z</time>
      </trkpt>
      <trkpt lat="47.10555" lon="-1.17144">
        <ele>79.45</ele>
        <time>2019-01-24T10:07:04Z</time>
      </trkpt>
      <trkpt lat="47.10555" lon="-1.17146">
        <ele>79.45</ele>
        <time>2019-01-24T10:07:30Z</time>
      </trkpt>
      <trkpt lat="47.10557" lon="-1.17144">
        <ele>79.45</ele>
        <time>2019-01-24T10:07:39Z</time>
      </trkpt>
      <trkpt lat="47.10577" lon="-1.17141">
        <ele>80.41</ele>
        <time>2019-01-24T10:07:55Z</time>
      </trkpt>
      <trkpt lat="47.10605" lon="-1.1714">
        <ele>80.89</ele>
        <time>2019-01-24T10:08:17Z</time>
      </trkpt>
      <trkpt lat="47.10627" lon="-1.17139">
        <ele>81.37</ele>
        <time>2019-01-24T10:08:34Z</time>
      </trkpt>
      <trkpt lat="47.10651" lon="-1.17137">
        <ele>82.33</ele>
        <time>2019-01-24T10:08:52Z</time>
      </trkpt>
      <trkpt lat="47.10675" lon="-1.17134">
        <ele>83.29</ele>
        <time>2019-01-24T10:09:09Z</time>
      </trkpt>
      <trkpt lat="47.10701" lon="-1.17127">
        <ele>84.25</ele>
        <time>2019-01-24T10:09:28Z</time>
      </trkpt>
      <trkpt lat="47.10726" lon="-1.17118">
        <ele>85.21</ele>
        <time>2019-01-24T10:09:47Z</time>
      </trkpt>
      <trkpt lat="47.10749" lon="-1.17112">
        <ele>86.18</ele>
        <time>2019-01-24T10:10:03Z</time>
      </trkpt>
      <trkpt lat="47.10769" lon="-1.17108">
        <ele>87.14</ele>
        <time>2019-01-24T10:10:21Z</time>
      </trkpt>
      <trkpt lat="47.10773" lon="-1.17111">
        <ele>87.14</ele>
        <time>2019-01-24T10:10:33Z</time>
      </trkpt>
      <trkpt lat="47.10776" lon="-1.17112">
        <ele>87.14</ele>
        <time>2019-01-24T10:10:49Z</time>
      </trkpt>
      <trkpt lat="47.10773" lon="-1.1711">
        <ele>87.14</ele>
        <time>2019-01-24T10:11:06Z</time>
      </trkpt>
      <trkpt lat="47.10771" lon="-1.17109">
        <ele>86.66</ele>
        <time>2019-01-24T10:11:36Z</time>
      </trkpt>
      <trkpt lat="47.10769" lon="-1.17101">
        <ele>86.66</ele>
        <time>2019-01-24T10:12:06Z</time>
      </trkpt>
      <trkpt lat="47.10782" lon="-1.17104">
        <ele>87.62</ele>
        <time>2019-01-24T10:12:19Z</time>
      </trkpt>
      <trkpt lat="47.10807" lon="-1.17096">
        <ele>88.1</ele>
        <time>2019-01-24T10:12:38Z</time>
      </trkpt>
      <trkpt lat="47.10831" lon="-1.17087">
        <ele>89.54</ele>
        <time>2019-01-24T10:12:56Z</time>
      </trkpt>
      <trkpt lat="47.10831" lon="-1.17086">
        <ele>89.54</ele>
        <time>2019-01-24T10:12:57Z</time>
      </trkpt>
      <trkpt lat="47.10836" lon="-1.17083">
        <ele>89.54</ele>
        <time>2019-01-24T10:13:02Z</time>
      </trkpt>
      <trkpt lat="47.10862" lon="-1.17077">
        <ele>90.5</ele>
        <time>2019-01-24T10:13:21Z</time>
      </trkpt>
      <trkpt lat="47.10885" lon="-1.17074">
        <ele>90.5</ele>
        <time>2019-01-24T10:13:37Z</time>
      </trkpt>
      <trkpt lat="47.10909" lon="-1.17077">
        <ele>90.5</ele>
        <time>2019-01-24T10:13:56Z</time>
      </trkpt>
      <trkpt lat="47.10932" lon="-1.17079">
        <ele>90.5</ele>
        <time>2019-01-24T10:14:14Z</time>
      </trkpt>
      <trkpt lat="47.10953" lon="-1.17085">
        <ele>90.98</ele>
        <time>2019-01-24T10:14:31Z</time>
      </trkpt>
      <trkpt lat="47.10955" lon="-1.17087">
        <ele>90.02</ele>
        <time>2019-01-24T10:14:46Z</time>
      </trkpt>
      <trkpt lat="47.10955" lon="-1.17088">
        <ele>90.02</ele>
        <time>2019-01-24T10:15:15Z</time>
      </trkpt>
      <trkpt lat="47.10955" lon="-1.17087">
        <ele>90.02</ele>
        <time>2019-01-24T10:15:47Z</time>
      </trkpt>
      <trkpt lat="47.10955" lon="-1.17086">
        <ele>90.02</ele>
        <time>2019-01-24T10:15:52Z</time>
      </trkpt>
      <trkpt lat="47.10963" lon="-1.17079">
        <ele>90.02</ele>
        <time>2019-01-24T10:15:59Z</time>
      </trkpt>
      <trkpt lat="47.10986" lon="-1.17071">
        <ele>90.02</ele>
        <time>2019-01-24T10:16:16Z</time>
      </trkpt>
      <trkpt lat="47.11009" lon="-1.17057">
        <ele>90.98</ele>
        <time>2019-01-24T10:16:35Z</time>
      </trkpt>
      <trkpt lat="47.11033" lon="-1.17044">
        <ele>91.46</ele>
        <time>2019-01-24T10:16:54Z</time>
      </trkpt>
      <trkpt lat="47.11053" lon="-1.17036">
        <ele>91.94</ele>
        <time>2019-01-24T10:17:10Z</time>
      </trkpt>
      <trkpt lat="47.11074" lon="-1.17031">
        <ele>91.94</ele>
        <time>2019-01-24T10:17:28Z</time>
      </trkpt>
      <trkpt lat="47.11093" lon="-1.17021">
        <ele>92.42</ele>
        <time>2019-01-24T10:17:42Z</time>
      </trkpt>
      <trkpt lat="47.111" lon="-1.1702">
        <ele>92.42</ele>
        <time>2019-01-24T10:17:56Z</time>
      </trkpt>
      <trkpt lat="47.111" lon="-1.1702">
        <ele>90.98</ele>
        <time>2019-01-24T10:17:59Z</time>
      </trkpt>
      <trkpt lat="47.11101" lon="-1.1702">
        <ele>90.98</ele>
        <time>2019-01-24T10:18:43Z</time>
      </trkpt>
      <trkpt lat="47.11101" lon="-1.17018">
        <ele>90.5</ele>
        <time>2019-01-24T10:18:53Z</time>
      </trkpt>
      <trkpt lat="47.11105" lon="-1.17015">
        <ele>91.46</ele>
        <time>2019-01-24T10:18:57Z</time>
      </trkpt>
      <trkpt lat="47.11129" lon="-1.17004">
        <ele>91.46</ele>
        <time>2019-01-24T10:19:16Z</time>
      </trkpt>
      <trkpt lat="47.11142" lon="-1.16995">
        <ele>91.46</ele>
        <time>2019-01-24T10:19:28Z</time>
      </trkpt>
      <trkpt lat="47.11146" lon="-1.16997">
        <ele>91.46</ele>
        <time>2019-01-24T10:19:32Z</time>
      </trkpt>
      <trkpt lat="47.11161" lon="-1.17016">
        <ele>91.94</ele>
        <time>2019-01-24T10:19:50Z</time>
      </trkpt>
      <trkpt lat="47.11173" lon="-1.17044">
        <ele>91.94</ele>
        <time>2019-01-24T10:20:07Z</time>
      </trkpt>
      <trkpt lat="47.11181" lon="-1.17068">
        <ele>91.94</ele>
        <time>2019-01-24T10:20:22Z</time>
      </trkpt>
      <trkpt lat="47.11192" lon="-1.17096">
        <ele>91.94</ele>
        <time>2019-01-24T10:20:38Z</time>
      </trkpt>
      <trkpt lat="47.11203" lon="-1.17118">
        <ele>91.94</ele>
        <time>2019-01-24T10:20:52Z</time>
      </trkpt>
      <trkpt lat="47.11215" lon="-1.17147">
        <ele>91.94</ele>
        <time>2019-01-24T10:21:10Z</time>
      </trkpt>
      <trkpt lat="47.1123" lon="-1.17176">
        <ele>91.94</ele>
        <time>2019-01-24T10:21:28Z</time>
      </trkpt>
      <trkpt lat="47.1124" lon="-1.17198">
        <ele>91.94</ele>
        <time>2019-01-24T10:21:42Z</time>
      </trkpt>
      <trkpt lat="47.11253" lon="-1.17225">
        <ele>91.94</ele>
        <time>2019-01-24T10:21:59Z</time>
      </trkpt>
      <trkpt lat="47.11257" lon="-1.17233">
        <ele>91.94</ele>
        <time>2019-01-24T10:22:04Z</time>
      </trkpt>
      <trkpt lat="47.11271" lon="-1.17263">
        <ele>90.5</ele>
        <time>2019-01-24T10:22:23Z</time>
      </trkpt>
      <trkpt lat="47.11283" lon="-1.17291">
        <ele>90.5</ele>
        <time>2019-01-24T10:22:41Z</time>
      </trkpt>
      <trkpt lat="47.11294" lon="-1.17313">
        <ele>90.5</ele>
        <time>2019-01-24T10:22:56Z</time>
      </trkpt>
      <trkpt lat="47.11299" lon="-1.17321">
        <ele>89.54</ele>
        <time>2019-01-24T10:23:08Z</time>
      </trkpt>
      <trkpt lat="47.113" lon="-1.17323">
        <ele>89.54</ele>
        <time>2019-01-24T10:23:10Z</time>
      </trkpt>
      <trkpt lat="47.11302" lon="-1.17323">
        <ele>89.06</ele>
        <time>2019-01-24T10:23:22Z</time>
      </trkpt>
      <trkpt lat="47.11301" lon="-1.17324">
        <ele>89.06</ele>
        <time>2019-01-24T10:23:58Z</time>
      </trkpt>
      <trkpt lat="47.11302" lon="-1.17324">
        <ele>89.06</ele>
        <time>2019-01-24T10:24:38Z</time>
      </trkpt>
      <trkpt lat="47.11301" lon="-1.17329">
        <ele>90.02</ele>
        <time>2019-01-24T10:24:49Z</time>
      </trkpt>
      <trkpt lat="47.11301" lon="-1.1733">
        <ele>90.02</ele>
        <time>2019-01-24T10:24:53Z</time>
      </trkpt>
      <trkpt lat="47.11314" lon="-1.17356">
        <ele>90.02</ele>
        <time>2019-01-24T10:25:12Z</time>
      </trkpt>
      <trkpt lat="47.11327" lon="-1.17385">
        <ele>90.02</ele>
        <time>2019-01-24T10:25:31Z</time>
      </trkpt>
      <trkpt lat="47.11339" lon="-1.17408">
        <ele>90.02</ele>
        <time>2019-01-24T10:25:46Z</time>
      </trkpt>
      <trkpt lat="47.11352" lon="-1.17434">
        <ele>90.02</ele>
        <time>2019-01-24T10:26:03Z</time>
      </trkpt>
      <trkpt lat="47.11363" lon="-1.17458">
        <ele>90.02</ele>
        <time>2019-01-24T10:26:18Z</time>
      </trkpt>
      <trkpt lat="47.11376" lon="-1.17476">
        <ele>90.02</ele>
        <time>2019-01-24T10:26:32Z</time>
      </trkpt>
      <trkpt lat="47.1139" lon="-1.17493">
        <ele>90.02</ele>
        <time>2019-01-24T10:26:46Z</time>
      </trkpt>
      <trkpt lat="47.1139" lon="-1.17495">
        <ele>90.02</ele>
        <time>2019-01-24T10:26:47Z</time>
      </trkpt>
      <trkpt lat="47.11407" lon="-1.17514">
        <ele>90.02</ele>
        <time>2019-01-24T10:27:03Z</time>
      </trkpt>
      <trkpt lat="47.11423" lon="-1.17534">
        <ele>90.02</ele>
        <time>2019-01-24T10:27:20Z</time>
      </trkpt>
      <trkpt lat="47.1144" lon="-1.17556">
        <ele>90.02</ele>
        <time>2019-01-24T10:27:37Z</time>
      </trkpt>
      <trkpt lat="47.11448" lon="-1.17567">
        <ele>90.02</ele>
        <time>2019-01-24T10:27:50Z</time>
      </trkpt>
      <trkpt lat="47.11453" lon="-1.17569">
        <ele>89.06</ele>
        <time>2019-01-24T10:27:55Z</time>
      </trkpt>
      <trkpt lat="47.11454" lon="-1.17571">
        <ele>88.58</ele>
        <time>2019-01-24T10:28:12Z</time>
      </trkpt>
      <trkpt lat="47.11457" lon="-1.17572">
        <ele>87.62</ele>
        <time>2019-01-24T10:28:46Z</time>
      </trkpt>
      <trkpt lat="47.11453" lon="-1.17574">
        <ele>87.62</ele>
        <time>2019-01-24T10:29:15Z</time>
      </trkpt>
      <trkpt lat="47.11453" lon="-1.17574">
        <ele>87.62</ele>
        <time>2019-01-24T10:29:19Z</time>
      </trkpt>
      <trkpt lat="47.11468" lon="-1.17593">
        <ele>87.62</ele>
        <time>2019-01-24T10:29:37Z</time>
      </trkpt>
      <trkpt lat="47.11482" lon="-1.17612">
        <ele>87.62</ele>
        <time>2019-01-24T10:29:54Z</time>
      </trkpt>
      <trkpt lat="47.11491" lon="-1.17622">
        <ele>87.14</ele>
        <time>2019-01-24T10:30:10Z</time>
      </trkpt>
      <trkpt lat="47.11492" lon="-1.17623">
        <ele>87.62</ele>
        <time>2019-01-24T10:30:11Z</time>
      </trkpt>
      <trkpt lat="47.11504" lon="-1.17642">
        <ele>87.62</ele>
        <time>2019-01-24T10:30:26Z</time>
      </trkpt>
      <trkpt lat="47.1152" lon="-1.17664">
        <ele>87.62</ele>
        <time>2019-01-24T10:30:42Z</time>
      </trkpt>
      <trkpt lat="47.11527" lon="-1.17671">
        <ele>87.62</ele>
        <time>2019-01-24T10:30:52Z</time>
      </trkpt>
      <trkpt lat="47.11545" lon="-1.17695">
        <ele>87.14</ele>
        <time>2019-01-24T10:31:11Z</time>
      </trkpt>
      <trkpt lat="47.11562" lon="-1.17718">
        <ele>86.66</ele>
        <time>2019-01-24T10:31:29Z</time>
      </trkpt>
      <trkpt lat="47.11564" lon="-1.17729">
        <ele>85.69</ele>
        <time>2019-01-24T10:31:42Z</time>
      </trkpt>
      <trkpt lat="47.11566" lon="-1.1773">
        <ele>85.21</ele>
        <time>2019-01-24T10:32:11Z</time>
      </trkpt>
      <trkpt lat="47.11565" lon="-1.1773">
        <ele>85.21</ele>
        <time>2019-01-24T10:32:41Z</time>
      </trkpt>
      <trkpt lat="47.11564" lon="-1.17731">
        <ele>85.69</ele>
        <time>2019-01-24T10:32:56Z</time>
      </trkpt>
      <trkpt lat="47.1157" lon="-1.17733">
        <ele>85.69</ele>
        <time>2019-01-24T10:33:01Z</time>
      </trkpt>
      <trkpt lat="47.11587" lon="-1.17755">
        <ele>86.66</ele>
        <time>2019-01-24T10:33:18Z</time>
      </trkpt>
      <trkpt lat="47.11604" lon="-1.17779">
        <ele>86.66</ele>
        <time>2019-01-24T10:33:36Z</time>
      </trkpt>
      <trkpt lat="47.11623" lon="-1.17803">
        <ele>86.66</ele>
        <time>2019-01-24T10:33:53Z</time>
      </trkpt>
      <trkpt lat="47.11641" lon="-1.17828">
        <ele>86.66</ele>
        <time>2019-01-24T10:34:12Z</time>
      </trkpt>
      <trkpt lat="47.11658" lon="-1.17851">
        <ele>86.66</ele>
        <time>2019-01-24T10:34:30Z</time>
      </trkpt>
      <trkpt lat="47.11671" lon="-1.17868">
        <ele>86.66</ele>
        <time>2019-01-24T10:34:43Z</time>
      </trkpt>
      <trkpt lat="47.11675" lon="-1.17876">
        <ele>86.66</ele>
        <time>2019-01-24T10:34:47Z</time>
      </trkpt>
      <trkpt lat="47.11684" lon="-1.17893">
        <ele>86.66</ele>
        <time>2019-01-24T10:35:02Z</time>
      </trkpt>
      <trkpt lat="47.11685" lon="-1.17893">
        <ele>85.21</ele>
        <time>2019-01-24T10:35:17Z</time>
      </trkpt>
      <trkpt lat="47.11685" lon="-1.17893">
        <ele>85.21</ele>
        <time>2019-01-24T10:35:47Z</time>
      </trkpt>
      <trkpt lat="47.11685" lon="-1.17894">
        <ele>85.21</ele>
        <time>2019-01-24T10:36:09Z</time>
      </trkpt>
      <trkpt lat="47.11686" lon="-1.17894">
        <ele>85.21</ele>
        <time>2019-01-24T10:36:17Z</time>
      </trkpt>
      <trkpt lat="47.11701" lon="-1.17896">
        <ele>85.21</ele>
        <time>2019-01-24T10:36:31Z</time>
      </trkpt>
      <trkpt lat="47.11723" lon="-1.17892">
        <ele>86.18</ele>
        <time>2019-01-24T10:36:49Z</time>
      </trkpt>
      <trkpt lat="47.11739" lon="-1.17881">
        <ele>86.18</ele>
        <time>2019-01-24T10:37:03Z</time>
      </trkpt>
      <trkpt lat="47.11755" lon="-1.17867">
        <ele>86.66</ele>
        <time>2019-01-24T10:37:18Z</time>
      </trkpt>
      <trkpt lat="47.11774" lon="-1.17854">
        <ele>86.66</ele>
        <time>2019-01-24T10:37:34Z</time>
      </trkpt>
      <trkpt lat="47.11789" lon="-1.17842">
        <ele>86.66</ele>
        <time>2019-01-24T10:37:48Z</time>
      </trkpt>
      <trkpt lat="47.11805" lon="-1.17829">
        <ele>86.66</ele>
        <time>2019-01-24T10:38:03Z</time>
      </trkpt>
      <trkpt lat="47.11813" lon="-1.1782">
        <ele>86.66</ele>
        <time>2019-01-24T10:38:12Z</time>
      </trkpt>
      <trkpt lat="47.11817" lon="-1.17817">
        <ele>86.66</ele>
        <time>2019-01-24T10:38:27Z</time>
      </trkpt>
      <trkpt lat="47.11818" lon="-1.17826">
        <ele>85.69</ele>
        <time>2019-01-24T10:38:42Z</time>
      </trkpt>
      <trkpt lat="47.11817" lon="-1.17823">
        <ele>85.69</ele>
        <time>2019-01-24T10:39:13Z</time>
      </trkpt>
      <trkpt lat="47.11817" lon="-1.17824">
        <ele>85.69</ele>
        <time>2019-01-24T10:39:33Z</time>
      </trkpt>
      <trkpt lat="47.11817" lon="-1.17823">
        <ele>85.69</ele>
        <time>2019-01-24T10:39:34Z</time>
      </trkpt>
      <trkpt lat="47.1182" lon="-1.17815">
        <ele>85.69</ele>
        <time>2019-01-24T10:39:48Z</time>
      </trkpt>
      <trkpt lat="47.11824" lon="-1.17813">
        <ele>86.66</ele>
        <time>2019-01-24T10:40:02Z</time>
      </trkpt>
      <trkpt lat="47.11825" lon="-1.17812">
        <ele>86.66</ele>
        <time>2019-01-24T10:40:13Z</time>
      </trkpt>
      <trkpt lat="47.11832" lon="-1.17805">
        <ele>86.66</ele>
        <time>2019-01-24T10:40:19Z</time>
      </trkpt>
      <trkpt lat="47.11854" lon="-1.1779">
        <ele>86.66</ele>
        <time>2019-01-24T10:40:37Z</time>
      </trkpt>
      <trkpt lat="47.11863" lon="-1.17785">
        <ele>86.66</ele>
        <time>2019-01-24T10:40:48Z</time>
      </trkpt>
      <trkpt lat="47.11879" lon="-1.17771">
        <ele>85.69</ele>
        <time>2019-01-24T10:41:05Z</time>
      </trkpt>
      <trkpt lat="47.11885" lon="-1.17768">
        <ele>85.69</ele>
        <time>2019-01-24T10:41:10Z</time>
      </trkpt>
      <trkpt lat="47.11904" lon="-1.17759">
        <ele>85.69</ele>
        <time>2019-01-24T10:41:26Z</time>
      </trkpt>
      <trkpt lat="47.1192" lon="-1.17763">
        <ele>85.69</ele>
        <time>2019-01-24T10:41:40Z</time>
      </trkpt>
      <trkpt lat="47.11927" lon="-1.17772">
        <ele>85.69</ele>
        <time>2019-01-24T10:41:48Z</time>
      </trkpt>
      <trkpt lat="47.11933" lon="-1.17785">
        <ele>85.69</ele>
        <time>2019-01-24T10:41:57Z</time>
      </trkpt>
      <trkpt lat="47.11936" lon="-1.17793">
        <ele>85.69</ele>
        <time>2019-01-24T10:42:02Z</time>
      </trkpt>
      <trkpt lat="47.11952" lon="-1.17828">
        <ele>85.69</ele>
        <time>2019-01-24T10:42:22Z</time>
      </trkpt>
      <trkpt lat="47.11959" lon="-1.17854">
        <ele>85.69</ele>
        <time>2019-01-24T10:42:38Z</time>
      </trkpt>
      <trkpt lat="47.11962" lon="-1.17883">
        <ele>87.62</ele>
        <time>2019-01-24T10:42:53Z</time>
      </trkpt>
      <trkpt lat="47.11962" lon="-1.17885">
        <ele>87.62</ele>
        <time>2019-01-24T10:43:05Z</time>
      </trkpt>
      <trkpt lat="47.11961" lon="-1.17881">
        <ele>86.18</ele>
        <time>2019-01-24T10:43:38Z</time>
      </trkpt>
      <trkpt lat="47.11958" lon="-1.17885">
        <ele>86.18</ele>
        <time>2019-01-24T10:44:06Z</time>
      </trkpt>
      <trkpt lat="47.11963" lon="-1.17891">
        <ele>86.18</ele>
        <time>2019-01-24T10:44:22Z</time>
      </trkpt>
      <trkpt lat="47.11965" lon="-1.17901">
        <ele>87.62</ele>
        <time>2019-01-24T10:44:29Z</time>
      </trkpt>
      <trkpt lat="47.11968" lon="-1.17917">
        <ele>87.62</ele>
        <time>2019-01-24T10:44:39Z</time>
      </trkpt>
      <trkpt lat="47.11974" lon="-1.17945">
        <ele>87.62</ele>
        <time>2019-01-24T10:44:56Z</time>
      </trkpt>
      <trkpt lat="47.11978" lon="-1.17975">
        <ele>87.62</ele>
        <time>2019-01-24T10:45:14Z</time>
      </trkpt>
      <trkpt lat="47.11983" lon="-1.1801">
        <ele>87.62</ele>
        <time>2019-01-24T10:45:33Z</time>
      </trkpt>
      <trkpt lat="47.11987" lon="-1.18041">
        <ele>87.62</ele>
        <time>2019-01-24T10:45:49Z</time>
      </trkpt>
      <trkpt lat="47.11991" lon="-1.18072">
        <ele>87.62</ele>
        <time>2019-01-24T10:46:05Z</time>
      </trkpt>
      <trkpt lat="47.11993" lon="-1.18108">
        <ele>87.62</ele>
        <time>2019-01-24T10:46:23Z</time>
      </trkpt>
      <trkpt lat="47.11992" lon="-1.18117">
        <ele>88.1</ele>
        <time>2019-01-24T10:46:30Z</time>
      </trkpt>
      <trkpt lat="47.1199" lon="-1.18123">
        <ele>88.1</ele>
        <time>2019-01-24T10:46:34Z</time>
      </trkpt>
      <trkpt lat="47.11988" lon="-1.1813">
        <ele>86.66</ele>
        <time>2019-01-24T10:46:41Z</time>
      </trkpt>
      <trkpt lat="47.11988" lon="-1.18131">
        <ele>86.66</ele>
        <time>2019-01-24T10:47:14Z</time>
      </trkpt>
      <trkpt lat="47.11988" lon="-1.18131">
        <ele>86.66</ele>
        <time>2019-01-24T10:47:39Z</time>
      </trkpt>
      <trkpt lat="47.11987" lon="-1.1813">
        <ele>86.18</ele>
        <time>2019-01-24T10:48:04Z</time>
      </trkpt>
      <trkpt lat="47.11992" lon="-1.1813">
        <ele>87.62</ele>
        <time>2019-01-24T10:48:17Z</time>
      </trkpt>
      <trkpt lat="47.11992" lon="-1.18131">
        <ele>87.62</ele>
        <time>2019-01-24T10:48:25Z</time>
      </trkpt>
      <trkpt lat="47.11994" lon="-1.18157">
        <ele>87.62</ele>
        <time>2019-01-24T10:48:40Z</time>
      </trkpt>
      <trkpt lat="47.11997" lon="-1.18192">
        <ele>87.62</ele>
        <time>2019-01-24T10:48:58Z</time>
      </trkpt>
      <trkpt lat="47.12" lon="-1.18223">
        <ele>87.62</ele>
        <time>2019-01-24T10:49:14Z</time>
      </trkpt>
      <trkpt lat="47.12001" lon="-1.18263">
        <ele>87.62</ele>
        <time>2019-01-24T10:49:34Z</time>
      </trkpt>
      <trkpt lat="47.12002" lon="-1.18295">
        <ele>87.62</ele>
        <time>2019-01-24T10:49:50Z</time>
      </trkpt>
      <trkpt lat="47.12008" lon="-1.18329">
        <ele>87.62</ele>
        <time>2019-01-24T10:50:08Z</time>
      </trkpt>
      <trkpt lat="47.12024" lon="-1.18351">
        <ele>87.62</ele>
        <time>2019-01-24T10:50:26Z</time>
      </trkpt>
      <trkpt lat="47.12047" lon="-1.18363">
        <ele>87.62</ele>
        <time>2019-01-24T10:50:43Z</time>
      </trkpt>
      <trkpt lat="47.1205" lon="-1.1837">
        <ele>85.69</ele>
        <time>2019-01-24T10:50:56Z</time>
      </trkpt>
      <trkpt lat="47.1205" lon="-1.1837">
        <ele>85.69</ele>
        <time>2019-01-24T10:51:17Z</time>
      </trkpt>
      <trkpt lat="47.12049" lon="-1.18369">
        <ele>85.69</ele>
        <time>2019-01-24T10:51:57Z</time>
      </trkpt>
      <trkpt lat="47.1205" lon="-1.18367">
        <ele>85.69</ele>
        <time>2019-01-24T10:52:06Z</time>
      </trkpt>
      <trkpt lat="47.12069" lon="-1.18372">
        <ele>87.14</ele>
        <time>2019-01-24T10:52:23Z</time>
      </trkpt>
      <trkpt lat="47.12095" lon="-1.18384">
        <ele>87.14</ele>
        <time>2019-01-24T10:52:44Z</time>
      </trkpt>
      <trkpt lat="47.12113" lon="-1.18392">
        <ele>85.69</ele>
        <time>2019-01-24T10:52:57Z</time>
      </trkpt>
      <trkpt lat="47.12136" lon="-1.18403">
        <ele>85.21</ele>
        <time>2019-01-24T10:53:16Z</time>
      </trkpt>
      <trkpt lat="47.12163" lon="-1.18412">
        <ele>84.25</ele>
        <time>2019-01-24T10:53:36Z</time>
      </trkpt>
      <trkpt lat="47.12189" lon="-1.18419">
        <ele>83.29</ele>
        <time>2019-01-24T10:53:54Z</time>
      </trkpt>
      <trkpt lat="47.12213" lon="-1.18424">
        <ele>82.33</ele>
        <time>2019-01-24T10:54:12Z</time>
      </trkpt>
      <trkpt lat="47.12237" lon="-1.18429">
        <ele>81.85</ele>
        <time>2019-01-24T10:54:30Z</time>
      </trkpt>
      <trkpt lat="47.12261" lon="-1.18435">
        <ele>81.37</ele>
        <time>2019-01-24T10:54:47Z</time>
      </trkpt>
      <trkpt lat="47.12264" lon="-1.18436">
        <ele>81.37</ele>
        <time>2019-01-24T10:54:49Z</time>
      </trkpt>
      <trkpt lat="47.12279" lon="-1.18441">
        <ele>80.89</ele>
        <time>2019-01-24T10:55:02Z</time>
      </trkpt>
      <trkpt lat="47.12282" lon="-1.18446">
        <ele>80.41</ele>
        <time>2019-01-24T10:55:06Z</time>
      </trkpt>
      <trkpt lat="47.12287" lon="-1.18451">
        <ele>79.93</ele>
        <time>2019-01-24T10:55:21Z</time>
      </trkpt>
      <trkpt lat="47.12285" lon="-1.18449">
        <ele>79.93</ele>
        <time>2019-01-24T10:55:51Z</time>
      </trkpt>
      <trkpt lat="47.12283" lon="-1.18449">
        <ele>79.93</ele>
        <time>2019-01-24T10:56:21Z</time>
      </trkpt>
      <trkpt lat="47.12286" lon="-1.18447">
        <ele>79.45</ele>
        <time>2019-01-24T10:56:33Z</time>
      </trkpt>
      <trkpt lat="47.12285" lon="-1.18443">
        <ele>80.89</ele>
        <time>2019-01-24T10:56:48Z</time>
      </trkpt>
      <trkpt lat="47.1229" lon="-1.18445">
        <ele>80.89</ele>
        <time>2019-01-24T10:56:55Z</time>
      </trkpt>
      <trkpt lat="47.12308" lon="-1.18455">
        <ele>80.89</ele>
        <time>2019-01-24T10:57:09Z</time>
      </trkpt>
      <trkpt lat="47.12331" lon="-1.18468">
        <ele>78.97</ele>
        <time>2019-01-24T10:57:27Z</time>
      </trkpt>
      <trkpt lat="47.1235" lon="-1.18479">
        <ele>78</ele>
        <time>2019-01-24T10:57:41Z</time>
      </trkpt>
      <trkpt lat="47.12362" lon="-1.18507">
        <ele>77.52</ele>
        <time>2019-01-24T10:57:59Z</time>
      </trkpt>
      <trkpt lat="47.12359" lon="-1.1854">
        <ele>77.52</ele>
        <time>2019-01-24T10:58:16Z</time>
      </trkpt>
      <trkpt lat="47.12358" lon="-1.18574">
        <ele>77.52</ele>
        <time>2019-01-24T10:58:33Z</time>
      </trkpt>
      <trkpt lat="47.12367" lon="-1.18605">
        <ele>77.52</ele>
        <time>2019-01-24T10:58:50Z</time>
      </trkpt>
      <trkpt lat="47.12369" lon="-1.18609">
        <ele>77.52</ele>
        <time>2019-01-24T10:58:54Z</time>
      </trkpt>
      <trkpt lat="47.12372" lon="-1.18616">
        <ele>78</ele>
        <time>2019-01-24T10:58:59Z</time>
      </trkpt>
      <trkpt lat="47.12391" lon="-1.1864">
        <ele>76.56</ele>
        <time>2019-01-24T10:59:17Z</time>
      </trkpt>
      <trkpt lat="47.124" lon="-1.18655">
        <ele>75.6</ele>
        <time>2019-01-24T10:59:33Z</time>
      </trkpt>
      <trkpt lat="47.124" lon="-1.18654">
        <ele>75.6</ele>
        <time>2019-01-24T10:59:50Z</time>
      </trkpt>
      <trkpt lat="47.12402" lon="-1.18653">
        <ele>75.6</ele>
        <time>2019-01-24T11:00:22Z</time>
      </trkpt>
      <trkpt lat="47.12405" lon="-1.18655">
        <ele>75.12</ele>
        <time>2019-01-24T11:00:47Z</time>
      </trkpt>
      <trkpt lat="47.12421" lon="-1.18675">
        <ele>75.12</ele>
        <time>2019-01-24T11:01:03Z</time>
      </trkpt>
      <trkpt lat="47.12442" lon="-1.18701">
        <ele>74.64</ele>
        <time>2019-01-24T11:01:22Z</time>
      </trkpt>
      <trkpt lat="47.12463" lon="-1.18724">
        <ele>74.64</ele>
        <time>2019-01-24T11:01:41Z</time>
      </trkpt>
      <trkpt lat="47.1248" lon="-1.18746">
        <ele>74.64</ele>
        <time>2019-01-24T11:01:57Z</time>
      </trkpt>
      <trkpt lat="47.12497" lon="-1.18768">
        <ele>74.64</ele>
        <time>2019-01-24T11:02:15Z</time>
      </trkpt>
      <trkpt lat="47.12514" lon="-1.18778">
        <ele>74.64</ele>
        <time>2019-01-24T11:02:30Z</time>
      </trkpt>
      <trkpt lat="47.12523" lon="-1.18777">
        <ele>74.64</ele>
        <time>2019-01-24T11:02:39Z</time>
      </trkpt>
      <trkpt lat="47.12528" lon="-1.18773">
        <ele>73.2</ele>
        <time>2019-01-24T11:02:56Z</time>
      </trkpt>
      <trkpt lat="47.12529" lon="-1.18771">
        <ele>73.2</ele>
        <time>2019-01-24T11:03:29Z</time>
      </trkpt>
      <trkpt lat="47.12532" lon="-1.18774">
        <ele>73.2</ele>
        <time>2019-01-24T11:03:57Z</time>
      </trkpt>
      <trkpt lat="47.12541" lon="-1.18772">
        <ele>74.16</ele>
        <time>2019-01-24T11:04:04Z</time>
      </trkpt>
      <trkpt lat="47.12546" lon="-1.18769">
        <ele>74.16</ele>
        <time>2019-01-24T11:04:08Z</time>
      </trkpt>
      <trkpt lat="47.12567" lon="-1.18763">
        <ele>74.16</ele>
        <time>2019-01-24T11:04:24Z</time>
      </trkpt>
      <trkpt lat="47.12577" lon="-1.18761">
        <ele>74.16</ele>
        <time>2019-01-24T11:04:33Z</time>
      </trkpt>
      <trkpt lat="47.12598" lon="-1.18755">
        <ele>73.2</ele>
        <time>2019-01-24T11:04:49Z</time>
      </trkpt>
      <trkpt lat="47.12619" lon="-1.18746">
        <ele>72.24</ele>
        <time>2019-01-24T11:05:07Z</time>
      </trkpt>
      <trkpt lat="47.12637" lon="-1.18739">
        <ele>71.27</ele>
        <time>2019-01-24T11:05:21Z</time>
      </trkpt>
      <trkpt lat="47.12658" lon="-1.18733">
        <ele>70.79</ele>
        <time>2019-01-24T11:05:37Z</time>
      </trkpt>
      <trkpt lat="47.12673" lon="-1.18726">
        <ele>69.35</ele>
        <time>2019-01-24T11:05:53Z</time>
      </trkpt>
      <trkpt lat="47.12676" lon="-1.18721">
        <ele>68.87</ele>
        <time>2019-01-24T11:06:07Z</time>
      </trkpt>
      <trkpt lat="47.12676" lon="-1.18722">
        <ele>68.87</ele>
        <time>2019-01-24T11:06:40Z</time>
      </trkpt>
      <trkpt lat="47.12675" lon="-1.18723">
        <ele>68.87</ele>
        <time>2019-01-24T11:06:51Z</time>
      </trkpt>
      <trkpt lat="47.12679" lon="-1.18725">
        <ele>68.87</ele>
        <time>2019-01-24T11:06:56Z</time>
      </trkpt>
      <trkpt lat="47.12682" lon="-1.18725">
        <ele>68.87</ele>
        <time>2019-01-24T11:06:58Z</time>
      </trkpt>
      <trkpt lat="47.12702" lon="-1.18722">
        <ele>68.87</ele>
        <time>2019-01-24T11:07:16Z</time>
      </trkpt>
      <trkpt lat="47.12723" lon="-1.18717">
        <ele>68.87</ele>
        <time>2019-01-24T11:07:32Z</time>
      </trkpt>
      <trkpt lat="47.12744" lon="-1.18716">
        <ele>70.31</ele>
        <time>2019-01-24T11:07:49Z</time>
      </trkpt>
      <trkpt lat="47.12764" lon="-1.18717">
        <ele>71.27</ele>
        <time>2019-01-24T11:08:06Z</time>
      </trkpt>
      <trkpt lat="47.12786" lon="-1.18718">
        <ele>72.72</ele>
        <time>2019-01-24T11:08:25Z</time>
      </trkpt>
      <trkpt lat="47.12807" lon="-1.1872">
        <ele>73.2</ele>
        <time>2019-01-24T11:08:41Z</time>
      </trkpt>
      <trkpt lat="47.12832" lon="-1.1872">
        <ele>73.2</ele>
        <time>2019-01-24T11:09:00Z</time>
      </trkpt>
      <trkpt lat="47.12855" lon="-1.18721">
        <ele>73.68</ele>
        <time>2019-01-24T11:09:18Z</time>
      </trkpt>
      <trkpt lat="47.12876" lon="-1.18723">
        <ele>73.68</ele>
        <time>2019-01-24T11:09:34Z</time>
      </trkpt>
      <trkpt lat="47.12899" lon="-1.18724">
        <ele>73.68</ele>
        <time>2019-01-24T11:09:52Z</time>
      </trkpt>
      <trkpt lat="47.12919" lon="-1.18725">
        <ele>73.68</ele>
        <time>2019-01-24T11:10:07Z</time>
      </trkpt>
      <trkpt lat="47.12938" lon="-1.18723">
        <ele>73.68</ele>
        <time>2019-01-24T11:10:23Z</time>
      </trkpt>
      <trkpt lat="47.12956" lon="-1.18719">
        <ele>72.24</ele>
        <time>2019-01-24T11:10:40Z</time>
      </trkpt>
      <trkpt lat="47.1296" lon="-1.18725">
        <ele>71.76</ele>
        <time>2019-01-24T11:10:53Z</time>
      </trkpt>
      <trkpt lat="47.1296" lon="-1.18722">
        <ele>71.76</ele>
        <time>2019-01-24T11:11:20Z</time>
      </trkpt>
      <trkpt lat="47.1296" lon="-1.18723">
        <ele>71.76</ele>
        <time>2019-01-24T11:11:55Z</time>
      </trkpt>
      <trkpt lat="47.1296" lon="-1.18722">
        <ele>71.76</ele>
        <time>2019-01-24T11:12:06Z</time>
      </trkpt>
      <trkpt lat="47.12955" lon="-1.18692">
        <ele>72.72</ele>
        <time>2019-01-24T11:12:21Z</time>
      </trkpt>
      <trkpt lat="47.12949" lon="-1.18663">
        <ele>73.68</ele>
        <time>2019-01-24T11:12:36Z</time>
      </trkpt>
      <trkpt lat="47.12943" lon="-1.18633">
        <ele>74.64</ele>
        <time>2019-01-24T11:12:51Z</time>
      </trkpt>
      <trkpt lat="47.12941" lon="-1.18623">
        <ele>74.64</ele>
        <time>2019-01-24T11:12:56Z</time>
      </trkpt>
      <trkpt lat="47.12941" lon="-1.18621">
        <ele>74.64</ele>
        <time>2019-01-24T11:12:57Z</time>
      </trkpt>
      <trkpt lat="47.12941" lon="-1.18619">
        <ele>74.64</ele>
        <time>2019-01-24T11:12:58Z</time>
      </trkpt>
      <trkpt lat="47.1294" lon="-1.18617">
        <ele>74.64</ele>
        <time>2019-01-24T11:12:59Z</time>
      </trkpt>
      <trkpt lat="47.1294" lon="-1.18615">
        <ele>74.64</ele>
        <time>2019-01-24T11:13:00Z</time>
      </trkpt>
      <trkpt lat="47.12936" lon="-1.18582">
        <ele>75.12</ele>
        <time>2019-01-24T11:13:17Z</time>
      </trkpt>
      <trkpt lat="47.12933" lon="-1.1855">
        <ele>75.6</ele>
        <time>2019-01-24T11:13:33Z</time>
      </trkpt>
      <trkpt lat="47.12932" lon="-1.18522">
        <ele>75.6</ele>
        <time>2019-01-24T11:13:47Z</time>
      </trkpt>
      <trkpt lat="47.12929" lon="-1.18492">
        <ele>75.6</ele>
        <time>2019-01-24T11:14:02Z</time>
      </trkpt>
      <trkpt lat="47.12927" lon="-1.18454">
        <ele>76.08</ele>
        <time>2019-01-24T11:14:21Z</time>
      </trkpt>
      <trkpt lat="47.12926" lon="-1.18427">
        <ele>76.56</ele>
        <time>2019-01-24T11:14:35Z</time>
      </trkpt>
      <trkpt lat="47.12925" lon="-1.18396">
        <ele>76.56</ele>
        <time>2019-01-24T11:14:51Z</time>
      </trkpt>
      <trkpt lat="47.12925" lon="-1.1837">
        <ele>77.04</ele>
        <time>2019-01-24T11:15:04Z</time>
      </trkpt>
      <trkpt lat="47.12925" lon="-1.18358">
        <ele>77.04</ele>
        <time>2019-01-24T11:15:10Z</time>
      </trkpt>
      <trkpt lat="47.12927" lon="-1.18329">
        <ele>76.56</ele>
        <time>2019-01-24T11:15:25Z</time>
      </trkpt>
      <trkpt lat="47.12926" lon="-1.18313">
        <ele>77.04</ele>
        <time>2019-01-24T11:15:39Z</time>
      </trkpt>
      <trkpt lat="47.12925" lon="-1.18312">
        <ele>75.6</ele>
        <time>2019-01-24T11:15:57Z</time>
      </trkpt>
      <trkpt lat="47.12926" lon="-1.18309">
        <ele>75.6</ele>
        <time>2019-01-24T11:16:32Z</time>
      </trkpt>
      <trkpt lat="47.12926" lon="-1.18309">
        <ele>75.12</ele>
        <time>2019-01-24T11:17:03Z</time>
      </trkpt>
      <trkpt lat="47.12928" lon="-1.18309">
        <ele>75.12</ele>
        <time>2019-01-24T11:17:06Z</time>
      </trkpt>
      <trkpt lat="47.12929" lon="-1.18309">
        <ele>75.12</ele>
        <time>2019-01-24T11:17:09Z</time>
      </trkpt>
      <trkpt lat="47.1293" lon="-1.18289">
        <ele>76.56</ele>
        <time>2019-01-24T11:17:23Z</time>
      </trkpt>
      <trkpt lat="47.1293" lon="-1.18281">
        <ele>76.56</ele>
        <time>2019-01-24T11:17:28Z</time>
      </trkpt>
      <trkpt lat="47.12931" lon="-1.18279">
        <ele>76.56</ele>
        <time>2019-01-24T11:17:29Z</time>
      </trkpt>
      <trkpt lat="47.12931" lon="-1.18277">
        <ele>76.56</ele>
        <time>2019-01-24T11:17:30Z</time>
      </trkpt>
      <trkpt lat="47.12933" lon="-1.18247">
        <ele>76.56</ele>
        <time>2019-01-24T11:17:45Z</time>
      </trkpt>
      <trkpt lat="47.12933" lon="-1.18245">
        <ele>76.56</ele>
        <time>2019-01-24T11:17:46Z</time>
      </trkpt>
      <trkpt lat="47.12933" lon="-1.18243">
        <ele>76.56</ele>
        <time>2019-01-24T11:17:47Z</time>
      </trkpt>
      <trkpt lat="47.12933" lon="-1.18241">
        <ele>76.56</ele>
        <time>2019-01-24T11:17:48Z</time>
      </trkpt>
      <trkpt lat="47.12933" lon="-1.1824">
        <ele>76.56</ele>
        <time>2019-01-24T11:17:49Z</time>
      </trkpt>
      <trkpt lat="47.12933" lon="-1.18238">
        <ele>76.56</ele>
        <time>2019-01-24T11:17:50Z</time>
      </trkpt>
      <trkpt lat="47.12933" lon="-1.18236">
        <ele>76.56</ele>
        <time>2019-01-24T11:17:51Z</time>
      </trkpt>
      <trkpt lat="47.12933" lon="-1.18234">
        <ele>76.56</ele>
        <time>2019-01-24T11:17:52Z</time>
      </trkpt>
      <trkpt lat="47.12933" lon="-1.18232">
        <ele>76.56</ele>
        <time>2019-01-24T11:17:53Z</time>
      </trkpt>
      <trkpt lat="47.12933" lon="-1.1823">
        <ele>76.56</ele>
        <time>2019-01-24T11:17:54Z</time>
      </trkpt>
      <trkpt lat="47.12934" lon="-1.18211">
        <ele>76.56</ele>
        <time>2019-01-24T11:18:04Z</time>
      </trkpt>
      <trkpt lat="47.12934" lon="-1.18209">
        <ele>76.56</ele>
        <time>2019-01-24T11:18:05Z</time>
      </trkpt>
      <trkpt lat="47.12935" lon="-1.18176">
        <ele>76.56</ele>
        <time>2019-01-24T11:18:23Z</time>
      </trkpt>
      <trkpt lat="47.12935" lon="-1.18173">
        <ele>76.56</ele>
        <time>2019-01-24T11:18:24Z</time>
      </trkpt>
      <trkpt lat="47.12935" lon="-1.18171">
        <ele>76.56</ele>
        <time>2019-01-24T11:18:25Z</time>
      </trkpt>
      <trkpt lat="47.12936" lon="-1.18169">
        <ele>76.56</ele>
        <time>2019-01-24T11:18:26Z</time>
      </trkpt>
      <trkpt lat="47.12936" lon="-1.18168">
        <ele>76.56</ele>
        <time>2019-01-24T11:18:27Z</time>
      </trkpt>
      <trkpt lat="47.12936" lon="-1.18166">
        <ele>76.56</ele>
        <time>2019-01-24T11:18:28Z</time>
      </trkpt>
      <trkpt lat="47.12936" lon="-1.18164">
        <ele>76.56</ele>
        <time>2019-01-24T11:18:29Z</time>
      </trkpt>
      <trkpt lat="47.12936" lon="-1.18155">
        <ele>76.56</ele>
        <time>2019-01-24T11:18:33Z</time>
      </trkpt>
      <trkpt lat="47.12936" lon="-1.18153">
        <ele>76.56</ele>
        <time>2019-01-24T11:18:34Z</time>
      </trkpt>
      <trkpt lat="47.12936" lon="-1.18151">
        <ele>76.56</ele>
        <time>2019-01-24T11:18:35Z</time>
      </trkpt>
      <trkpt lat="47.12936" lon="-1.18149">
        <ele>76.56</ele>
        <time>2019-01-24T11:18:36Z</time>
      </trkpt>
      <trkpt lat="47.12937" lon="-1.18148">
        <ele>76.56</ele>
        <time>2019-01-24T11:18:37Z</time>
      </trkpt>
      <trkpt lat="47.12936" lon="-1.18146">
        <ele>76.56</ele>
        <time>2019-01-24T11:18:38Z</time>
      </trkpt>
      <trkpt lat="47.12936" lon="-1.18144">
        <ele>76.56</ele>
        <time>2019-01-24T11:18:39Z</time>
      </trkpt>
      <trkpt lat="47.12936" lon="-1.1814">
        <ele>76.56</ele>
        <time>2019-01-24T11:18:41Z</time>
      </trkpt>
      <trkpt lat="47.12936" lon="-1.18139">
        <ele>76.56</ele>
        <time>2019-01-24T11:18:42Z</time>
      </trkpt>
      <trkpt lat="47.12936" lon="-1.18137">
        <ele>76.56</ele>
        <time>2019-01-24T11:18:43Z</time>
      </trkpt>
      <trkpt lat="47.12936" lon="-1.18135">
        <ele>76.56</ele>
        <time>2019-01-24T11:18:44Z</time>
      </trkpt>
      <trkpt lat="47.12936" lon="-1.18133">
        <ele>76.56</ele>
        <time>2019-01-24T11:18:45Z</time>
      </trkpt>
      <trkpt lat="47.12936" lon="-1.18132">
        <ele>76.56</ele>
        <time>2019-01-24T11:18:46Z</time>
      </trkpt>
      <trkpt lat="47.12936" lon="-1.1813">
        <ele>76.56</ele>
        <time>2019-01-24T11:18:47Z</time>
      </trkpt>
      <trkpt lat="47.12937" lon="-1.18128">
        <ele>76.56</ele>
        <time>2019-01-24T11:18:48Z</time>
      </trkpt>
      <trkpt lat="47.12939" lon="-1.181">
        <ele>76.56</ele>
        <time>2019-01-24T11:19:03Z</time>
      </trkpt>
      <trkpt lat="47.12941" lon="-1.18077">
        <ele>76.56</ele>
        <time>2019-01-24T11:19:16Z</time>
      </trkpt>
      <trkpt lat="47.12943" lon="-1.1806">
        <ele>76.56</ele>
        <time>2019-01-24T11:19:25Z</time>
      </trkpt>
      <trkpt lat="47.12943" lon="-1.18058">
        <ele>76.56</ele>
        <time>2019-01-24T11:19:26Z</time>
      </trkpt>
      <trkpt lat="47.12944" lon="-1.18029">
        <ele>76.56</ele>
        <time>2019-01-24T11:19:42Z</time>
      </trkpt>
      <trkpt lat="47.12945" lon="-1.18022">
        <ele>76.56</ele>
        <time>2019-01-24T11:19:46Z</time>
      </trkpt>
      <trkpt lat="47.12945" lon="-1.1802">
        <ele>76.56</ele>
        <time>2019-01-24T11:19:47Z</time>
      </trkpt>
      <trkpt lat="47.12947" lon="-1.1799">
        <ele>76.56</ele>
        <time>2019-01-24T11:20:03Z</time>
      </trkpt>
      <trkpt lat="47.12948" lon="-1.17961">
        <ele>76.56</ele>
        <time>2019-01-24T11:20:18Z</time>
      </trkpt>
      <trkpt lat="47.12949" lon="-1.17945">
        <ele>77.04</ele>
        <time>2019-01-24T11:20:28Z</time>
      </trkpt>
      <trkpt lat="47.12956" lon="-1.17933">
        <ele>77.04</ele>
        <time>2019-01-24T11:20:40Z</time>
      </trkpt>
      <trkpt lat="47.12957" lon="-1.1793">
        <ele>75.6</ele>
        <time>2019-01-24T11:20:49Z</time>
      </trkpt>
      <trkpt lat="47.12954" lon="-1.17929">
        <ele>75.6</ele>
        <time>2019-01-24T11:21:17Z</time>
      </trkpt>
      <trkpt lat="47.12956" lon="-1.17928">
        <ele>75.6</ele>
        <time>2019-01-24T11:21:56Z</time>
      </trkpt>
      <trkpt lat="47.12955" lon="-1.17931">
        <ele>77.04</ele>
        <time>2019-01-24T11:22:07Z</time>
      </trkpt>
      <trkpt lat="47.12953" lon="-1.17932">
        <ele>77.04</ele>
        <time>2019-01-24T11:22:08Z</time>
      </trkpt>
      <trkpt lat="47.12952" lon="-1.17931">
        <ele>77.04</ele>
        <time>2019-01-24T11:22:09Z</time>
      </trkpt>
      <trkpt lat="47.12952" lon="-1.1793">
        <ele>77.04</ele>
        <time>2019-01-24T11:22:10Z</time>
      </trkpt>
      <trkpt lat="47.12952" lon="-1.17928">
        <ele>77.52</ele>
        <time>2019-01-24T11:22:11Z</time>
      </trkpt>
      <trkpt lat="47.12953" lon="-1.17927">
        <ele>77.52</ele>
        <time>2019-01-24T11:22:12Z</time>
      </trkpt>
      <trkpt lat="47.12958" lon="-1.17925">
        <ele>77.52</ele>
        <time>2019-01-24T11:22:24Z</time>
      </trkpt>
      <trkpt lat="47.12961" lon="-1.17925">
        <ele>77.52</ele>
        <time>2019-01-24T11:22:43Z</time>
      </trkpt>
      <trkpt lat="47.1296" lon="-1.17924">
        <ele>72.72</ele>
        <time>2019-01-24T12:05:58Z</time>
      </trkpt>
      <trkpt lat="47.12963" lon="-1.17929">
        <ele>72.72</ele>
        <time>2019-01-24T12:05:59Z</time>
      </trkpt>
      <trkpt lat="47.12968" lon="-1.17925">
        <ele>72.72</ele>
        <time>2019-01-24T12:06:19Z</time>
      </trkpt>
      <trkpt lat="47.1297" lon="-1.17928">
        <ele>72.72</ele>
        <time>2019-01-24T12:06:38Z</time>
      </trkpt>
      <trkpt lat="47.12968" lon="-1.17928">
        <ele>72.72</ele>
        <time>2019-01-24T12:06:58Z</time>
      </trkpt>
      <trkpt lat="47.12966" lon="-1.17929">
        <ele>72.72</ele>
        <time>2019-01-24T12:07:02Z</time>
      </trkpt>
      <trkpt lat="47.12962" lon="-1.17929">
        <ele>72.72</ele>
        <time>2019-01-24T12:07:05Z</time>
      </trkpt>
      <trkpt lat="47.12957" lon="-1.17908">
        <ele>72.72</ele>
        <time>2019-01-24T12:07:19Z</time>
      </trkpt>
      <trkpt lat="47.12953" lon="-1.1788">
        <ele>74.64</ele>
        <time>2019-01-24T12:07:36Z</time>
      </trkpt>
      <trkpt lat="47.12951" lon="-1.17868">
        <ele>78</ele>
        <time>2019-01-24T12:07:43Z</time>
      </trkpt>
      <trkpt lat="47.12949" lon="-1.17859">
        <ele>81.85</ele>
        <time>2019-01-24T12:07:48Z</time>
      </trkpt>
      <trkpt lat="47.12948" lon="-1.17853">
        <ele>84.73</ele>
        <time>2019-01-24T12:07:52Z</time>
      </trkpt>
      <trkpt lat="47.12946" lon="-1.17841">
        <ele>88.1</ele>
        <time>2019-01-24T12:07:59Z</time>
      </trkpt>
      <trkpt lat="47.12944" lon="-1.17827">
        <ele>91.46</ele>
        <time>2019-01-24T12:08:07Z</time>
      </trkpt>
      <trkpt lat="47.12942" lon="-1.17819">
        <ele>93.39</ele>
        <time>2019-01-24T12:08:12Z</time>
      </trkpt>
      <trkpt lat="47.12938" lon="-1.17795">
        <ele>96.75</ele>
        <time>2019-01-24T12:08:26Z</time>
      </trkpt>
      <trkpt lat="47.12933" lon="-1.17764">
        <ele>99.15</ele>
        <time>2019-01-24T12:08:44Z</time>
      </trkpt>
      <trkpt lat="47.12928" lon="-1.17734">
        <ele>100.6</ele>
        <time>2019-01-24T12:09:01Z</time>
      </trkpt>
      <trkpt lat="47.12928" lon="-1.17732">
        <ele>100.6</ele>
        <time>2019-01-24T12:09:02Z</time>
      </trkpt>
      <trkpt lat="47.12926" lon="-1.17726">
        <ele>100.6</ele>
        <time>2019-01-24T12:09:06Z</time>
      </trkpt>
      <trkpt lat="47.1292" lon="-1.177">
        <ele>101.08</ele>
        <time>2019-01-24T12:09:22Z</time>
      </trkpt>
      <trkpt lat="47.12915" lon="-1.1768">
        <ele>101.08</ele>
        <time>2019-01-24T12:09:36Z</time>
      </trkpt>
      <trkpt lat="47.12907" lon="-1.17652">
        <ele>101.56</ele>
        <time>2019-01-24T12:09:53Z</time>
      </trkpt>
      <trkpt lat="47.12901" lon="-1.17633">
        <ele>101.56</ele>
        <time>2019-01-24T12:10:06Z</time>
      </trkpt>
      <trkpt lat="47.12894" lon="-1.17606">
        <ele>102.04</ele>
        <time>2019-01-24T12:10:22Z</time>
      </trkpt>
      <trkpt lat="47.12885" lon="-1.17581">
        <ele>102.04</ele>
        <time>2019-01-24T12:10:38Z</time>
      </trkpt>
      <trkpt lat="47.12881" lon="-1.17567">
        <ele>102.04</ele>
        <time>2019-01-24T12:10:46Z</time>
      </trkpt>
      <trkpt lat="47.12873" lon="-1.17566">
        <ele>102.04</ele>
        <time>2019-01-24T12:10:52Z</time>
      </trkpt>
      <trkpt lat="47.12861" lon="-1.17567">
        <ele>100.6</ele>
        <time>2019-01-24T12:11:09Z</time>
      </trkpt>
      <trkpt lat="47.12859" lon="-1.17566">
        <ele>99.63</ele>
        <time>2019-01-24T12:11:36Z</time>
      </trkpt>
      <trkpt lat="47.12854" lon="-1.17563">
        <ele>99.15</ele>
        <time>2019-01-24T12:12:09Z</time>
      </trkpt>
      <trkpt lat="47.12856" lon="-1.17562">
        <ele>99.15</ele>
        <time>2019-01-24T12:12:24Z</time>
      </trkpt>
      <trkpt lat="47.12859" lon="-1.17563">
        <ele>100.11</ele>
        <time>2019-01-24T12:12:58Z</time>
      </trkpt>
      <trkpt lat="47.12857" lon="-1.17562">
        <ele>99.63</ele>
        <time>2019-01-24T12:13:22Z</time>
      </trkpt>
      <trkpt lat="47.12855" lon="-1.17565">
        <ele>99.63</ele>
        <time>2019-01-24T12:13:40Z</time>
      </trkpt>
      <trkpt lat="47.12855" lon="-1.17563">
        <ele>99.15</ele>
        <time>2019-01-24T12:14:04Z</time>
      </trkpt>
      <trkpt lat="47.12853" lon="-1.17564">
        <ele>99.15</ele>
        <time>2019-01-24T12:14:23Z</time>
      </trkpt>
      <trkpt lat="47.12856" lon="-1.17561">
        <ele>98.67</ele>
        <time>2019-01-24T12:14:36Z</time>
      </trkpt>
      <trkpt lat="47.12868" lon="-1.17546">
        <ele>98.67</ele>
        <time>2019-01-24T12:14:55Z</time>
      </trkpt>
      <trkpt lat="47.12867" lon="-1.17537">
        <ele>98.19</ele>
        <time>2019-01-24T12:15:14Z</time>
      </trkpt>
      <trkpt lat="47.12869" lon="-1.17532">
        <ele>98.19</ele>
        <time>2019-01-24T12:15:39Z</time>
      </trkpt>
      <trkpt lat="47.12863" lon="-1.17515">
        <ele>97.71</ele>
        <time>2019-01-24T12:15:53Z</time>
      </trkpt>
      <trkpt lat="47.12858" lon="-1.17483">
        <ele>97.71</ele>
        <time>2019-01-24T12:16:11Z</time>
      </trkpt>
      <trkpt lat="47.12855" lon="-1.1745">
        <ele>97.71</ele>
        <time>2019-01-24T12:16:30Z</time>
      </trkpt>
      <trkpt lat="47.12854" lon="-1.17424">
        <ele>97.23</ele>
        <time>2019-01-24T12:16:46Z</time>
      </trkpt>
      <trkpt lat="47.12851" lon="-1.17393">
        <ele>97.23</ele>
        <time>2019-01-24T12:17:02Z</time>
      </trkpt>
      <trkpt lat="47.12849" lon="-1.17383">
        <ele>95.79</ele>
        <time>2019-01-24T12:17:08Z</time>
      </trkpt>
      <trkpt lat="47.12848" lon="-1.17353">
        <ele>95.79</ele>
        <time>2019-01-24T12:17:23Z</time>
      </trkpt>
      <trkpt lat="47.1285" lon="-1.17345">
        <ele>96.75</ele>
        <time>2019-01-24T12:17:27Z</time>
      </trkpt>
      <trkpt lat="47.12866" lon="-1.17325">
        <ele>97.23</ele>
        <time>2019-01-24T12:17:44Z</time>
      </trkpt>
      <trkpt lat="47.12888" lon="-1.17313">
        <ele>97.23</ele>
        <time>2019-01-24T12:18:01Z</time>
      </trkpt>
      <trkpt lat="47.12907" lon="-1.17299">
        <ele>97.23</ele>
        <time>2019-01-24T12:18:18Z</time>
      </trkpt>
      <trkpt lat="47.12923" lon="-1.17283">
        <ele>97.71</ele>
        <time>2019-01-24T12:18:33Z</time>
      </trkpt>
      <trkpt lat="47.12938" lon="-1.17259">
        <ele>97.71</ele>
        <time>2019-01-24T12:18:50Z</time>
      </trkpt>
      <trkpt lat="47.12955" lon="-1.17236">
        <ele>98.19</ele>
        <time>2019-01-24T12:19:07Z</time>
      </trkpt>
      <trkpt lat="47.12968" lon="-1.17214">
        <ele>98.19</ele>
        <time>2019-01-24T12:19:24Z</time>
      </trkpt>
      <trkpt lat="47.12979" lon="-1.17196">
        <ele>98.19</ele>
        <time>2019-01-24T12:19:38Z</time>
      </trkpt>
      <trkpt lat="47.12993" lon="-1.17174">
        <ele>98.67</ele>
        <time>2019-01-24T12:19:55Z</time>
      </trkpt>
      <trkpt lat="47.13004" lon="-1.17156">
        <ele>98.19</ele>
        <time>2019-01-24T12:20:08Z</time>
      </trkpt>
      <trkpt lat="47.1302" lon="-1.17133">
        <ele>98.67</ele>
        <time>2019-01-24T12:20:25Z</time>
      </trkpt>
      <trkpt lat="47.13028" lon="-1.17107">
        <ele>98.67</ele>
        <time>2019-01-24T12:20:41Z</time>
      </trkpt>
      <trkpt lat="47.13031" lon="-1.17084">
        <ele>98.19</ele>
        <time>2019-01-24T12:20:53Z</time>
      </trkpt>
      <trkpt lat="47.1303" lon="-1.17054">
        <ele>98.67</ele>
        <time>2019-01-24T12:21:11Z</time>
      </trkpt>
      <trkpt lat="47.13028" lon="-1.17047">
        <ele>98.67</ele>
        <time>2019-01-24T12:21:17Z</time>
      </trkpt>
      <trkpt lat="47.13024" lon="-1.17042">
        <ele>98.19</ele>
        <time>2019-01-24T12:21:33Z</time>
      </trkpt>
      <trkpt lat="47.13024" lon="-1.17042">
        <ele>96.75</ele>
        <time>2019-01-24T12:22:06Z</time>
      </trkpt>
      <trkpt lat="47.13024" lon="-1.17043">
        <ele>96.75</ele>
        <time>2019-01-24T12:22:26Z</time>
      </trkpt>
      <trkpt lat="47.13025" lon="-1.17042">
        <ele>96.75</ele>
        <time>2019-01-24T12:22:44Z</time>
      </trkpt>
      <trkpt lat="47.13028" lon="-1.17044">
        <ele>96.75</ele>
        <time>2019-01-24T12:22:48Z</time>
      </trkpt>
      <trkpt lat="47.13028" lon="-1.1705">
        <ele>96.75</ele>
        <time>2019-01-24T12:22:52Z</time>
      </trkpt>
      <trkpt lat="47.1303" lon="-1.17083">
        <ele>96.27</ele>
        <time>2019-01-24T12:23:11Z</time>
      </trkpt>
      <trkpt lat="47.13029" lon="-1.17096">
        <ele>96.27</ele>
        <time>2019-01-24T12:23:19Z</time>
      </trkpt>
      <trkpt lat="47.13026" lon="-1.17112">
        <ele>96.27</ele>
        <time>2019-01-24T12:23:28Z</time>
      </trkpt>
      <trkpt lat="47.13015" lon="-1.17137">
        <ele>96.27</ele>
        <time>2019-01-24T12:23:43Z</time>
      </trkpt>
      <trkpt lat="47.12999" lon="-1.17164">
        <ele>95.79</ele>
        <time>2019-01-24T12:24:01Z</time>
      </trkpt>
      <trkpt lat="47.12982" lon="-1.17191">
        <ele>95.79</ele>
        <time>2019-01-24T12:24:19Z</time>
      </trkpt>
      <trkpt lat="47.12963" lon="-1.17223">
        <ele>95.31</ele>
        <time>2019-01-24T12:24:40Z</time>
      </trkpt>
      <trkpt lat="47.12945" lon="-1.17249">
        <ele>94.83</ele>
        <time>2019-01-24T12:24:58Z</time>
      </trkpt>
      <trkpt lat="47.12931" lon="-1.17271">
        <ele>94.35</ele>
        <time>2019-01-24T12:25:13Z</time>
      </trkpt>
      <trkpt lat="47.12909" lon="-1.17298">
        <ele>92.9</ele>
        <time>2019-01-24T12:25:34Z</time>
      </trkpt>
      <trkpt lat="47.12888" lon="-1.17314">
        <ele>92.9</ele>
        <time>2019-01-24T12:25:52Z</time>
      </trkpt>
      <trkpt lat="47.12869" lon="-1.17325">
        <ele>92.42</ele>
        <time>2019-01-24T12:26:09Z</time>
      </trkpt>
      <trkpt lat="47.1285" lon="-1.17349">
        <ele>90.98</ele>
        <time>2019-01-24T12:26:28Z</time>
      </trkpt>
      <trkpt lat="47.12849" lon="-1.1738">
        <ele>90.5</ele>
        <time>2019-01-24T12:26:44Z</time>
      </trkpt>
      <trkpt lat="47.12854" lon="-1.17409">
        <ele>90.5</ele>
        <time>2019-01-24T12:27:01Z</time>
      </trkpt>
      <trkpt lat="47.12855" lon="-1.17441">
        <ele>90.5</ele>
        <time>2019-01-24T12:27:17Z</time>
      </trkpt>
      <trkpt lat="47.12857" lon="-1.17473">
        <ele>90.5</ele>
        <time>2019-01-24T12:27:35Z</time>
      </trkpt>
      <trkpt lat="47.12862" lon="-1.17505">
        <ele>90.02</ele>
        <time>2019-01-24T12:27:52Z</time>
      </trkpt>
      <trkpt lat="47.12867" lon="-1.17541">
        <ele>89.54</ele>
        <time>2019-01-24T12:28:11Z</time>
      </trkpt>
      <trkpt lat="47.12875" lon="-1.17568">
        <ele>89.54</ele>
        <time>2019-01-24T12:28:27Z</time>
      </trkpt>
      <trkpt lat="47.12882" lon="-1.17594">
        <ele>89.54</ele>
        <time>2019-01-24T12:28:42Z</time>
      </trkpt>
      <trkpt lat="47.1289" lon="-1.17622">
        <ele>90.5</ele>
        <time>2019-01-24T12:28:59Z</time>
      </trkpt>
      <trkpt lat="47.12899" lon="-1.17651">
        <ele>90.5</ele>
        <time>2019-01-24T12:29:16Z</time>
      </trkpt>
      <trkpt lat="47.12906" lon="-1.17681">
        <ele>90.5</ele>
        <time>2019-01-24T12:29:33Z</time>
      </trkpt>
      <trkpt lat="47.12915" lon="-1.17713">
        <ele>90.5</ele>
        <time>2019-01-24T12:29:52Z</time>
      </trkpt>
      <trkpt lat="47.12921" lon="-1.17747">
        <ele>90.5</ele>
        <time>2019-01-24T12:30:09Z</time>
      </trkpt>
      <trkpt lat="47.12926" lon="-1.17766">
        <ele>89.06</ele>
        <time>2019-01-24T12:30:20Z</time>
      </trkpt>
      <trkpt lat="47.12932" lon="-1.17801">
        <ele>89.06</ele>
        <time>2019-01-24T12:30:38Z</time>
      </trkpt>
      <trkpt lat="47.12936" lon="-1.17835">
        <ele>88.1</ele>
        <time>2019-01-24T12:30:56Z</time>
      </trkpt>
      <trkpt lat="47.1294" lon="-1.17862">
        <ele>88.1</ele>
        <time>2019-01-24T12:31:11Z</time>
      </trkpt>
      <trkpt lat="47.12945" lon="-1.17893">
        <ele>87.62</ele>
        <time>2019-01-24T12:31:28Z</time>
      </trkpt>
      <trkpt lat="47.12949" lon="-1.17923">
        <ele>87.62</ele>
        <time>2019-01-24T12:31:44Z</time>
      </trkpt>
      <trkpt lat="47.12948" lon="-1.17951">
        <ele>87.14</ele>
        <time>2019-01-24T12:31:59Z</time>
      </trkpt>
      <trkpt lat="47.12947" lon="-1.17982">
        <ele>86.66</ele>
        <time>2019-01-24T12:32:15Z</time>
      </trkpt>
      <trkpt lat="47.12945" lon="-1.18004">
        <ele>86.66</ele>
        <time>2019-01-24T12:32:25Z</time>
      </trkpt>
      <trkpt lat="47.12945" lon="-1.18013">
        <ele>86.66</ele>
        <time>2019-01-24T12:32:30Z</time>
      </trkpt>
      <trkpt lat="47.12942" lon="-1.18051">
        <ele>86.66</ele>
        <time>2019-01-24T12:32:50Z</time>
      </trkpt>
      <trkpt lat="47.12941" lon="-1.18085">
        <ele>86.18</ele>
        <time>2019-01-24T12:33:08Z</time>
      </trkpt>
      <trkpt lat="47.12938" lon="-1.1812">
        <ele>86.18</ele>
        <time>2019-01-24T12:33:26Z</time>
      </trkpt>
      <trkpt lat="47.12935" lon="-1.18153">
        <ele>86.18</ele>
        <time>2019-01-24T12:33:44Z</time>
      </trkpt>
      <trkpt lat="47.12933" lon="-1.1819">
        <ele>86.18</ele>
        <time>2019-01-24T12:34:03Z</time>
      </trkpt>
      <trkpt lat="47.12932" lon="-1.18219">
        <ele>85.69</ele>
        <time>2019-01-24T12:34:19Z</time>
      </trkpt>
      <trkpt lat="47.1293" lon="-1.18257">
        <ele>85.69</ele>
        <time>2019-01-24T12:34:39Z</time>
      </trkpt>
      <trkpt lat="47.12928" lon="-1.18284">
        <ele>85.69</ele>
        <time>2019-01-24T12:34:53Z</time>
      </trkpt>
      <trkpt lat="47.12927" lon="-1.18314">
        <ele>85.69</ele>
        <time>2019-01-24T12:35:09Z</time>
      </trkpt>
      <trkpt lat="47.12924" lon="-1.18349">
        <ele>85.69</ele>
        <time>2019-01-24T12:35:28Z</time>
      </trkpt>
      <trkpt lat="47.12923" lon="-1.1838">
        <ele>85.21</ele>
        <time>2019-01-24T12:35:44Z</time>
      </trkpt>
      <trkpt lat="47.12924" lon="-1.18422">
        <ele>85.21</ele>
        <time>2019-01-24T12:36:04Z</time>
      </trkpt>
      <trkpt lat="47.12927" lon="-1.18458">
        <ele>84.73</ele>
        <time>2019-01-24T12:36:22Z</time>
      </trkpt>
      <trkpt lat="47.12929" lon="-1.1849">
        <ele>84.25</ele>
        <time>2019-01-24T12:36:39Z</time>
      </trkpt>
      <trkpt lat="47.12931" lon="-1.18522">
        <ele>84.25</ele>
        <time>2019-01-24T12:36:56Z</time>
      </trkpt>
      <trkpt lat="47.12934" lon="-1.18553">
        <ele>83.77</ele>
        <time>2019-01-24T12:37:13Z</time>
      </trkpt>
      <trkpt lat="47.12937" lon="-1.1859">
        <ele>83.29</ele>
        <time>2019-01-24T12:37:32Z</time>
      </trkpt>
      <trkpt lat="47.12942" lon="-1.18623">
        <ele>82.81</ele>
        <time>2019-01-24T12:37:49Z</time>
      </trkpt>
      <trkpt lat="47.12946" lon="-1.18651">
        <ele>82.33</ele>
        <time>2019-01-24T12:38:03Z</time>
      </trkpt>
      <trkpt lat="47.12952" lon="-1.18684">
        <ele>81.85</ele>
        <time>2019-01-24T12:38:20Z</time>
      </trkpt>
      <trkpt lat="47.12961" lon="-1.18715">
        <ele>80.89</ele>
        <time>2019-01-24T12:38:36Z</time>
      </trkpt>
      <trkpt lat="47.12974" lon="-1.18734">
        <ele>80.41</ele>
        <time>2019-01-24T12:38:50Z</time>
      </trkpt>
      <trkpt lat="47.12994" lon="-1.18754">
        <ele>78.97</ele>
        <time>2019-01-24T12:39:08Z</time>
      </trkpt>
      <trkpt lat="47.1301" lon="-1.18771">
        <ele>78.48</ele>
        <time>2019-01-24T12:39:24Z</time>
      </trkpt>
      <trkpt lat="47.13035" lon="-1.18791">
        <ele>78</ele>
        <time>2019-01-24T12:39:41Z</time>
      </trkpt>
      <trkpt lat="47.13038" lon="-1.18795">
        <ele>78</ele>
        <time>2019-01-24T12:39:44Z</time>
      </trkpt>
      <trkpt lat="47.13057" lon="-1.18811">
        <ele>77.52</ele>
        <time>2019-01-24T12:40:02Z</time>
      </trkpt>
      <trkpt lat="47.13058" lon="-1.18812">
        <ele>77.52</ele>
        <time>2019-01-24T12:40:03Z</time>
      </trkpt>
      <trkpt lat="47.13069" lon="-1.18833">
        <ele>77.52</ele>
        <time>2019-01-24T12:40:20Z</time>
      </trkpt>
      <trkpt lat="47.13078" lon="-1.18861">
        <ele>77.04</ele>
        <time>2019-01-24T12:40:36Z</time>
      </trkpt>
      <trkpt lat="47.13091" lon="-1.18896">
        <ele>76.56</ele>
        <time>2019-01-24T12:40:56Z</time>
      </trkpt>
      <trkpt lat="47.13106" lon="-1.18921">
        <ele>76.08</ele>
        <time>2019-01-24T12:41:13Z</time>
      </trkpt>
      <trkpt lat="47.13121" lon="-1.18944">
        <ele>75.12</ele>
        <time>2019-01-24T12:41:30Z</time>
      </trkpt>
      <trkpt lat="47.13138" lon="-1.18965">
        <ele>75.12</ele>
        <time>2019-01-24T12:41:47Z</time>
      </trkpt>
      <trkpt lat="47.13148" lon="-1.18972">
        <ele>75.12</ele>
        <time>2019-01-24T12:41:56Z</time>
      </trkpt>
      <trkpt lat="47.13154" lon="-1.18973">
        <ele>75.12</ele>
        <time>2019-01-24T12:42:00Z</time>
      </trkpt>
      <trkpt lat="47.13177" lon="-1.18978">
        <ele>75.12</ele>
        <time>2019-01-24T12:42:17Z</time>
      </trkpt>
      <trkpt lat="47.13179" lon="-1.18979">
        <ele>76.08</ele>
        <time>2019-01-24T12:42:19Z</time>
      </trkpt>
      <trkpt lat="47.13197" lon="-1.18981">
        <ele>77.04</ele>
        <time>2019-01-24T12:42:34Z</time>
      </trkpt>
      <trkpt lat="47.13217" lon="-1.18982">
        <ele>78.48</ele>
        <time>2019-01-24T12:42:50Z</time>
      </trkpt>
      <trkpt lat="47.13243" lon="-1.18979">
        <ele>79.93</ele>
        <time>2019-01-24T12:43:09Z</time>
      </trkpt>
      <trkpt lat="47.13265" lon="-1.18985">
        <ele>79.93</ele>
        <time>2019-01-24T12:43:25Z</time>
      </trkpt>
      <trkpt lat="47.13286" lon="-1.18993">
        <ele>80.41</ele>
        <time>2019-01-24T12:43:42Z</time>
      </trkpt>
      <trkpt lat="47.13295" lon="-1.19001">
        <ele>80.41</ele>
        <time>2019-01-24T12:43:54Z</time>
      </trkpt>
      <trkpt lat="47.13293" lon="-1.19004">
        <ele>80.89</ele>
        <time>2019-01-24T12:44:08Z</time>
      </trkpt>
      <trkpt lat="47.13296" lon="-1.19002">
        <ele>81.37</ele>
        <time>2019-01-24T12:44:21Z</time>
      </trkpt>
      <trkpt lat="47.13294" lon="-1.19001">
        <ele>79.93</ele>
        <time>2019-01-24T12:44:35Z</time>
      </trkpt>
      <trkpt lat="47.13294" lon="-1.19001">
        <ele>79.93</ele>
        <time>2019-01-24T12:44:47Z</time>
      </trkpt>
      <trkpt lat="47.13295" lon="-1.19007">
        <ele>79.45</ele>
        <time>2019-01-24T12:45:01Z</time>
      </trkpt>
      <trkpt lat="47.13295" lon="-1.19008">
        <ele>78.97</ele>
        <time>2019-01-24T12:45:29Z</time>
      </trkpt>
      <trkpt lat="47.13296" lon="-1.19007">
        <ele>78.48</ele>
        <time>2019-01-24T12:45:51Z</time>
      </trkpt>
      <trkpt lat="47.13301" lon="-1.18997">
        <ele>79.45</ele>
        <time>2019-01-24T12:46:08Z</time>
      </trkpt>
      <trkpt lat="47.13304" lon="-1.18997">
        <ele>79.45</ele>
        <time>2019-01-24T12:46:16Z</time>
      </trkpt>
      <trkpt lat="47.13322" lon="-1.18998">
        <ele>79.93</ele>
        <time>2019-01-24T12:46:32Z</time>
      </trkpt>
      <trkpt lat="47.13339" lon="-1.19016">
        <ele>80.41</ele>
        <time>2019-01-24T12:46:49Z</time>
      </trkpt>
      <trkpt lat="47.13359" lon="-1.19035">
        <ele>80.89</ele>
        <time>2019-01-24T12:47:07Z</time>
      </trkpt>
      <trkpt lat="47.13378" lon="-1.19054">
        <ele>81.37</ele>
        <time>2019-01-24T12:47:25Z</time>
      </trkpt>
      <trkpt lat="47.13389" lon="-1.19065">
        <ele>81.37</ele>
        <time>2019-01-24T12:47:36Z</time>
      </trkpt>
      <trkpt lat="47.13406" lon="-1.19082">
        <ele>81.37</ele>
        <time>2019-01-24T12:47:51Z</time>
      </trkpt>
      <trkpt lat="47.13422" lon="-1.191">
        <ele>81.37</ele>
        <time>2019-01-24T12:48:06Z</time>
      </trkpt>
      <trkpt lat="47.13424" lon="-1.19102">
        <ele>81.37</ele>
        <time>2019-01-24T12:48:08Z</time>
      </trkpt>
      <trkpt lat="47.13424" lon="-1.1911">
        <ele>81.37</ele>
        <time>2019-01-24T12:48:21Z</time>
      </trkpt>
      <trkpt lat="47.13424" lon="-1.19108">
        <ele>81.37</ele>
        <time>2019-01-24T12:48:32Z</time>
      </trkpt>
      <trkpt lat="47.13422" lon="-1.19108">
        <ele>81.37</ele>
        <time>2019-01-24T12:48:50Z</time>
      </trkpt>
      <trkpt lat="47.13424" lon="-1.19109">
        <ele>81.37</ele>
        <time>2019-01-24T12:49:02Z</time>
      </trkpt>
      <trkpt lat="47.13424" lon="-1.19109">
        <ele>81.37</ele>
        <time>2019-01-24T12:49:17Z</time>
      </trkpt>
      <trkpt lat="47.13425" lon="-1.19108">
        <ele>81.37</ele>
        <time>2019-01-24T12:49:56Z</time>
      </trkpt>
      <trkpt lat="47.13424" lon="-1.1911">
        <ele>81.37</ele>
        <time>2019-01-24T12:50:18Z</time>
      </trkpt>
      <trkpt lat="47.13422" lon="-1.19111">
        <ele>81.37</ele>
        <time>2019-01-24T12:50:21Z</time>
      </trkpt>
      <trkpt lat="47.13424" lon="-1.19104">
        <ele>81.37</ele>
        <time>2019-01-24T12:50:27Z</time>
      </trkpt>
      <trkpt lat="47.13408" lon="-1.19085">
        <ele>81.37</ele>
        <time>2019-01-24T12:50:43Z</time>
      </trkpt>
      <trkpt lat="47.13386" lon="-1.1906">
        <ele>81.37</ele>
        <time>2019-01-24T12:51:04Z</time>
      </trkpt>
      <trkpt lat="47.13365" lon="-1.19037">
        <ele>81.37</ele>
        <time>2019-01-24T12:51:23Z</time>
      </trkpt>
      <trkpt lat="47.13344" lon="-1.19017">
        <ele>81.37</ele>
        <time>2019-01-24T12:51:44Z</time>
      </trkpt>
      <trkpt lat="47.13328" lon="-1.19003">
        <ele>79.93</ele>
        <time>2019-01-24T12:51:59Z</time>
      </trkpt>
      <trkpt lat="47.13305" lon="-1.18995">
        <ele>79.45</ele>
        <time>2019-01-24T12:52:16Z</time>
      </trkpt>
      <trkpt lat="47.13283" lon="-1.18991">
        <ele>78.48</ele>
        <time>2019-01-24T12:52:35Z</time>
      </trkpt>
      <trkpt lat="47.13259" lon="-1.18984">
        <ele>78</ele>
        <time>2019-01-24T12:52:54Z</time>
      </trkpt>
      <trkpt lat="47.13234" lon="-1.18981">
        <ele>77.52</ele>
        <time>2019-01-24T12:53:12Z</time>
      </trkpt>
      <trkpt lat="47.13229" lon="-1.18981">
        <ele>77.04</ele>
        <time>2019-01-24T12:53:16Z</time>
      </trkpt>
      <trkpt lat="47.13224" lon="-1.18981">
        <ele>76.56</ele>
        <time>2019-01-24T12:53:20Z</time>
      </trkpt>
      <trkpt lat="47.13205" lon="-1.18982">
        <ele>75.6</ele>
        <time>2019-01-24T12:53:36Z</time>
      </trkpt>
      <trkpt lat="47.13179" lon="-1.18977">
        <ele>73.68</ele>
        <time>2019-01-24T12:53:55Z</time>
      </trkpt>
      <trkpt lat="47.13155" lon="-1.18971">
        <ele>72.24</ele>
        <time>2019-01-24T12:54:12Z</time>
      </trkpt>
      <trkpt lat="47.13136" lon="-1.18961">
        <ele>71.76</ele>
        <time>2019-01-24T12:54:28Z</time>
      </trkpt>
      <trkpt lat="47.13122" lon="-1.18942">
        <ele>71.76</ele>
        <time>2019-01-24T12:54:43Z</time>
      </trkpt>
      <trkpt lat="47.13107" lon="-1.1892">
        <ele>71.76</ele>
        <time>2019-01-24T12:55:00Z</time>
      </trkpt>
      <trkpt lat="47.13103" lon="-1.18913">
        <ele>71.76</ele>
        <time>2019-01-24T12:55:06Z</time>
      </trkpt>
      <trkpt lat="47.13098" lon="-1.18906">
        <ele>71.76</ele>
        <time>2019-01-24T12:55:09Z</time>
      </trkpt>
      <trkpt lat="47.13082" lon="-1.18872">
        <ele>73.2</ele>
        <time>2019-01-24T12:55:29Z</time>
      </trkpt>
      <trkpt lat="47.13073" lon="-1.18844">
        <ele>72.72</ele>
        <time>2019-01-24T12:55:47Z</time>
      </trkpt>
      <trkpt lat="47.13063" lon="-1.18823">
        <ele>73.68</ele>
        <time>2019-01-24T12:56:01Z</time>
      </trkpt>
      <trkpt lat="47.13049" lon="-1.18805">
        <ele>74.16</ele>
        <time>2019-01-24T12:56:15Z</time>
      </trkpt>
      <trkpt lat="47.13034" lon="-1.1879">
        <ele>74.16</ele>
        <time>2019-01-24T12:56:30Z</time>
      </trkpt>
      <trkpt lat="47.13014" lon="-1.18771">
        <ele>75.12</ele>
        <time>2019-01-24T12:56:49Z</time>
      </trkpt>
      <trkpt lat="47.12994" lon="-1.18752">
        <ele>76.08</ele>
        <time>2019-01-24T12:57:06Z</time>
      </trkpt>
      <trkpt lat="47.12982" lon="-1.1874">
        <ele>76.08</ele>
        <time>2019-01-24T12:57:19Z</time>
      </trkpt>
      <trkpt lat="47.12977" lon="-1.18735">
        <ele>76.56</ele>
        <time>2019-01-24T12:57:25Z</time>
      </trkpt>
      <trkpt lat="47.12956" lon="-1.18717">
        <ele>78</ele>
        <time>2019-01-24T12:57:42Z</time>
      </trkpt>
      <trkpt lat="47.12938" lon="-1.18724">
        <ele>78.48</ele>
        <time>2019-01-24T12:57:58Z</time>
      </trkpt>
      <trkpt lat="47.12913" lon="-1.18727">
        <ele>79.45</ele>
        <time>2019-01-24T12:58:17Z</time>
      </trkpt>
      <trkpt lat="47.12895" lon="-1.18726">
        <ele>79.45</ele>
        <time>2019-01-24T12:58:31Z</time>
      </trkpt>
      <trkpt lat="47.12872" lon="-1.18723">
        <ele>79.45</ele>
        <time>2019-01-24T12:58:49Z</time>
      </trkpt>
      <trkpt lat="47.12851" lon="-1.18723">
        <ele>79.93</ele>
        <time>2019-01-24T12:59:05Z</time>
      </trkpt>
      <trkpt lat="47.12825" lon="-1.18724">
        <ele>79.93</ele>
        <time>2019-01-24T12:59:25Z</time>
      </trkpt>
      <trkpt lat="47.12802" lon="-1.18722">
        <ele>79.93</ele>
        <time>2019-01-24T12:59:42Z</time>
      </trkpt>
      <trkpt lat="47.12779" lon="-1.18722">
        <ele>79.93</ele>
        <time>2019-01-24T12:59:59Z</time>
      </trkpt>
      <trkpt lat="47.12771" lon="-1.1872">
        <ele>78.97</ele>
        <time>2019-01-24T13:00:05Z</time>
      </trkpt>
      <trkpt lat="47.12749" lon="-1.18719">
        <ele>78</ele>
        <time>2019-01-24T13:00:22Z</time>
      </trkpt>
      <trkpt lat="47.12724" lon="-1.18718">
        <ele>76.08</ele>
        <time>2019-01-24T13:00:41Z</time>
      </trkpt>
      <trkpt lat="47.12709" lon="-1.18717">
        <ele>75.6</ele>
        <time>2019-01-24T13:00:56Z</time>
      </trkpt>
      <trkpt lat="47.12686" lon="-1.18721">
        <ele>75.6</ele>
        <time>2019-01-24T13:01:14Z</time>
      </trkpt>
      <trkpt lat="47.12662" lon="-1.18729">
        <ele>77.04</ele>
        <time>2019-01-24T13:01:33Z</time>
      </trkpt>
      <trkpt lat="47.12641" lon="-1.18737">
        <ele>77.52</ele>
        <time>2019-01-24T13:01:50Z</time>
      </trkpt>
      <trkpt lat="47.12622" lon="-1.18744">
        <ele>78.97</ele>
        <time>2019-01-24T13:02:06Z</time>
      </trkpt>
      <trkpt lat="47.126" lon="-1.18754">
        <ele>79.45</ele>
        <time>2019-01-24T13:02:25Z</time>
      </trkpt>
      <trkpt lat="47.12578" lon="-1.18764">
        <ele>79.93</ele>
        <time>2019-01-24T13:02:40Z</time>
      </trkpt>
      <trkpt lat="47.12575" lon="-1.18765">
        <ele>80.41</ele>
        <time>2019-01-24T13:02:43Z</time>
      </trkpt>
      <trkpt lat="47.12549" lon="-1.18772">
        <ele>80.89</ele>
        <time>2019-01-24T13:03:02Z</time>
      </trkpt>
      <trkpt lat="47.12524" lon="-1.18777">
        <ele>81.37</ele>
        <time>2019-01-24T13:03:20Z</time>
      </trkpt>
      <trkpt lat="47.12503" lon="-1.18774">
        <ele>82.33</ele>
        <time>2019-01-24T13:03:38Z</time>
      </trkpt>
      <trkpt lat="47.12488" lon="-1.18758">
        <ele>82.33</ele>
        <time>2019-01-24T13:03:55Z</time>
      </trkpt>
      <trkpt lat="47.12474" lon="-1.18738">
        <ele>82.33</ele>
        <time>2019-01-24T13:04:10Z</time>
      </trkpt>
      <trkpt lat="47.12456" lon="-1.18716">
        <ele>82.33</ele>
        <time>2019-01-24T13:04:27Z</time>
      </trkpt>
      <trkpt lat="47.12436" lon="-1.18693">
        <ele>82.81</ele>
        <time>2019-01-24T13:04:45Z</time>
      </trkpt>
      <trkpt lat="47.1242" lon="-1.18675">
        <ele>83.29</ele>
        <time>2019-01-24T13:05:03Z</time>
      </trkpt>
      <trkpt lat="47.12403" lon="-1.18653">
        <ele>83.77</ele>
        <time>2019-01-24T13:05:20Z</time>
      </trkpt>
      <trkpt lat="47.12382" lon="-1.18629">
        <ele>84.73</ele>
        <time>2019-01-24T13:05:42Z</time>
      </trkpt>
      <trkpt lat="47.12366" lon="-1.18607">
        <ele>85.21</ele>
        <time>2019-01-24T13:05:58Z</time>
      </trkpt>
      <trkpt lat="47.12362" lon="-1.18597">
        <ele>85.21</ele>
        <time>2019-01-24T13:06:04Z</time>
      </trkpt>
      <trkpt lat="47.12359" lon="-1.18588">
        <ele>85.21</ele>
        <time>2019-01-24T13:06:08Z</time>
      </trkpt>
      <trkpt lat="47.12357" lon="-1.18554">
        <ele>85.69</ele>
        <time>2019-01-24T13:06:26Z</time>
      </trkpt>
      <trkpt lat="47.12358" lon="-1.18549">
        <ele>85.69</ele>
        <time>2019-01-24T13:06:31Z</time>
      </trkpt>
      <trkpt lat="47.12357" lon="-1.18559">
        <ele>85.69</ele>
        <time>2019-01-24T13:06:43Z</time>
      </trkpt>
      <trkpt lat="47.12356" lon="-1.18567">
        <ele>85.69</ele>
        <time>2019-01-24T13:06:57Z</time>
      </trkpt>
      <trkpt lat="47.12357" lon="-1.1857">
        <ele>85.69</ele>
        <time>2019-01-24T13:07:11Z</time>
      </trkpt>
      <trkpt lat="47.12356" lon="-1.18568">
        <ele>85.69</ele>
        <time>2019-01-24T13:07:35Z</time>
      </trkpt>
      <trkpt lat="47.12356" lon="-1.18568">
        <ele>85.69</ele>
        <time>2019-01-24T13:07:36Z</time>
      </trkpt>
      <trkpt lat="47.12355" lon="-1.1856">
        <ele>85.69</ele>
        <time>2019-01-24T13:07:40Z</time>
      </trkpt>
      <trkpt lat="47.12357" lon="-1.18535">
        <ele>84.25</ele>
        <time>2019-01-24T13:07:55Z</time>
      </trkpt>
      <trkpt lat="47.12358" lon="-1.18532">
        <ele>84.25</ele>
        <time>2019-01-24T13:07:57Z</time>
      </trkpt>
      <trkpt lat="47.1236" lon="-1.18498">
        <ele>84.25</ele>
        <time>2019-01-24T13:08:16Z</time>
      </trkpt>
      <trkpt lat="47.12354" lon="-1.18482">
        <ele>84.25</ele>
        <time>2019-01-24T13:08:24Z</time>
      </trkpt>
      <trkpt lat="47.12338" lon="-1.18473">
        <ele>85.21</ele>
        <time>2019-01-24T13:08:41Z</time>
      </trkpt>
      <trkpt lat="47.1232" lon="-1.18461">
        <ele>85.69</ele>
        <time>2019-01-24T13:08:56Z</time>
      </trkpt>
      <trkpt lat="47.12296" lon="-1.18448">
        <ele>86.66</ele>
        <time>2019-01-24T13:09:16Z</time>
      </trkpt>
      <trkpt lat="47.12282" lon="-1.18442">
        <ele>87.14</ele>
        <time>2019-01-24T13:09:26Z</time>
      </trkpt>
      <trkpt lat="47.12258" lon="-1.18436">
        <ele>87.62</ele>
        <time>2019-01-24T13:09:45Z</time>
      </trkpt>
      <trkpt lat="47.12236" lon="-1.18429">
        <ele>88.1</ele>
        <time>2019-01-24T13:10:02Z</time>
      </trkpt>
      <trkpt lat="47.12212" lon="-1.18424">
        <ele>89.06</ele>
        <time>2019-01-24T13:10:20Z</time>
      </trkpt>
      <trkpt lat="47.12188" lon="-1.18419">
        <ele>89.54</ele>
        <time>2019-01-24T13:10:39Z</time>
      </trkpt>
      <trkpt lat="47.12169" lon="-1.18414">
        <ele>90.02</ele>
        <time>2019-01-24T13:10:55Z</time>
      </trkpt>
      <trkpt lat="47.12142" lon="-1.18406">
        <ele>90.98</ele>
        <time>2019-01-24T13:11:17Z</time>
      </trkpt>
      <trkpt lat="47.12127" lon="-1.18399">
        <ele>91.94</ele>
        <time>2019-01-24T13:11:32Z</time>
      </trkpt>
      <trkpt lat="47.1211" lon="-1.18394">
        <ele>91.94</ele>
        <time>2019-01-24T13:11:45Z</time>
      </trkpt>
      <trkpt lat="47.12103" lon="-1.18402">
        <ele>91.94</ele>
        <time>2019-01-24T13:11:52Z</time>
      </trkpt>
      <trkpt lat="47.12095" lon="-1.18429">
        <ele>91.94</ele>
        <time>2019-01-24T13:12:08Z</time>
      </trkpt>
      <trkpt lat="47.12091" lon="-1.18445">
        <ele>91.94</ele>
        <time>2019-01-24T13:12:17Z</time>
      </trkpt>
      <trkpt lat="47.12089" lon="-1.18461">
        <ele>91.94</ele>
        <time>2019-01-24T13:12:33Z</time>
      </trkpt>
      <trkpt lat="47.12084" lon="-1.18483">
        <ele>91.94</ele>
        <time>2019-01-24T13:12:48Z</time>
      </trkpt>
      <trkpt lat="47.12084" lon="-1.18489">
        <ele>91.94</ele>
        <time>2019-01-24T13:12:57Z</time>
      </trkpt>
      <trkpt lat="47.12077" lon="-1.18519">
        <ele>91.94</ele>
        <time>2019-01-24T13:13:13Z</time>
      </trkpt>
      <trkpt lat="47.12075" lon="-1.18545">
        <ele>91.94</ele>
        <time>2019-01-24T13:13:27Z</time>
      </trkpt>
      <trkpt lat="47.12077" lon="-1.18584">
        <ele>91.94</ele>
        <time>2019-01-24T13:13:46Z</time>
      </trkpt>
      <trkpt lat="47.12076" lon="-1.18605">
        <ele>90.5</ele>
        <time>2019-01-24T13:14:01Z</time>
      </trkpt>
      <trkpt lat="47.12077" lon="-1.18605">
        <ele>90.5</ele>
        <time>2019-01-24T13:14:02Z</time>
      </trkpt>
      <trkpt lat="47.12078" lon="-1.18606">
        <ele>90.5</ele>
        <time>2019-01-24T13:14:32Z</time>
      </trkpt>
      <trkpt lat="47.12079" lon="-1.18606">
        <ele>90.5</ele>
        <time>2019-01-24T13:15:01Z</time>
      </trkpt>
      <trkpt lat="47.12077" lon="-1.18619">
        <ele>90.5</ele>
        <time>2019-01-24T13:15:13Z</time>
      </trkpt>
      <trkpt lat="47.12074" lon="-1.18639">
        <ele>90.5</ele>
        <time>2019-01-24T13:15:25Z</time>
      </trkpt>
      <trkpt lat="47.12067" lon="-1.18642">
        <ele>90.5</ele>
        <time>2019-01-24T13:15:33Z</time>
      </trkpt>
      <trkpt lat="47.12049" lon="-1.18637">
        <ele>91.46</ele>
        <time>2019-01-24T13:15:48Z</time>
      </trkpt>
      <trkpt lat="47.12028" lon="-1.18627">
        <ele>91.94</ele>
        <time>2019-01-24T13:16:04Z</time>
      </trkpt>
      <trkpt lat="47.1201" lon="-1.18622">
        <ele>91.94</ele>
        <time>2019-01-24T13:16:20Z</time>
      </trkpt>
      <trkpt lat="47.11991" lon="-1.18617">
        <ele>91.94</ele>
        <time>2019-01-24T13:16:36Z</time>
      </trkpt>
      <trkpt lat="47.11968" lon="-1.18613">
        <ele>91.94</ele>
        <time>2019-01-24T13:16:53Z</time>
      </trkpt>
      <trkpt lat="47.11944" lon="-1.18611">
        <ele>91.94</ele>
        <time>2019-01-24T13:17:11Z</time>
      </trkpt>
      <trkpt lat="47.11922" lon="-1.1861">
        <ele>92.42</ele>
        <time>2019-01-24T13:17:28Z</time>
      </trkpt>
      <trkpt lat="47.11919" lon="-1.18613">
        <ele>92.42</ele>
        <time>2019-01-24T13:17:33Z</time>
      </trkpt>
      <trkpt lat="47.11917" lon="-1.18613">
        <ele>92.42</ele>
        <time>2019-01-24T13:17:35Z</time>
      </trkpt>
      <trkpt lat="47.11916" lon="-1.18612">
        <ele>92.42</ele>
        <time>2019-01-24T13:17:52Z</time>
      </trkpt>
      <trkpt lat="47.11915" lon="-1.18611">
        <ele>90.98</ele>
        <time>2019-01-24T13:18:24Z</time>
      </trkpt>
      <trkpt lat="47.11917" lon="-1.18613">
        <ele>90.98</ele>
        <time>2019-01-24T13:18:47Z</time>
      </trkpt>
      <trkpt lat="47.11917" lon="-1.18614">
        <ele>91.94</ele>
        <time>2019-01-24T13:19:08Z</time>
      </trkpt>
      <trkpt lat="47.11914" lon="-1.18614">
        <ele>91.94</ele>
        <time>2019-01-24T13:19:20Z</time>
      </trkpt>
      <trkpt lat="47.11891" lon="-1.18609">
        <ele>92.42</ele>
        <time>2019-01-24T13:19:39Z</time>
      </trkpt>
      <trkpt lat="47.11868" lon="-1.18605">
        <ele>92.42</ele>
        <time>2019-01-24T13:19:57Z</time>
      </trkpt>
      <trkpt lat="47.1185" lon="-1.18601">
        <ele>92.42</ele>
        <time>2019-01-24T13:20:12Z</time>
      </trkpt>
      <trkpt lat="47.11847" lon="-1.186">
        <ele>92.42</ele>
        <time>2019-01-24T13:20:15Z</time>
      </trkpt>
      <trkpt lat="47.11842" lon="-1.18599">
        <ele>92.42</ele>
        <time>2019-01-24T13:20:18Z</time>
      </trkpt>
      <trkpt lat="47.11832" lon="-1.18595">
        <ele>92.42</ele>
        <time>2019-01-24T13:20:26Z</time>
      </trkpt>
      <trkpt lat="47.11813" lon="-1.18591">
        <ele>92.42</ele>
        <time>2019-01-24T13:20:41Z</time>
      </trkpt>
      <trkpt lat="47.11789" lon="-1.18588">
        <ele>92.42</ele>
        <time>2019-01-24T13:21:00Z</time>
      </trkpt>
      <trkpt lat="47.11777" lon="-1.18584">
        <ele>92.42</ele>
        <time>2019-01-24T13:21:10Z</time>
      </trkpt>
      <trkpt lat="47.11758" lon="-1.18582">
        <ele>92.42</ele>
        <time>2019-01-24T13:21:26Z</time>
      </trkpt>
      <trkpt lat="47.11734" lon="-1.18578">
        <ele>92.42</ele>
        <time>2019-01-24T13:21:45Z</time>
      </trkpt>
      <trkpt lat="47.11716" lon="-1.18575">
        <ele>92.42</ele>
        <time>2019-01-24T13:22:00Z</time>
      </trkpt>
      <trkpt lat="47.11695" lon="-1.18571">
        <ele>92.42</ele>
        <time>2019-01-24T13:22:15Z</time>
      </trkpt>
      <trkpt lat="47.11674" lon="-1.18565">
        <ele>90.98</ele>
        <time>2019-01-24T13:22:32Z</time>
      </trkpt>
      <trkpt lat="47.11648" lon="-1.18555">
        <ele>90.5</ele>
        <time>2019-01-24T13:22:50Z</time>
      </trkpt>
      <trkpt lat="47.11628" lon="-1.1855">
        <ele>90.02</ele>
        <time>2019-01-24T13:23:07Z</time>
      </trkpt>
      <trkpt lat="47.11626" lon="-1.18551">
        <ele>90.02</ele>
        <time>2019-01-24T13:23:24Z</time>
      </trkpt>
      <trkpt lat="47.11625" lon="-1.18555">
        <ele>89.54</ele>
        <time>2019-01-24T13:23:36Z</time>
      </trkpt>
      <trkpt lat="47.11624" lon="-1.18556">
        <ele>89.54</ele>
        <time>2019-01-24T13:24:11Z</time>
      </trkpt>
      <trkpt lat="47.11624" lon="-1.18549">
        <ele>89.06</ele>
        <time>2019-01-24T13:24:34Z</time>
      </trkpt>
      <trkpt lat="47.1161" lon="-1.18543">
        <ele>89.06</ele>
        <time>2019-01-24T13:24:47Z</time>
      </trkpt>
      <trkpt lat="47.11593" lon="-1.18539">
        <ele>88.58</ele>
        <time>2019-01-24T13:25:02Z</time>
      </trkpt>
      <trkpt lat="47.11567" lon="-1.18531">
        <ele>88.1</ele>
        <time>2019-01-24T13:25:24Z</time>
      </trkpt>
      <trkpt lat="47.11541" lon="-1.18522">
        <ele>87.62</ele>
        <time>2019-01-24T13:25:44Z</time>
      </trkpt>
      <trkpt lat="47.11518" lon="-1.18511">
        <ele>87.14</ele>
        <time>2019-01-24T13:26:04Z</time>
      </trkpt>
      <trkpt lat="47.11495" lon="-1.18507">
        <ele>86.18</ele>
        <time>2019-01-24T13:26:22Z</time>
      </trkpt>
      <trkpt lat="47.11475" lon="-1.18516">
        <ele>85.69</ele>
        <time>2019-01-24T13:26:40Z</time>
      </trkpt>
      <trkpt lat="47.1147" lon="-1.18516">
        <ele>85.69</ele>
        <time>2019-01-24T13:26:52Z</time>
      </trkpt>
      <trkpt lat="47.11471" lon="-1.18517">
        <ele>84.73</ele>
        <time>2019-01-24T13:27:11Z</time>
      </trkpt>
      <trkpt lat="47.11471" lon="-1.18519">
        <ele>84.73</ele>
        <time>2019-01-24T13:27:39Z</time>
      </trkpt>
      <trkpt lat="47.1147" lon="-1.18517">
        <ele>84.73</ele>
        <time>2019-01-24T13:28:04Z</time>
      </trkpt>
      <trkpt lat="47.11467" lon="-1.18523">
        <ele>84.73</ele>
        <time>2019-01-24T13:28:21Z</time>
      </trkpt>
      <trkpt lat="47.11464" lon="-1.18524">
        <ele>84.73</ele>
        <time>2019-01-24T13:28:25Z</time>
      </trkpt>
      <trkpt lat="47.11452" lon="-1.18527">
        <ele>84.73</ele>
        <time>2019-01-24T13:28:39Z</time>
      </trkpt>
      <trkpt lat="47.11432" lon="-1.18536">
        <ele>84.73</ele>
        <time>2019-01-24T13:28:55Z</time>
      </trkpt>
      <trkpt lat="47.11409" lon="-1.18549">
        <ele>84.73</ele>
        <time>2019-01-24T13:29:15Z</time>
      </trkpt>
      <trkpt lat="47.11388" lon="-1.18559">
        <ele>84.73</ele>
        <time>2019-01-24T13:29:33Z</time>
      </trkpt>
      <trkpt lat="47.11364" lon="-1.1857">
        <ele>84.25</ele>
        <time>2019-01-24T13:29:52Z</time>
      </trkpt>
      <trkpt lat="47.11341" lon="-1.18581">
        <ele>84.25</ele>
        <time>2019-01-24T13:30:12Z</time>
      </trkpt>
      <trkpt lat="47.1134" lon="-1.18579">
        <ele>84.25</ele>
        <time>2019-01-24T13:30:14Z</time>
      </trkpt>
      <trkpt lat="47.1133" lon="-1.18557">
        <ele>84.25</ele>
        <time>2019-01-24T13:30:29Z</time>
      </trkpt>
      <trkpt lat="47.11324" lon="-1.18542">
        <ele>84.25</ele>
        <time>2019-01-24T13:30:42Z</time>
      </trkpt>
      <trkpt lat="47.11324" lon="-1.18542">
        <ele>83.29</ele>
        <time>2019-01-24T13:30:55Z</time>
      </trkpt>
      <trkpt lat="47.11322" lon="-1.18536">
        <ele>83.29</ele>
        <time>2019-01-24T13:31:14Z</time>
      </trkpt>
      <trkpt lat="47.11323" lon="-1.18541">
        <ele>83.29</ele>
        <time>2019-01-24T13:31:29Z</time>
      </trkpt>
      <trkpt lat="47.11323" lon="-1.18544">
        <ele>83.29</ele>
        <time>2019-01-24T13:31:53Z</time>
      </trkpt>
      <trkpt lat="47.11323" lon="-1.18546">
        <ele>83.29</ele>
        <time>2019-01-24T13:32:23Z</time>
      </trkpt>
      <trkpt lat="47.11322" lon="-1.18544">
        <ele>83.29</ele>
        <time>2019-01-24T13:33:03Z</time>
      </trkpt>
      <trkpt lat="47.11324" lon="-1.18544">
        <ele>83.29</ele>
        <time>2019-01-24T13:33:32Z</time>
      </trkpt>
      <trkpt lat="47.11325" lon="-1.18541">
        <ele>83.29</ele>
        <time>2019-01-24T13:33:52Z</time>
      </trkpt>
      <trkpt lat="47.11319" lon="-1.18534">
        <ele>84.25</ele>
        <time>2019-01-24T13:34:07Z</time>
      </trkpt>
      <trkpt lat="47.11305" lon="-1.18511">
        <ele>84.25</ele>
        <time>2019-01-24T13:34:25Z</time>
      </trkpt>
      <trkpt lat="47.11294" lon="-1.18493">
        <ele>84.73</ele>
        <time>2019-01-24T13:34:42Z</time>
      </trkpt>
      <trkpt lat="47.11281" lon="-1.18473">
        <ele>84.73</ele>
        <time>2019-01-24T13:34:59Z</time>
      </trkpt>
      <trkpt lat="47.11268" lon="-1.1845">
        <ele>85.21</ele>
        <time>2019-01-24T13:35:14Z</time>
      </trkpt>
      <trkpt lat="47.11252" lon="-1.18429">
        <ele>86.18</ele>
        <time>2019-01-24T13:35:30Z</time>
      </trkpt>
      <trkpt lat="47.11231" lon="-1.18433">
        <ele>85.69</ele>
        <time>2019-01-24T13:35:46Z</time>
      </trkpt>
      <trkpt lat="47.11211" lon="-1.1844">
        <ele>85.69</ele>
        <time>2019-01-24T13:36:02Z</time>
      </trkpt>
      <trkpt lat="47.11193" lon="-1.18445">
        <ele>86.66</ele>
        <time>2019-01-24T13:36:17Z</time>
      </trkpt>
      <trkpt lat="47.11186" lon="-1.1845">
        <ele>87.14</ele>
        <time>2019-01-24T13:36:29Z</time>
      </trkpt>
      <trkpt lat="47.11184" lon="-1.18452">
        <ele>87.14</ele>
        <time>2019-01-24T13:36:42Z</time>
      </trkpt>
      <trkpt lat="47.11183" lon="-1.18452">
        <ele>87.14</ele>
        <time>2019-01-24T13:37:14Z</time>
      </trkpt>
      <trkpt lat="47.11182" lon="-1.18453">
        <ele>86.66</ele>
        <time>2019-01-24T13:37:48Z</time>
      </trkpt>
      <trkpt lat="47.11183" lon="-1.18451">
        <ele>86.66</ele>
        <time>2019-01-24T13:38:04Z</time>
      </trkpt>
      <trkpt lat="47.11169" lon="-1.18455">
        <ele>86.66</ele>
        <time>2019-01-24T13:38:17Z</time>
      </trkpt>
      <trkpt lat="47.11154" lon="-1.18461">
        <ele>86.66</ele>
        <time>2019-01-24T13:38:31Z</time>
      </trkpt>
      <trkpt lat="47.11134" lon="-1.18469">
        <ele>86.66</ele>
        <time>2019-01-24T13:38:47Z</time>
      </trkpt>
      <trkpt lat="47.11111" lon="-1.18479">
        <ele>86.66</ele>
        <time>2019-01-24T13:39:06Z</time>
      </trkpt>
      <trkpt lat="47.11091" lon="-1.18489">
        <ele>87.14</ele>
        <time>2019-01-24T13:39:21Z</time>
      </trkpt>
      <trkpt lat="47.11078" lon="-1.18509">
        <ele>87.14</ele>
        <time>2019-01-24T13:39:36Z</time>
      </trkpt>
      <trkpt lat="47.11066" lon="-1.18533">
        <ele>87.14</ele>
        <time>2019-01-24T13:39:51Z</time>
      </trkpt>
      <trkpt lat="47.11056" lon="-1.18556">
        <ele>87.14</ele>
        <time>2019-01-24T13:40:05Z</time>
      </trkpt>
      <trkpt lat="47.11054" lon="-1.18563">
        <ele>85.69</ele>
        <time>2019-01-24T13:40:15Z</time>
      </trkpt>
      <trkpt lat="47.11054" lon="-1.18564">
        <ele>85.21</ele>
        <time>2019-01-24T13:40:28Z</time>
      </trkpt>
      <trkpt lat="47.11054" lon="-1.1856">
        <ele>85.21</ele>
        <time>2019-01-24T13:41:06Z</time>
      </trkpt>
      <trkpt lat="47.11052" lon="-1.18566">
        <ele>85.21</ele>
        <time>2019-01-24T13:41:20Z</time>
      </trkpt>
      <trkpt lat="47.11049" lon="-1.1857">
        <ele>85.21</ele>
        <time>2019-01-24T13:41:24Z</time>
      </trkpt>
      <trkpt lat="47.11045" lon="-1.18579">
        <ele>85.21</ele>
        <time>2019-01-24T13:41:29Z</time>
      </trkpt>
      <trkpt lat="47.1103" lon="-1.18606">
        <ele>85.21</ele>
        <time>2019-01-24T13:41:48Z</time>
      </trkpt>
      <trkpt lat="47.11014" lon="-1.18628">
        <ele>85.21</ele>
        <time>2019-01-24T13:42:05Z</time>
      </trkpt>
      <trkpt lat="47.10996" lon="-1.18644">
        <ele>85.21</ele>
        <time>2019-01-24T13:42:22Z</time>
      </trkpt>
      <trkpt lat="47.10978" lon="-1.18656">
        <ele>85.21</ele>
        <time>2019-01-24T13:42:37Z</time>
      </trkpt>
      <trkpt lat="47.10961" lon="-1.18669">
        <ele>86.18</ele>
        <time>2019-01-24T13:42:52Z</time>
      </trkpt>
      <trkpt lat="47.10944" lon="-1.18682">
        <ele>86.18</ele>
        <time>2019-01-24T13:43:07Z</time>
      </trkpt>
      <trkpt lat="47.10926" lon="-1.18697">
        <ele>86.18</ele>
        <time>2019-01-24T13:43:24Z</time>
      </trkpt>
      <trkpt lat="47.10905" lon="-1.18713">
        <ele>86.18</ele>
        <time>2019-01-24T13:43:43Z</time>
      </trkpt>
      <trkpt lat="47.10886" lon="-1.18727">
        <ele>86.18</ele>
        <time>2019-01-24T13:44:00Z</time>
      </trkpt>
      <trkpt lat="47.10866" lon="-1.18743">
        <ele>86.18</ele>
        <time>2019-01-24T13:44:18Z</time>
      </trkpt>
      <trkpt lat="47.10846" lon="-1.18757">
        <ele>86.18</ele>
        <time>2019-01-24T13:44:36Z</time>
      </trkpt>
      <trkpt lat="47.10827" lon="-1.18772">
        <ele>86.18</ele>
        <time>2019-01-24T13:44:53Z</time>
      </trkpt>
      <trkpt lat="47.10812" lon="-1.18786">
        <ele>86.18</ele>
        <time>2019-01-24T13:45:07Z</time>
      </trkpt>
      <trkpt lat="47.10795" lon="-1.18799">
        <ele>86.18</ele>
        <time>2019-01-24T13:45:22Z</time>
      </trkpt>
      <trkpt lat="47.10779" lon="-1.18812">
        <ele>85.69</ele>
        <time>2019-01-24T13:45:37Z</time>
      </trkpt>
      <trkpt lat="47.10764" lon="-1.18823">
        <ele>85.69</ele>
        <time>2019-01-24T13:45:51Z</time>
      </trkpt>
      <trkpt lat="47.1074" lon="-1.18839">
        <ele>85.69</ele>
        <time>2019-01-24T13:46:12Z</time>
      </trkpt>
      <trkpt lat="47.1072" lon="-1.1885">
        <ele>85.69</ele>
        <time>2019-01-24T13:46:29Z</time>
      </trkpt>
      <trkpt lat="47.10698" lon="-1.18864">
        <ele>85.69</ele>
        <time>2019-01-24T13:46:47Z</time>
      </trkpt>
      <trkpt lat="47.10682" lon="-1.18873">
        <ele>85.69</ele>
        <time>2019-01-24T13:47:00Z</time>
      </trkpt>
      <trkpt lat="47.10674" lon="-1.18879">
        <ele>85.69</ele>
        <time>2019-01-24T13:47:08Z</time>
      </trkpt>
      <trkpt lat="47.10666" lon="-1.18892">
        <ele>85.69</ele>
        <time>2019-01-24T13:47:17Z</time>
      </trkpt>
      <trkpt lat="47.10669" lon="-1.18899">
        <ele>84.73</ele>
        <time>2019-01-24T13:47:30Z</time>
      </trkpt>
      <trkpt lat="47.1067" lon="-1.18897">
        <ele>84.25</ele>
        <time>2019-01-24T13:47:51Z</time>
      </trkpt>
      <trkpt lat="47.10671" lon="-1.18898">
        <ele>84.25</ele>
        <time>2019-01-24T13:48:27Z</time>
      </trkpt>
      <trkpt lat="47.10671" lon="-1.18899">
        <ele>83.77</ele>
        <time>2019-01-24T13:49:00Z</time>
      </trkpt>
      <trkpt lat="47.10672" lon="-1.18912">
        <ele>83.77</ele>
        <time>2019-01-24T13:49:13Z</time>
      </trkpt>
      <trkpt lat="47.10683" lon="-1.18937">
        <ele>83.77</ele>
        <time>2019-01-24T13:49:31Z</time>
      </trkpt>
      <trkpt lat="47.10683" lon="-1.1894">
        <ele>83.77</ele>
        <time>2019-01-24T13:49:33Z</time>
      </trkpt>
      <trkpt lat="47.10666" lon="-1.18967">
        <ele>83.77</ele>
        <time>2019-01-24T13:49:52Z</time>
      </trkpt>
      <trkpt lat="47.10656" lon="-1.1898">
        <ele>83.29</ele>
        <time>2019-01-24T13:50:03Z</time>
      </trkpt>
      <trkpt lat="47.10641" lon="-1.19">
        <ele>82.81</ele>
        <time>2019-01-24T13:50:23Z</time>
      </trkpt>
      <trkpt lat="47.10619" lon="-1.19028">
        <ele>82.33</ele>
        <time>2019-01-24T13:50:41Z</time>
      </trkpt>
      <trkpt lat="47.10599" lon="-1.19049">
        <ele>81.37</ele>
        <time>2019-01-24T13:50:59Z</time>
      </trkpt>
      <trkpt lat="47.10583" lon="-1.19067">
        <ele>80.89</ele>
        <time>2019-01-24T13:51:16Z</time>
      </trkpt>
      <trkpt lat="47.10577" lon="-1.19075">
        <ele>80.41</ele>
        <time>2019-01-24T13:51:30Z</time>
      </trkpt>
      <trkpt lat="47.10579" lon="-1.19075">
        <ele>79.45</ele>
        <time>2019-01-24T13:51:51Z</time>
      </trkpt>
      <trkpt lat="47.10578" lon="-1.19075">
        <ele>79.45</ele>
        <time>2019-01-24T13:52:14Z</time>
      </trkpt>
      <trkpt lat="47.10577" lon="-1.19077">
        <ele>79.45</ele>
        <time>2019-01-24T13:52:35Z</time>
      </trkpt>
      <trkpt lat="47.10574" lon="-1.19079">
        <ele>79.45</ele>
        <time>2019-01-24T13:53:06Z</time>
      </trkpt>
      <trkpt lat="47.10578" lon="-1.19077">
        <ele>79.45</ele>
        <time>2019-01-24T13:53:35Z</time>
      </trkpt>
      <trkpt lat="47.10568" lon="-1.19086">
        <ele>79.45</ele>
        <time>2019-01-24T13:53:49Z</time>
      </trkpt>
      <trkpt lat="47.10562" lon="-1.19093">
        <ele>79.45</ele>
        <time>2019-01-24T13:53:55Z</time>
      </trkpt>
      <trkpt lat="47.10543" lon="-1.19117">
        <ele>78.97</ele>
        <time>2019-01-24T13:54:13Z</time>
      </trkpt>
      <trkpt lat="47.10528" lon="-1.19139">
        <ele>78.48</ele>
        <time>2019-01-24T13:54:29Z</time>
      </trkpt>
      <trkpt lat="47.10512" lon="-1.19158">
        <ele>77.52</ele>
        <time>2019-01-24T13:54:45Z</time>
      </trkpt>
      <trkpt lat="47.10494" lon="-1.19183">
        <ele>77.04</ele>
        <time>2019-01-24T13:55:03Z</time>
      </trkpt>
      <trkpt lat="47.10475" lon="-1.19209">
        <ele>77.04</ele>
        <time>2019-01-24T13:55:23Z</time>
      </trkpt>
      <trkpt lat="47.1046" lon="-1.19223">
        <ele>76.56</ele>
        <time>2019-01-24T13:55:37Z</time>
      </trkpt>
      <trkpt lat="47.10458" lon="-1.19227">
        <ele>75.12</ele>
        <time>2019-01-24T13:55:56Z</time>
      </trkpt>
      <trkpt lat="47.10459" lon="-1.19226">
        <ele>75.12</ele>
        <time>2019-01-24T13:56:28Z</time>
      </trkpt>
      <trkpt lat="47.10458" lon="-1.19229">
        <ele>75.12</ele>
        <time>2019-01-24T13:57:04Z</time>
      </trkpt>
      <trkpt lat="47.10455" lon="-1.19231">
        <ele>75.6</ele>
        <time>2019-01-24T13:57:25Z</time>
      </trkpt>
      <trkpt lat="47.10454" lon="-1.19228">
        <ele>75.6</ele>
        <time>2019-01-24T13:57:53Z</time>
      </trkpt>
      <trkpt lat="47.10453" lon="-1.19231">
        <ele>75.6</ele>
        <time>2019-01-24T13:58:10Z</time>
      </trkpt>
      <trkpt lat="47.10447" lon="-1.19238">
        <ele>75.12</ele>
        <time>2019-01-24T13:58:17Z</time>
      </trkpt>
      <trkpt lat="47.10433" lon="-1.1925">
        <ele>75.6</ele>
        <time>2019-01-24T13:58:31Z</time>
      </trkpt>
      <trkpt lat="47.10416" lon="-1.19268">
        <ele>75.6</ele>
        <time>2019-01-24T13:58:47Z</time>
      </trkpt>
      <trkpt lat="47.10399" lon="-1.19285">
        <ele>75.6</ele>
        <time>2019-01-24T13:59:03Z</time>
      </trkpt>
      <trkpt lat="47.10396" lon="-1.19289">
        <ele>75.6</ele>
        <time>2019-01-24T13:59:07Z</time>
      </trkpt>
      <trkpt lat="47.104" lon="-1.1931">
        <ele>75.12</ele>
        <time>2019-01-24T13:59:22Z</time>
      </trkpt>
      <trkpt lat="47.10408" lon="-1.19327">
        <ele>75.12</ele>
        <time>2019-01-24T13:59:34Z</time>
      </trkpt>
      <trkpt lat="47.10419" lon="-1.19358">
        <ele>75.12</ele>
        <time>2019-01-24T13:59:52Z</time>
      </trkpt>
      <trkpt lat="47.10404" lon="-1.19382">
        <ele>74.16</ele>
        <time>2019-01-24T14:00:07Z</time>
      </trkpt>
      <trkpt lat="47.10389" lon="-1.194">
        <ele>73.68</ele>
        <time>2019-01-24T14:00:22Z</time>
      </trkpt>
      <trkpt lat="47.10373" lon="-1.19418">
        <ele>73.2</ele>
        <time>2019-01-24T14:00:38Z</time>
      </trkpt>
      <trkpt lat="47.10355" lon="-1.19438">
        <ele>72.24</ele>
        <time>2019-01-24T14:00:55Z</time>
      </trkpt>
      <trkpt lat="47.10339" lon="-1.19456">
        <ele>72.24</ele>
        <time>2019-01-24T14:01:11Z</time>
      </trkpt>
      <trkpt lat="47.1033" lon="-1.19465">
        <ele>71.76</ele>
        <time>2019-01-24T14:01:20Z</time>
      </trkpt>
      <trkpt lat="47.10313" lon="-1.19481">
        <ele>71.76</ele>
        <time>2019-01-24T14:01:37Z</time>
      </trkpt>
      <trkpt lat="47.10299" lon="-1.19499">
        <ele>71.76</ele>
        <time>2019-01-24T14:01:53Z</time>
      </trkpt>
      <trkpt lat="47.10282" lon="-1.19522">
        <ele>71.27</ele>
        <time>2019-01-24T14:02:11Z</time>
      </trkpt>
      <trkpt lat="47.10268" lon="-1.19544">
        <ele>70.79</ele>
        <time>2019-01-24T14:02:27Z</time>
      </trkpt>
      <trkpt lat="47.10254" lon="-1.19561">
        <ele>69.83</ele>
        <time>2019-01-24T14:02:42Z</time>
      </trkpt>
      <trkpt lat="47.10239" lon="-1.19584">
        <ele>69.35</ele>
        <time>2019-01-24T14:02:58Z</time>
      </trkpt>
      <trkpt lat="47.10227" lon="-1.19603">
        <ele>68.87</ele>
        <time>2019-01-24T14:03:13Z</time>
      </trkpt>
      <trkpt lat="47.10227" lon="-1.19609">
        <ele>68.87</ele>
        <time>2019-01-24T14:03:16Z</time>
      </trkpt>
      <trkpt lat="47.10237" lon="-1.19632">
        <ele>68.87</ele>
        <time>2019-01-24T14:03:31Z</time>
      </trkpt>
      <trkpt lat="47.10242" lon="-1.19643">
        <ele>68.39</ele>
        <time>2019-01-24T14:03:45Z</time>
      </trkpt>
      <trkpt lat="47.10243" lon="-1.19643">
        <ele>68.87</ele>
        <time>2019-01-24T14:04:06Z</time>
      </trkpt>
      <trkpt lat="47.10242" lon="-1.19645">
        <ele>67.43</ele>
        <time>2019-01-24T14:04:18Z</time>
      </trkpt>
      <trkpt lat="47.10243" lon="-1.19643">
        <ele>67.43</ele>
        <time>2019-01-24T14:04:30Z</time>
      </trkpt>
      <trkpt lat="47.10244" lon="-1.19646">
        <ele>67.91</ele>
        <time>2019-01-24T14:04:43Z</time>
      </trkpt>
      <trkpt lat="47.10245" lon="-1.19648">
        <ele>67.91</ele>
        <time>2019-01-24T14:04:45Z</time>
      </trkpt>
      <trkpt lat="47.10246" lon="-1.1965">
        <ele>67.91</ele>
        <time>2019-01-24T14:04:47Z</time>
      </trkpt>
      <trkpt lat="47.10248" lon="-1.19661">
        <ele>67.91</ele>
        <time>2019-01-24T14:04:56Z</time>
      </trkpt>
      <trkpt lat="47.10248" lon="-1.19666">
        <ele>67.91</ele>
        <time>2019-01-24T14:04:59Z</time>
      </trkpt>
      <trkpt lat="47.1025" lon="-1.19667">
        <ele>67.91</ele>
        <time>2019-01-24T14:05:12Z</time>
      </trkpt>
      <trkpt lat="47.1025" lon="-1.19665">
        <ele>67.91</ele>
        <time>2019-01-24T14:05:28Z</time>
      </trkpt>
      <trkpt lat="47.1025" lon="-1.19664">
        <ele>67.43</ele>
        <time>2019-01-24T14:05:57Z</time>
      </trkpt>
      <trkpt lat="47.1025" lon="-1.19664">
        <ele>67.43</ele>
        <time>2019-01-24T14:06:06Z</time>
      </trkpt>
      <trkpt lat="47.10247" lon="-1.19664">
        <ele>66.47</ele>
        <time>2019-01-24T14:06:08Z</time>
      </trkpt>
      <trkpt lat="47.10237" lon="-1.19629">
        <ele>67.91</ele>
        <time>2019-01-24T14:06:26Z</time>
      </trkpt>
      <trkpt lat="47.10222" lon="-1.19599">
        <ele>67.91</ele>
        <time>2019-01-24T14:06:43Z</time>
      </trkpt>
      <trkpt lat="47.10204" lon="-1.19572">
        <ele>67.91</ele>
        <time>2019-01-24T14:07:01Z</time>
      </trkpt>
      <trkpt lat="47.10191" lon="-1.19549">
        <ele>68.39</ele>
        <time>2019-01-24T14:07:17Z</time>
      </trkpt>
      <trkpt lat="47.10186" lon="-1.19539">
        <ele>66.95</ele>
        <time>2019-01-24T14:07:24Z</time>
      </trkpt>
      <trkpt lat="47.10176" lon="-1.1952">
        <ele>66.47</ele>
        <time>2019-01-24T14:07:39Z</time>
      </trkpt>
      <trkpt lat="47.10164" lon="-1.19499">
        <ele>65.99</ele>
        <time>2019-01-24T14:07:53Z</time>
      </trkpt>
      <trkpt lat="47.10146" lon="-1.19469">
        <ele>65.51</ele>
        <time>2019-01-24T14:08:14Z</time>
      </trkpt>
      <trkpt lat="47.10138" lon="-1.19459">
        <ele>65.03</ele>
        <time>2019-01-24T14:08:22Z</time>
      </trkpt>
      <trkpt lat="47.10119" lon="-1.19438">
        <ele>63.58</ele>
        <time>2019-01-24T14:08:40Z</time>
      </trkpt>
      <trkpt lat="47.10115" lon="-1.19441">
        <ele>63.1</ele>
        <time>2019-01-24T14:08:43Z</time>
      </trkpt>
      <trkpt lat="47.10113" lon="-1.1944">
        <ele>64.55</ele>
        <time>2019-01-24T14:08:48Z</time>
      </trkpt>
      <trkpt lat="47.10114" lon="-1.1944">
        <ele>64.55</ele>
        <time>2019-01-24T14:09:09Z</time>
      </trkpt>
      <trkpt lat="47.10112" lon="-1.19441">
        <ele>64.55</ele>
        <time>2019-01-24T14:09:48Z</time>
      </trkpt>
      <trkpt lat="47.10117" lon="-1.19438">
        <ele>63.1</ele>
        <time>2019-01-24T14:09:51Z</time>
      </trkpt>
      <trkpt lat="47.1012" lon="-1.19436">
        <ele>62.62</ele>
        <time>2019-01-24T14:10:08Z</time>
      </trkpt>
      <trkpt lat="47.10118" lon="-1.19433">
        <ele>62.62</ele>
        <time>2019-01-24T14:10:32Z</time>
      </trkpt>
      <trkpt lat="47.10117" lon="-1.1943">
        <ele>62.62</ele>
        <time>2019-01-24T14:10:35Z</time>
      </trkpt>
      <trkpt lat="47.10112" lon="-1.19424">
        <ele>62.62</ele>
        <time>2019-01-24T14:10:40Z</time>
      </trkpt>
      <trkpt lat="47.10104" lon="-1.19414">
        <ele>62.14</ele>
        <time>2019-01-24T14:10:52Z</time>
      </trkpt>
      <trkpt lat="47.10095" lon="-1.19402">
        <ele>61.18</ele>
        <time>2019-01-24T14:11:06Z</time>
      </trkpt>
      <trkpt lat="47.10084" lon="-1.19385">
        <ele>61.18</ele>
        <time>2019-01-24T14:11:21Z</time>
      </trkpt>
      <trkpt lat="47.10071" lon="-1.19363">
        <ele>60.22</ele>
        <time>2019-01-24T14:11:38Z</time>
      </trkpt>
      <trkpt lat="47.10061" lon="-1.19343">
        <ele>59.74</ele>
        <time>2019-01-24T14:11:53Z</time>
      </trkpt>
      <trkpt lat="47.10053" lon="-1.19326">
        <ele>59.26</ele>
        <time>2019-01-24T14:12:07Z</time>
      </trkpt>
      <trkpt lat="47.10042" lon="-1.19301">
        <ele>58.78</ele>
        <time>2019-01-24T14:12:23Z</time>
      </trkpt>
      <trkpt lat="47.10035" lon="-1.19275">
        <ele>59.26</ele>
        <time>2019-01-24T14:12:40Z</time>
      </trkpt>
      <trkpt lat="47.1002" lon="-1.19251">
        <ele>59.26</ele>
        <time>2019-01-24T14:12:58Z</time>
      </trkpt>
      <trkpt lat="47.10013" lon="-1.19238">
        <ele>59.26</ele>
        <time>2019-01-24T14:13:12Z</time>
      </trkpt>
      <trkpt lat="47.10012" lon="-1.19232">
        <ele>59.26</ele>
        <time>2019-01-24T14:13:35Z</time>
      </trkpt>
      <trkpt lat="47.10014" lon="-1.19236">
        <ele>59.26</ele>
        <time>2019-01-24T14:14:05Z</time>
      </trkpt>
      <trkpt lat="47.10014" lon="-1.19237">
        <ele>60.7</ele>
        <time>2019-01-24T14:14:09Z</time>
      </trkpt>
      <trkpt lat="47.10013" lon="-1.19235">
        <ele>60.7</ele>
        <time>2019-01-24T14:14:27Z</time>
      </trkpt>
      <trkpt lat="47.1001" lon="-1.19231">
        <ele>60.7</ele>
        <time>2019-01-24T14:14:40Z</time>
      </trkpt>
      <trkpt lat="47.1001" lon="-1.19231">
        <ele>60.7</ele>
        <time>2019-01-24T14:15:11Z</time>
      </trkpt>
      <trkpt lat="47.10007" lon="-1.19232">
        <ele>60.7</ele>
        <time>2019-01-24T14:15:20Z</time>
      </trkpt>
      <trkpt lat="47.09989" lon="-1.19246">
        <ele>61.18</ele>
        <time>2019-01-24T14:15:37Z</time>
      </trkpt>
      <trkpt lat="47.09967" lon="-1.19257">
        <ele>61.18</ele>
        <time>2019-01-24T14:15:55Z</time>
      </trkpt>
      <trkpt lat="47.09948" lon="-1.19268">
        <ele>59.74</ele>
        <time>2019-01-24T14:16:12Z</time>
      </trkpt>
      <trkpt lat="47.09927" lon="-1.19279">
        <ele>58.3</ele>
        <time>2019-01-24T14:16:31Z</time>
      </trkpt>
      <trkpt lat="47.09918" lon="-1.19285">
        <ele>56.86</ele>
        <time>2019-01-24T14:16:39Z</time>
      </trkpt>
      <trkpt lat="47.099" lon="-1.19294">
        <ele>53.97</ele>
        <time>2019-01-24T14:16:57Z</time>
      </trkpt>
      <trkpt lat="47.09882" lon="-1.19302">
        <ele>52.05</ele>
        <time>2019-01-24T14:17:11Z</time>
      </trkpt>
      <trkpt lat="47.09867" lon="-1.19312">
        <ele>50.13</ele>
        <time>2019-01-24T14:17:29Z</time>
      </trkpt>
      <trkpt lat="47.09863" lon="-1.19315">
        <ele>49.16</ele>
        <time>2019-01-24T14:17:44Z</time>
      </trkpt>
      <trkpt lat="47.09864" lon="-1.19318">
        <ele>48.68</ele>
        <time>2019-01-24T14:18:02Z</time>
      </trkpt>
      <trkpt lat="47.09864" lon="-1.19316">
        <ele>48.68</ele>
        <time>2019-01-24T14:18:20Z</time>
      </trkpt>
      <trkpt lat="47.09865" lon="-1.19311">
        <ele>49.65</ele>
        <time>2019-01-24T14:18:32Z</time>
      </trkpt>
      <trkpt lat="47.09871" lon="-1.1931">
        <ele>50.13</ele>
        <time>2019-01-24T14:18:44Z</time>
      </trkpt>
      <trkpt lat="47.09871" lon="-1.19309">
        <ele>50.13</ele>
        <time>2019-01-24T14:19:24Z</time>
      </trkpt>
      <trkpt lat="47.09868" lon="-1.19308">
        <ele>51.09</ele>
        <time>2019-01-24T14:19:44Z</time>
      </trkpt>
      <trkpt lat="47.09853" lon="-1.19307">
        <ele>51.09</ele>
        <time>2019-01-24T14:19:59Z</time>
      </trkpt>
      <trkpt lat="47.09851" lon="-1.19307">
        <ele>51.09</ele>
        <time>2019-01-24T14:20:01Z</time>
      </trkpt>
      <trkpt lat="47.09835" lon="-1.19311">
        <ele>48.68</ele>
        <time>2019-01-24T14:20:18Z</time>
      </trkpt>
      <trkpt lat="47.09819" lon="-1.19312">
        <ele>47.24</ele>
        <time>2019-01-24T14:20:32Z</time>
      </trkpt>
      <trkpt lat="47.098" lon="-1.19309">
        <ele>45.32</ele>
        <time>2019-01-24T14:20:48Z</time>
      </trkpt>
      <trkpt lat="47.09792" lon="-1.19308">
        <ele>45.32</ele>
        <time>2019-01-24T14:20:57Z</time>
      </trkpt>
      <trkpt lat="47.09788" lon="-1.19307">
        <ele>44.84</ele>
        <time>2019-01-24T14:21:01Z</time>
      </trkpt>
      <trkpt lat="47.09776" lon="-1.19303">
        <ele>44.36</ele>
        <time>2019-01-24T14:21:12Z</time>
      </trkpt>
      <trkpt lat="47.0976" lon="-1.19298">
        <ele>43.4</ele>
        <time>2019-01-24T14:21:29Z</time>
      </trkpt>
      <trkpt lat="47.09742" lon="-1.19303">
        <ele>41.47</ele>
        <time>2019-01-24T14:21:44Z</time>
      </trkpt>
      <trkpt lat="47.09723" lon="-1.1931">
        <ele>39.07</ele>
        <time>2019-01-24T14:22:01Z</time>
      </trkpt>
      <trkpt lat="47.09717" lon="-1.1931">
        <ele>37.63</ele>
        <time>2019-01-24T14:22:17Z</time>
      </trkpt>
      <trkpt lat="47.09719" lon="-1.19308">
        <ele>37.63</ele>
        <time>2019-01-24T14:22:50Z</time>
      </trkpt>
      <trkpt lat="47.09713" lon="-1.19312">
        <ele>37.63</ele>
        <time>2019-01-24T14:23:06Z</time>
      </trkpt>
      <trkpt lat="47.09714" lon="-1.19317">
        <ele>37.63</ele>
        <time>2019-01-24T14:23:10Z</time>
      </trkpt>
      <trkpt lat="47.09704" lon="-1.19324">
        <ele>36.19</ele>
        <time>2019-01-24T14:23:20Z</time>
      </trkpt>
      <trkpt lat="47.09689" lon="-1.19338">
        <ele>34.74</ele>
        <time>2019-01-24T14:23:37Z</time>
      </trkpt>
      <trkpt lat="47.09675" lon="-1.19355">
        <ele>32.82</ele>
        <time>2019-01-24T14:23:52Z</time>
      </trkpt>
      <trkpt lat="47.09659" lon="-1.19368">
        <ele>31.86</ele>
        <time>2019-01-24T14:24:07Z</time>
      </trkpt>
      <trkpt lat="47.09648" lon="-1.19382">
        <ele>31.38</ele>
        <time>2019-01-24T14:24:21Z</time>
      </trkpt>
      <trkpt lat="47.09646" lon="-1.19382">
        <ele>30.9</ele>
        <time>2019-01-24T14:24:24Z</time>
      </trkpt>
      <trkpt lat="47.09628" lon="-1.19381">
        <ele>30.42</ele>
        <time>2019-01-24T14:24:39Z</time>
      </trkpt>
      <trkpt lat="47.09619" lon="-1.19378">
        <ele>29.94</ele>
        <time>2019-01-24T14:24:50Z</time>
      </trkpt>
      <trkpt lat="47.09613" lon="-1.19372">
        <ele>29.94</ele>
        <time>2019-01-24T14:25:05Z</time>
      </trkpt>
      <trkpt lat="47.09612" lon="-1.19378">
        <ele>29.94</ele>
        <time>2019-01-24T14:25:17Z</time>
      </trkpt>
      <trkpt lat="47.09613" lon="-1.19374">
        <ele>29.94</ele>
        <time>2019-01-24T14:25:26Z</time>
      </trkpt>
      <trkpt lat="47.09613" lon="-1.19374">
        <ele>29.94</ele>
        <time>2019-01-24T14:25:46Z</time>
      </trkpt>
      <trkpt lat="47.09612" lon="-1.19374">
        <ele>29.46</ele>
        <time>2019-01-24T14:26:11Z</time>
      </trkpt>
      <trkpt lat="47.0961" lon="-1.19377">
        <ele>29.46</ele>
        <time>2019-01-24T14:26:35Z</time>
      </trkpt>
      <trkpt lat="47.09609" lon="-1.19376">
        <ele>29.46</ele>
        <time>2019-01-24T14:27:03Z</time>
      </trkpt>
      <trkpt lat="47.0961" lon="-1.19377">
        <ele>29.46</ele>
        <time>2019-01-24T14:27:40Z</time>
      </trkpt>
      <trkpt lat="47.0961" lon="-1.19377">
        <ele>29.46</ele>
        <time>2019-01-24T14:28:10Z</time>
      </trkpt>
      <trkpt lat="47.0961" lon="-1.19374">
        <ele>29.46</ele>
        <time>2019-01-24T14:28:41Z</time>
      </trkpt>
      <trkpt lat="47.09612" lon="-1.19372">
        <ele>29.46</ele>
        <time>2019-01-24T14:29:11Z</time>
      </trkpt>
      <trkpt lat="47.09611" lon="-1.19374">
        <ele>29.46</ele>
        <time>2019-01-24T14:29:40Z</time>
      </trkpt>
      <trkpt lat="47.09613" lon="-1.19374">
        <ele>29.46</ele>
        <time>2019-01-24T14:30:06Z</time>
      </trkpt>
      <trkpt lat="47.09616" lon="-1.19375">
        <ele>29.46</ele>
        <time>2019-01-24T14:30:40Z</time>
      </trkpt>
      <trkpt lat="47.09615" lon="-1.19375">
        <ele>29.46</ele>
        <time>2019-01-24T14:31:08Z</time>
      </trkpt>
      <trkpt lat="47.09612" lon="-1.19375">
        <ele>29.46</ele>
        <time>2019-01-24T14:31:41Z</time>
      </trkpt>
      <trkpt lat="47.09612" lon="-1.19376">
        <ele>29.94</ele>
        <time>2019-01-24T14:32:15Z</time>
      </trkpt>
      <trkpt lat="47.09612" lon="-1.19375">
        <ele>29.94</ele>
        <time>2019-01-24T14:32:44Z</time>
      </trkpt>
      <trkpt lat="47.09609" lon="-1.19377">
        <ele>29.94</ele>
        <time>2019-01-24T14:33:20Z</time>
      </trkpt>
      <trkpt lat="47.09611" lon="-1.19374">
        <ele>29.94</ele>
        <time>2019-01-24T14:33:54Z</time>
      </trkpt>
      <trkpt lat="47.09611" lon="-1.1937">
        <ele>29.94</ele>
        <time>2019-01-24T14:34:19Z</time>
      </trkpt>
      <trkpt lat="47.09611" lon="-1.19375">
        <ele>29.94</ele>
        <time>2019-01-24T14:34:47Z</time>
      </trkpt>
      <trkpt lat="47.09609" lon="-1.19376">
        <ele>30.42</ele>
        <time>2019-01-24T14:35:18Z</time>
      </trkpt>
      <trkpt lat="47.09609" lon="-1.19375">
        <ele>30.42</ele>
        <time>2019-01-24T14:35:46Z</time>
      </trkpt>
      <trkpt lat="47.09611" lon="-1.19371">
        <ele>30.42</ele>
        <time>2019-01-24T14:36:16Z</time>
      </trkpt>
      <trkpt lat="47.09609" lon="-1.19374">
        <ele>30.42</ele>
        <time>2019-01-24T14:36:44Z</time>
      </trkpt>
      <trkpt lat="47.0961" lon="-1.19376">
        <ele>30.42</ele>
        <time>2019-01-24T14:37:17Z</time>
      </trkpt>
      <trkpt lat="47.09612" lon="-1.19377">
        <ele>30.9</ele>
        <time>2019-01-24T14:37:49Z</time>
      </trkpt>
      <trkpt lat="47.09611" lon="-1.19377">
        <ele>30.9</ele>
        <time>2019-01-24T14:38:15Z</time>
      </trkpt>
      <trkpt lat="47.0961" lon="-1.19381">
        <ele>30.9</ele>
        <time>2019-01-24T14:38:43Z</time>
      </trkpt>
      <trkpt lat="47.09611" lon="-1.19376">
        <ele>30.9</ele>
        <time>2019-01-24T14:39:14Z</time>
      </trkpt>
      <trkpt lat="47.09609" lon="-1.19369">
        <ele>30.9</ele>
        <time>2019-01-24T14:39:53Z</time>
      </trkpt>
      <trkpt lat="47.09607" lon="-1.19371">
        <ele>30.9</ele>
        <time>2019-01-24T14:40:25Z</time>
      </trkpt>
      <trkpt lat="47.09609" lon="-1.19376">
        <ele>30.9</ele>
        <time>2019-01-24T14:41:04Z</time>
      </trkpt>
      <trkpt lat="47.09613" lon="-1.19379">
        <ele>30.9</ele>
        <time>2019-01-24T14:41:33Z</time>
      </trkpt>
      <trkpt lat="47.09613" lon="-1.19375">
        <ele>30.9</ele>
        <time>2019-01-24T14:42:01Z</time>
      </trkpt>
      <trkpt lat="47.09612" lon="-1.19377">
        <ele>31.86</ele>
        <time>2019-01-24T14:42:30Z</time>
      </trkpt>
      <trkpt lat="47.09615" lon="-1.1938">
        <ele>31.86</ele>
        <time>2019-01-24T14:43:04Z</time>
      </trkpt>
      <trkpt lat="47.09616" lon="-1.19376">
        <ele>31.86</ele>
        <time>2019-01-24T14:43:36Z</time>
      </trkpt>
      <trkpt lat="47.09613" lon="-1.19378">
        <ele>31.86</ele>
        <time>2019-01-24T14:44:09Z</time>
      </trkpt>
      <trkpt lat="47.09617" lon="-1.19373">
        <ele>31.86</ele>
        <time>2019-01-24T14:44:28Z</time>
      </trkpt>
      <trkpt lat="47.09616" lon="-1.19376">
        <ele>32.34</ele>
        <time>2019-01-24T14:44:53Z</time>
      </trkpt>
      <trkpt lat="47.09611" lon="-1.19373">
        <ele>32.34</ele>
        <time>2019-01-24T14:45:12Z</time>
      </trkpt>
      <trkpt lat="47.09611" lon="-1.19371">
        <ele>32.34</ele>
        <time>2019-01-24T14:45:29Z</time>
      </trkpt>
      <trkpt lat="47.09611" lon="-1.19361">
        <ele>32.34</ele>
        <time>2019-01-24T14:45:45Z</time>
      </trkpt>
      <trkpt lat="47.09603" lon="-1.1935">
        <ele>32.34</ele>
        <time>2019-01-24T14:46:01Z</time>
      </trkpt>
      <trkpt lat="47.09601" lon="-1.19328">
        <ele>32.34</ele>
        <time>2019-01-24T14:46:16Z</time>
      </trkpt>
      <trkpt lat="47.09599" lon="-1.19301">
        <ele>31.86</ele>
        <time>2019-01-24T14:46:32Z</time>
      </trkpt>
      <trkpt lat="47.09599" lon="-1.19277">
        <ele>31.86</ele>
        <time>2019-01-24T14:46:48Z</time>
      </trkpt>
      <trkpt lat="47.096" lon="-1.19273">
        <ele>31.86</ele>
        <time>2019-01-24T14:46:51Z</time>
      </trkpt>
      <trkpt lat="47.09603" lon="-1.19252">
        <ele>31.86</ele>
        <time>2019-01-24T14:47:07Z</time>
      </trkpt>
      <trkpt lat="47.09602" lon="-1.19227">
        <ele>32.34</ele>
        <time>2019-01-24T14:47:24Z</time>
      </trkpt>
      <trkpt lat="47.09601" lon="-1.19204">
        <ele>32.34</ele>
        <time>2019-01-24T14:47:41Z</time>
      </trkpt>
      <trkpt lat="47.09598" lon="-1.19196">
        <ele>32.34</ele>
        <time>2019-01-24T14:47:47Z</time>
      </trkpt>
      <trkpt lat="47.09595" lon="-1.19185">
        <ele>31.38</ele>
        <time>2019-01-24T14:48:02Z</time>
      </trkpt>
      <trkpt lat="47.09598" lon="-1.19185">
        <ele>30.9</ele>
        <time>2019-01-24T14:48:28Z</time>
      </trkpt>
      <trkpt lat="47.096" lon="-1.19185">
        <ele>30.9</ele>
        <time>2019-01-24T14:49:00Z</time>
      </trkpt>
      <trkpt lat="47.09598" lon="-1.19183">
        <ele>30.9</ele>
        <time>2019-01-24T14:49:24Z</time>
      </trkpt>
      <trkpt lat="47.09594" lon="-1.19176">
        <ele>30.9</ele>
        <time>2019-01-24T14:49:41Z</time>
      </trkpt>
      <trkpt lat="47.09592" lon="-1.19159">
        <ele>32.34</ele>
        <time>2019-01-24T14:49:51Z</time>
      </trkpt>
      <trkpt lat="47.09591" lon="-1.1913">
        <ele>32.34</ele>
        <time>2019-01-24T14:50:08Z</time>
      </trkpt>
      <trkpt lat="47.09589" lon="-1.19099">
        <ele>32.82</ele>
        <time>2019-01-24T14:50:24Z</time>
      </trkpt>
      <trkpt lat="47.09589" lon="-1.19071">
        <ele>32.34</ele>
        <time>2019-01-24T14:50:40Z</time>
      </trkpt>
      <trkpt lat="47.0959" lon="-1.1907">
        <ele>32.34</ele>
        <time>2019-01-24T14:50:41Z</time>
      </trkpt>
      <trkpt lat="47.09587" lon="-1.19043">
        <ele>32.34</ele>
        <time>2019-01-24T14:50:56Z</time>
      </trkpt>
      <trkpt lat="47.09584" lon="-1.19022">
        <ele>31.38</ele>
        <time>2019-01-24T14:51:08Z</time>
      </trkpt>
      <trkpt lat="47.09584" lon="-1.19017">
        <ele>31.38</ele>
        <time>2019-01-24T14:51:12Z</time>
      </trkpt>
      <trkpt lat="47.09582" lon="-1.18999">
        <ele>31.38</ele>
        <time>2019-01-24T14:51:23Z</time>
      </trkpt>
      <trkpt lat="47.09584" lon="-1.18976">
        <ele>31.38</ele>
        <time>2019-01-24T14:51:37Z</time>
      </trkpt>
      <trkpt lat="47.09591" lon="-1.18967">
        <ele>31.38</ele>
        <time>2019-01-24T14:51:55Z</time>
      </trkpt>
      <trkpt lat="47.09588" lon="-1.18972">
        <ele>30.9</ele>
        <time>2019-01-24T14:52:12Z</time>
      </trkpt>
      <trkpt lat="47.09588" lon="-1.18976">
        <ele>30.9</ele>
        <time>2019-01-24T14:52:24Z</time>
      </trkpt>
      <trkpt lat="47.0959" lon="-1.18972">
        <ele>30.9</ele>
        <time>2019-01-24T14:52:41Z</time>
      </trkpt>
      <trkpt lat="47.0959" lon="-1.18971">
        <ele>30.9</ele>
        <time>2019-01-24T14:52:58Z</time>
      </trkpt>
      <trkpt lat="47.0959" lon="-1.18971">
        <ele>30.9</ele>
        <time>2019-01-24T14:53:35Z</time>
      </trkpt>
      <trkpt lat="47.09589" lon="-1.18966">
        <ele>30.9</ele>
        <time>2019-01-24T14:53:58Z</time>
      </trkpt>
      <trkpt lat="47.09595" lon="-1.18962">
        <ele>32.34</ele>
        <time>2019-01-24T14:54:13Z</time>
      </trkpt>
      <trkpt lat="47.09597" lon="-1.18957">
        <ele>32.34</ele>
        <time>2019-01-24T14:54:33Z</time>
      </trkpt>
      <trkpt lat="47.09602" lon="-1.18933">
        <ele>34.74</ele>
        <time>2019-01-24T14:54:51Z</time>
      </trkpt>
      <trkpt lat="47.09609" lon="-1.1891">
        <ele>36.67</ele>
        <time>2019-01-24T14:55:10Z</time>
      </trkpt>
      <trkpt lat="47.09613" lon="-1.18883">
        <ele>37.15</ele>
        <time>2019-01-24T14:55:28Z</time>
      </trkpt>
      <trkpt lat="47.09615" lon="-1.18858">
        <ele>39.07</ele>
        <time>2019-01-24T14:55:48Z</time>
      </trkpt>
      <trkpt lat="47.09624" lon="-1.18825">
        <ele>41.47</ele>
        <time>2019-01-24T14:56:11Z</time>
      </trkpt>
      <trkpt lat="47.09627" lon="-1.1882">
        <ele>41.95</ele>
        <time>2019-01-24T14:56:16Z</time>
      </trkpt>
      <trkpt lat="47.09631" lon="-1.18794">
        <ele>42.92</ele>
        <time>2019-01-24T14:56:33Z</time>
      </trkpt>
      <trkpt lat="47.09627" lon="-1.1877">
        <ele>43.4</ele>
        <time>2019-01-24T14:56:49Z</time>
      </trkpt>
      <trkpt lat="47.0963" lon="-1.18741">
        <ele>44.36</ele>
        <time>2019-01-24T14:57:07Z</time>
      </trkpt>
      <trkpt lat="47.0963" lon="-1.18711">
        <ele>46.28</ele>
        <time>2019-01-24T14:57:26Z</time>
      </trkpt>
      <trkpt lat="47.09633" lon="-1.18681">
        <ele>46.28</ele>
        <time>2019-01-24T14:57:45Z</time>
      </trkpt>
      <trkpt lat="47.09634" lon="-1.18663">
        <ele>44.84</ele>
        <time>2019-01-24T14:57:58Z</time>
      </trkpt>
      <trkpt lat="47.09635" lon="-1.18664">
        <ele>44.84</ele>
        <time>2019-01-24T14:58:14Z</time>
      </trkpt>
      <trkpt lat="47.09636" lon="-1.18662">
        <ele>44.84</ele>
        <time>2019-01-24T14:58:44Z</time>
      </trkpt>
      <trkpt lat="47.09656" lon="-1.18662">
        <ele>48.2</ele>
        <time>2019-01-24T14:59:02Z</time>
      </trkpt>
      <trkpt lat="47.09673" lon="-1.18661">
        <ele>50.61</ele>
        <time>2019-01-24T14:59:14Z</time>
      </trkpt>
      <trkpt lat="47.09688" lon="-1.18658">
        <ele>53.49</ele>
        <time>2019-01-24T14:59:28Z</time>
      </trkpt>
      <trkpt lat="47.09706" lon="-1.18654">
        <ele>55.41</ele>
        <time>2019-01-24T14:59:44Z</time>
      </trkpt>
      <trkpt lat="47.09718" lon="-1.18646">
        <ele>55.89</ele>
        <time>2019-01-24T14:59:58Z</time>
      </trkpt>
      <trkpt lat="47.0972" lon="-1.1864">
        <ele>55.89</ele>
        <time>2019-01-24T15:00:03Z</time>
      </trkpt>
      <trkpt lat="47.09724" lon="-1.18629">
        <ele>56.37</ele>
        <time>2019-01-24T15:00:11Z</time>
      </trkpt>
      <trkpt lat="47.09726" lon="-1.1863">
        <ele>56.86</ele>
        <time>2019-01-24T15:00:13Z</time>
      </trkpt>
      <trkpt lat="47.09729" lon="-1.18634">
        <ele>56.86</ele>
        <time>2019-01-24T15:00:25Z</time>
      </trkpt>
      <trkpt lat="47.09728" lon="-1.18634">
        <ele>56.86</ele>
        <time>2019-01-24T15:00:44Z</time>
      </trkpt>
      <trkpt lat="47.09729" lon="-1.18635">
        <ele>56.86</ele>
        <time>2019-01-24T15:01:15Z</time>
      </trkpt>
      <trkpt lat="47.09733" lon="-1.18632">
        <ele>57.34</ele>
        <time>2019-01-24T15:01:41Z</time>
      </trkpt>
      <trkpt lat="47.0973" lon="-1.18635">
        <ele>57.34</ele>
        <time>2019-01-24T15:02:11Z</time>
      </trkpt>
      <trkpt lat="47.0973" lon="-1.18636">
        <ele>57.34</ele>
        <time>2019-01-24T15:02:35Z</time>
      </trkpt>
      <trkpt lat="47.09729" lon="-1.18635">
        <ele>57.34</ele>
        <time>2019-01-24T15:03:02Z</time>
      </trkpt>
      <trkpt lat="47.09733" lon="-1.18636">
        <ele>57.34</ele>
        <time>2019-01-24T15:03:28Z</time>
      </trkpt>
      <trkpt lat="47.0973" lon="-1.18636">
        <ele>57.34</ele>
        <time>2019-01-24T15:03:46Z</time>
      </trkpt>
      <trkpt lat="47.09733" lon="-1.18635">
        <ele>57.34</ele>
        <time>2019-01-24T15:04:10Z</time>
      </trkpt>
      <trkpt lat="47.09742" lon="-1.18644">
        <ele>57.34</ele>
        <time>2019-01-24T15:04:23Z</time>
      </trkpt>
      <trkpt lat="47.09761" lon="-1.18645">
        <ele>58.78</ele>
        <time>2019-01-24T15:04:39Z</time>
      </trkpt>
      <trkpt lat="47.0978" lon="-1.18645">
        <ele>60.22</ele>
        <time>2019-01-24T15:04:56Z</time>
      </trkpt>
      <trkpt lat="47.09799" lon="-1.18646">
        <ele>61.66</ele>
        <time>2019-01-24T15:05:14Z</time>
      </trkpt>
      <trkpt lat="47.09808" lon="-1.18645">
        <ele>62.14</ele>
        <time>2019-01-24T15:05:21Z</time>
      </trkpt>
      <trkpt lat="47.09835" lon="-1.18642">
        <ele>65.51</ele>
        <time>2019-01-24T15:05:42Z</time>
      </trkpt>
      <trkpt lat="47.09838" lon="-1.1864">
        <ele>65.99</ele>
        <time>2019-01-24T15:05:46Z</time>
      </trkpt>
      <trkpt lat="47.09862" lon="-1.18641">
        <ele>68.87</ele>
        <time>2019-01-24T15:06:04Z</time>
      </trkpt>
      <trkpt lat="47.09875" lon="-1.18637">
        <ele>70.79</ele>
        <time>2019-01-24T15:06:18Z</time>
      </trkpt>
      <trkpt lat="47.0988" lon="-1.1864">
        <ele>71.27</ele>
        <time>2019-01-24T15:06:24Z</time>
      </trkpt>
      <trkpt lat="47.09891" lon="-1.18664">
        <ele>72.24</ele>
        <time>2019-01-24T15:06:42Z</time>
      </trkpt>
      <trkpt lat="47.099" lon="-1.1869">
        <ele>72.24</ele>
        <time>2019-01-24T15:06:59Z</time>
      </trkpt>
      <trkpt lat="47.09904" lon="-1.18691">
        <ele>72.24</ele>
        <time>2019-01-24T15:07:03Z</time>
      </trkpt>
      <trkpt lat="47.09909" lon="-1.18694">
        <ele>72.72</ele>
        <time>2019-01-24T15:07:21Z</time>
      </trkpt>
      <trkpt lat="47.09912" lon="-1.18699">
        <ele>72.72</ele>
        <time>2019-01-24T15:07:45Z</time>
      </trkpt>
      <trkpt lat="47.09907" lon="-1.18699">
        <ele>72.72</ele>
        <time>2019-01-24T15:08:03Z</time>
      </trkpt>
      <trkpt lat="47.09907" lon="-1.18699">
        <ele>72.72</ele>
        <time>2019-01-24T15:08:22Z</time>
      </trkpt>
      <trkpt lat="47.09909" lon="-1.18693">
        <ele>73.2</ele>
        <time>2019-01-24T15:08:30Z</time>
      </trkpt>
      <trkpt lat="47.09912" lon="-1.18691">
        <ele>73.2</ele>
        <time>2019-01-24T15:08:32Z</time>
      </trkpt>
      <trkpt lat="47.09924" lon="-1.18691">
        <ele>73.2</ele>
        <time>2019-01-24T15:08:44Z</time>
      </trkpt>
      <trkpt lat="47.09937" lon="-1.1868">
        <ele>73.68</ele>
        <time>2019-01-24T15:08:59Z</time>
      </trkpt>
      <trkpt lat="47.09939" lon="-1.18677">
        <ele>74.16</ele>
        <time>2019-01-24T15:09:01Z</time>
      </trkpt>
      <trkpt lat="47.09951" lon="-1.18672">
        <ele>74.64</ele>
        <time>2019-01-24T15:09:15Z</time>
      </trkpt>
      <trkpt lat="47.09958" lon="-1.18669">
        <ele>74.64</ele>
        <time>2019-01-24T15:09:27Z</time>
      </trkpt>
      <trkpt lat="47.0997" lon="-1.18652">
        <ele>74.64</ele>
        <time>2019-01-24T15:09:41Z</time>
      </trkpt>
      <trkpt lat="47.09974" lon="-1.18631">
        <ele>74.64</ele>
        <time>2019-01-24T15:09:55Z</time>
      </trkpt>
      <trkpt lat="47.09974" lon="-1.18628">
        <ele>74.64</ele>
        <time>2019-01-24T15:09:57Z</time>
      </trkpt>
      <trkpt lat="47.09976" lon="-1.18624">
        <ele>74.64</ele>
        <time>2019-01-24T15:09:59Z</time>
      </trkpt>
      <trkpt lat="47.0998" lon="-1.18591">
        <ele>73.68</ele>
        <time>2019-01-24T15:10:18Z</time>
      </trkpt>
      <trkpt lat="47.09985" lon="-1.18578">
        <ele>73.68</ele>
        <time>2019-01-24T15:10:31Z</time>
      </trkpt>
      <trkpt lat="47.09986" lon="-1.18576">
        <ele>73.68</ele>
        <time>2019-01-24T15:10:33Z</time>
      </trkpt>
      <trkpt lat="47.0999" lon="-1.18571">
        <ele>73.2</ele>
        <time>2019-01-24T15:10:49Z</time>
      </trkpt>
      <trkpt lat="47.09989" lon="-1.18571">
        <ele>73.2</ele>
        <time>2019-01-24T15:11:04Z</time>
      </trkpt>
      <trkpt lat="47.09989" lon="-1.18572">
        <ele>73.68</ele>
        <time>2019-01-24T15:11:23Z</time>
      </trkpt>
      <trkpt lat="47.09989" lon="-1.18572">
        <ele>73.68</ele>
        <time>2019-01-24T15:11:39Z</time>
      </trkpt>
      <trkpt lat="47.09988" lon="-1.18571">
        <ele>73.68</ele>
        <time>2019-01-24T15:11:51Z</time>
      </trkpt>
      <trkpt lat="47.0999" lon="-1.18572">
        <ele>73.68</ele>
        <time>2019-01-24T15:12:12Z</time>
      </trkpt>
      <trkpt lat="47.09991" lon="-1.1857">
        <ele>73.68</ele>
        <time>2019-01-24T15:12:31Z</time>
      </trkpt>
      <trkpt lat="47.09987" lon="-1.18571">
        <ele>73.68</ele>
        <time>2019-01-24T15:12:50Z</time>
      </trkpt>
      <trkpt lat="47.09987" lon="-1.1857">
        <ele>73.68</ele>
        <time>2019-01-24T15:13:23Z</time>
      </trkpt>
      <trkpt lat="47.09984" lon="-1.18569">
        <ele>73.68</ele>
        <time>2019-01-24T15:14:02Z</time>
      </trkpt>
      <trkpt lat="47.09986" lon="-1.1857">
        <ele>73.68</ele>
        <time>2019-01-24T15:14:33Z</time>
      </trkpt>
      <trkpt lat="47.09984" lon="-1.18572">
        <ele>74.16</ele>
        <time>2019-01-24T15:14:49Z</time>
      </trkpt>
      <trkpt lat="47.09985" lon="-1.18576">
        <ele>74.16</ele>
        <time>2019-01-24T15:15:12Z</time>
      </trkpt>
      <trkpt lat="47.09985" lon="-1.18579">
        <ele>74.16</ele>
        <time>2019-01-24T15:15:14Z</time>
      </trkpt>
      <trkpt lat="47.0998" lon="-1.18597">
        <ele>73.68</ele>
        <time>2019-01-24T15:15:29Z</time>
      </trkpt>
      <trkpt lat="47.09977" lon="-1.1863">
        <ele>73.68</ele>
        <time>2019-01-24T15:15:47Z</time>
      </trkpt>
      <trkpt lat="47.09974" lon="-1.18649">
        <ele>74.64</ele>
        <time>2019-01-24T15:15:58Z</time>
      </trkpt>
      <trkpt lat="47.0997" lon="-1.18668">
        <ele>75.12</ele>
        <time>2019-01-24T15:16:10Z</time>
      </trkpt>
      <trkpt lat="47.09966" lon="-1.18675">
        <ele>75.12</ele>
        <time>2019-01-24T15:16:25Z</time>
      </trkpt>
      <trkpt lat="47.09969" lon="-1.187">
        <ele>75.12</ele>
        <time>2019-01-24T15:16:39Z</time>
      </trkpt>
      <trkpt lat="47.09978" lon="-1.18726">
        <ele>75.12</ele>
        <time>2019-01-24T15:16:55Z</time>
      </trkpt>
      <trkpt lat="47.09985" lon="-1.18752">
        <ele>75.6</ele>
        <time>2019-01-24T15:17:12Z</time>
      </trkpt>
      <trkpt lat="47.09986" lon="-1.18765">
        <ele>75.6</ele>
        <time>2019-01-24T15:17:19Z</time>
      </trkpt>
      <trkpt lat="47.09987" lon="-1.18775">
        <ele>75.6</ele>
        <time>2019-01-24T15:17:26Z</time>
      </trkpt>
      <trkpt lat="47.09969" lon="-1.18791">
        <ele>74.16</ele>
        <time>2019-01-24T15:17:44Z</time>
      </trkpt>
      <trkpt lat="47.0996" lon="-1.1881">
        <ele>73.68</ele>
        <time>2019-01-24T15:18:00Z</time>
      </trkpt>
      <trkpt lat="47.09956" lon="-1.18811">
        <ele>73.2</ele>
        <time>2019-01-24T15:18:16Z</time>
      </trkpt>
      <trkpt lat="47.09959" lon="-1.18803">
        <ele>73.2</ele>
        <time>2019-01-24T15:18:38Z</time>
      </trkpt>
      <trkpt lat="47.09955" lon="-1.18805">
        <ele>73.2</ele>
        <time>2019-01-24T15:18:57Z</time>
      </trkpt>
      <trkpt lat="47.09959" lon="-1.18807">
        <ele>73.2</ele>
        <time>2019-01-24T15:19:08Z</time>
      </trkpt>
      <trkpt lat="47.09957" lon="-1.18799">
        <ele>73.2</ele>
        <time>2019-01-24T15:19:28Z</time>
      </trkpt>
      <trkpt lat="47.09959" lon="-1.18795">
        <ele>73.2</ele>
        <time>2019-01-24T15:19:47Z</time>
      </trkpt>
      <trkpt lat="47.0996" lon="-1.18803">
        <ele>73.2</ele>
        <time>2019-01-24T15:20:03Z</time>
      </trkpt>
      <trkpt lat="47.09955" lon="-1.18804">
        <ele>73.2</ele>
        <time>2019-01-24T15:20:15Z</time>
      </trkpt>
      <trkpt lat="47.09949" lon="-1.18811">
        <ele>73.2</ele>
        <time>2019-01-24T15:20:32Z</time>
      </trkpt>
      <trkpt lat="47.09955" lon="-1.18808">
        <ele>73.2</ele>
        <time>2019-01-24T15:20:45Z</time>
      </trkpt>
      <trkpt lat="47.09956" lon="-1.18802">
        <ele>73.2</ele>
        <time>2019-01-24T15:21:02Z</time>
      </trkpt>
      <trkpt lat="47.09958" lon="-1.18808">
        <ele>73.2</ele>
        <time>2019-01-24T15:21:21Z</time>
      </trkpt>
      <trkpt lat="47.09956" lon="-1.18803">
        <ele>73.68</ele>
        <time>2019-01-24T15:21:44Z</time>
      </trkpt>
      <trkpt lat="47.09954" lon="-1.18805">
        <ele>73.68</ele>
        <time>2019-01-24T15:21:59Z</time>
      </trkpt>
      <trkpt lat="47.09954" lon="-1.18808">
        <ele>73.68</ele>
        <time>2019-01-24T15:22:19Z</time>
      </trkpt>
      <trkpt lat="47.09953" lon="-1.1881">
        <ele>73.68</ele>
        <time>2019-01-24T15:22:34Z</time>
      </trkpt>
      <trkpt lat="47.09954" lon="-1.18808">
        <ele>72.72</ele>
        <time>2019-01-24T15:22:48Z</time>
      </trkpt>
      <trkpt lat="47.09955" lon="-1.18808">
        <ele>72.72</ele>
        <time>2019-01-24T15:22:53Z</time>
      </trkpt>
      <trkpt lat="47.09958" lon="-1.18794">
        <ele>72.72</ele>
        <time>2019-01-24T15:23:09Z</time>
      </trkpt>
      <trkpt lat="47.09957" lon="-1.18793">
        <ele>72.72</ele>
        <time>2019-01-24T15:23:10Z</time>
      </trkpt>
      <trkpt lat="47.09955" lon="-1.18803">
        <ele>74.16</ele>
        <time>2019-01-24T15:23:26Z</time>
      </trkpt>
      <trkpt lat="47.09954" lon="-1.18801">
        <ele>74.16</ele>
        <time>2019-01-24T15:23:44Z</time>
      </trkpt>
      <trkpt lat="47.09953" lon="-1.18803">
        <ele>74.16</ele>
        <time>2019-01-24T15:23:56Z</time>
      </trkpt>
      <trkpt lat="47.09955" lon="-1.18804">
        <ele>74.16</ele>
        <time>2019-01-24T15:24:12Z</time>
      </trkpt>
      <trkpt lat="47.09954" lon="-1.18808">
        <ele>74.16</ele>
        <time>2019-01-24T15:24:31Z</time>
      </trkpt>
      <trkpt lat="47.09953" lon="-1.18812">
        <ele>74.16</ele>
        <time>2019-01-24T15:24:46Z</time>
      </trkpt>
      <trkpt lat="47.09956" lon="-1.1881">
        <ele>74.16</ele>
        <time>2019-01-24T15:24:59Z</time>
      </trkpt>
      <trkpt lat="47.09957" lon="-1.18808">
        <ele>74.16</ele>
        <time>2019-01-24T15:25:12Z</time>
      </trkpt>
      <trkpt lat="47.09956" lon="-1.18807">
        <ele>74.64</ele>
        <time>2019-01-24T15:25:35Z</time>
      </trkpt>
      <trkpt lat="47.09955" lon="-1.18808">
        <ele>74.64</ele>
        <time>2019-01-24T15:26:02Z</time>
      </trkpt>
      <trkpt lat="47.09953" lon="-1.18809">
        <ele>74.64</ele>
        <time>2019-01-24T15:26:04Z</time>
      </trkpt>
      <trkpt lat="47.09945" lon="-1.18806">
        <ele>74.64</ele>
        <time>2019-01-24T15:26:18Z</time>
      </trkpt>
      <trkpt lat="47.09949" lon="-1.18792">
        <ele>75.12</ele>
        <time>2019-01-24T15:26:34Z</time>
      </trkpt>
      <trkpt lat="47.0995" lon="-1.1879">
        <ele>75.12</ele>
        <time>2019-01-24T15:26:45Z</time>
      </trkpt>
      <trkpt lat="47.09949" lon="-1.18797">
        <ele>74.64</ele>
        <time>2019-01-24T15:26:59Z</time>
      </trkpt>
      <trkpt lat="47.09942" lon="-1.18815">
        <ele>73.68</ele>
        <time>2019-01-24T15:27:14Z</time>
      </trkpt>
      <trkpt lat="47.09939" lon="-1.18814">
        <ele>73.68</ele>
        <time>2019-01-24T15:27:17Z</time>
      </trkpt>
      <trkpt lat="47.09934" lon="-1.18814">
        <ele>73.68</ele>
        <time>2019-01-24T15:27:21Z</time>
      </trkpt>
      <trkpt lat="47.09934" lon="-1.18818">
        <ele>73.2</ele>
        <time>2019-01-24T15:27:24Z</time>
      </trkpt>
      <trkpt lat="47.09936" lon="-1.18837">
        <ele>73.2</ele>
        <time>2019-01-24T15:27:40Z</time>
      </trkpt>
      <trkpt lat="47.09935" lon="-1.18857">
        <ele>73.2</ele>
        <time>2019-01-24T15:27:55Z</time>
      </trkpt>
      <trkpt lat="47.09938" lon="-1.18883">
        <ele>72.72</ele>
        <time>2019-01-24T15:28:12Z</time>
      </trkpt>
      <trkpt lat="47.09939" lon="-1.18908">
        <ele>72.24</ele>
        <time>2019-01-24T15:28:27Z</time>
      </trkpt>
      <trkpt lat="47.0994" lon="-1.18913">
        <ele>72.24</ele>
        <time>2019-01-24T15:28:33Z</time>
      </trkpt>
      <trkpt lat="47.09944" lon="-1.1893">
        <ele>72.24</ele>
        <time>2019-01-24T15:28:45Z</time>
      </trkpt>
      <trkpt lat="47.09948" lon="-1.1896">
        <ele>72.24</ele>
        <time>2019-01-24T15:29:02Z</time>
      </trkpt>
      <trkpt lat="47.09954" lon="-1.1898">
        <ele>72.24</ele>
        <time>2019-01-24T15:29:17Z</time>
      </trkpt>
      <trkpt lat="47.09953" lon="-1.18986">
        <ele>72.24</ele>
        <time>2019-01-24T15:29:22Z</time>
      </trkpt>
      <trkpt lat="47.09952" lon="-1.18994">
        <ele>72.24</ele>
        <time>2019-01-24T15:29:27Z</time>
      </trkpt>
      <trkpt lat="47.09949" lon="-1.19007">
        <ele>72.24</ele>
        <time>2019-01-24T15:29:35Z</time>
      </trkpt>
      <trkpt lat="47.09955" lon="-1.19021">
        <ele>72.24</ele>
        <time>2019-01-24T15:29:48Z</time>
      </trkpt>
      <trkpt lat="47.09955" lon="-1.19022">
        <ele>72.24</ele>
        <time>2019-01-24T15:30:07Z</time>
      </trkpt>
      <trkpt lat="47.09954" lon="-1.1902">
        <ele>71.76</ele>
        <time>2019-01-24T15:30:23Z</time>
      </trkpt>
      <trkpt lat="47.09954" lon="-1.19023">
        <ele>71.76</ele>
        <time>2019-01-24T15:30:58Z</time>
      </trkpt>
      <trkpt lat="47.09953" lon="-1.19022">
        <ele>71.76</ele>
        <time>2019-01-24T15:31:25Z</time>
      </trkpt>
      <trkpt lat="47.09953" lon="-1.19015">
        <ele>71.76</ele>
        <time>2019-01-24T15:31:39Z</time>
      </trkpt>
      <trkpt lat="47.09954" lon="-1.19015">
        <ele>71.76</ele>
        <time>2019-01-24T15:31:59Z</time>
      </trkpt>
      <trkpt lat="47.09953" lon="-1.19007">
        <ele>71.76</ele>
        <time>2019-01-24T15:32:15Z</time>
      </trkpt>
      <trkpt lat="47.0995" lon="-1.18988">
        <ele>71.76</ele>
        <time>2019-01-24T15:32:31Z</time>
      </trkpt>
      <trkpt lat="47.09948" lon="-1.18962">
        <ele>71.27</ele>
        <time>2019-01-24T15:32:47Z</time>
      </trkpt>
      <trkpt lat="47.09944" lon="-1.1894">
        <ele>71.27</ele>
        <time>2019-01-24T15:33:02Z</time>
      </trkpt>
      <trkpt lat="47.09941" lon="-1.18915">
        <ele>71.27</ele>
        <time>2019-01-24T15:33:19Z</time>
      </trkpt>
      <trkpt lat="47.09941" lon="-1.18914">
        <ele>71.27</ele>
        <time>2019-01-24T15:33:20Z</time>
      </trkpt>
      <trkpt lat="47.09939" lon="-1.18899">
        <ele>71.27</ele>
        <time>2019-01-24T15:33:30Z</time>
      </trkpt>
      <trkpt lat="47.09933" lon="-1.18873">
        <ele>70.79</ele>
        <time>2019-01-24T15:33:46Z</time>
      </trkpt>
      <trkpt lat="47.09934" lon="-1.18858">
        <ele>70.79</ele>
        <time>2019-01-24T15:33:55Z</time>
      </trkpt>
      <trkpt lat="47.09935" lon="-1.18843">
        <ele>70.79</ele>
        <time>2019-01-24T15:34:05Z</time>
      </trkpt>
      <trkpt lat="47.09932" lon="-1.18814">
        <ele>70.79</ele>
        <time>2019-01-24T15:34:21Z</time>
      </trkpt>
      <trkpt lat="47.09932" lon="-1.18786">
        <ele>70.79</ele>
        <time>2019-01-24T15:34:38Z</time>
      </trkpt>
      <trkpt lat="47.09931" lon="-1.18761">
        <ele>70.79</ele>
        <time>2019-01-24T15:34:53Z</time>
      </trkpt>
      <trkpt lat="47.09926" lon="-1.18738">
        <ele>70.79</ele>
        <time>2019-01-24T15:35:08Z</time>
      </trkpt>
      <trkpt lat="47.09926" lon="-1.18733">
        <ele>70.79</ele>
        <time>2019-01-24T15:35:11Z</time>
      </trkpt>
      <trkpt lat="47.09922" lon="-1.18701">
        <ele>72.24</ele>
        <time>2019-01-24T15:35:28Z</time>
      </trkpt>
      <trkpt lat="47.09919" lon="-1.18695">
        <ele>72.72</ele>
        <time>2019-01-24T15:35:40Z</time>
      </trkpt>
      <trkpt lat="47.09919" lon="-1.18696">
        <ele>72.72</ele>
        <time>2019-01-24T15:35:58Z</time>
      </trkpt>
      <trkpt lat="47.09917" lon="-1.18693">
        <ele>72.72</ele>
        <time>2019-01-24T15:36:20Z</time>
      </trkpt>
      <trkpt lat="47.09918" lon="-1.18696">
        <ele>72.72</ele>
        <time>2019-01-24T15:36:41Z</time>
      </trkpt>
      <trkpt lat="47.09919" lon="-1.18699">
        <ele>72.72</ele>
        <time>2019-01-24T15:37:01Z</time>
      </trkpt>
      <trkpt lat="47.09912" lon="-1.18696">
        <ele>72.72</ele>
        <time>2019-01-24T15:37:25Z</time>
      </trkpt>
      <trkpt lat="47.09911" lon="-1.18695">
        <ele>72.72</ele>
        <time>2019-01-24T15:37:26Z</time>
      </trkpt>
      <trkpt lat="47.09898" lon="-1.18681">
        <ele>71.76</ele>
        <time>2019-01-24T15:37:37Z</time>
      </trkpt>
      <trkpt lat="47.0989" lon="-1.18657">
        <ele>71.76</ele>
        <time>2019-01-24T15:37:54Z</time>
      </trkpt>
      <trkpt lat="47.09877" lon="-1.18641">
        <ele>70.79</ele>
        <time>2019-01-24T15:38:09Z</time>
      </trkpt>
      <trkpt lat="47.09857" lon="-1.1864">
        <ele>67.43</ele>
        <time>2019-01-24T15:38:25Z</time>
      </trkpt>
      <trkpt lat="47.09851" lon="-1.1864">
        <ele>67.43</ele>
        <time>2019-01-24T15:38:29Z</time>
      </trkpt>
      <trkpt lat="47.09837" lon="-1.18636">
        <ele>65.51</ele>
        <time>2019-01-24T15:38:38Z</time>
      </trkpt>
      <trkpt lat="47.09817" lon="-1.18633">
        <ele>63.1</ele>
        <time>2019-01-24T15:38:53Z</time>
      </trkpt>
      <trkpt lat="47.09797" lon="-1.18638">
        <ele>61.18</ele>
        <time>2019-01-24T15:39:11Z</time>
      </trkpt>
      <trkpt lat="47.09775" lon="-1.18643">
        <ele>59.26</ele>
        <time>2019-01-24T15:39:26Z</time>
      </trkpt>
      <trkpt lat="47.09755" lon="-1.18644">
        <ele>58.3</ele>
        <time>2019-01-24T15:39:42Z</time>
      </trkpt>
      <trkpt lat="47.09736" lon="-1.18638">
        <ele>57.82</ele>
        <time>2019-01-24T15:39:57Z</time>
      </trkpt>
      <trkpt lat="47.09728" lon="-1.18633">
        <ele>56.86</ele>
        <time>2019-01-24T15:40:11Z</time>
      </trkpt>
      <trkpt lat="47.0973" lon="-1.18634">
        <ele>56.86</ele>
        <time>2019-01-24T15:40:23Z</time>
      </trkpt>
    </trkseg>
  </trk>
</gpx>